Site Date RecNum LW_MEAN_3000_0_04 LWDRY_TOT_3000_0_04 LWCON_TOT_3000_0_04 LWWET_TOT_3000_0_04 LW_MEAN_4000_0_05 LWDRY_TOT_4000_0_05 LWCON_TOT_4000_0_05 LWWET_TOT_4000_0_05 LW_MEAN_5000_0_06 LWDRY_TOT_5000_0_06 LWCON_TOT_5000_0_06 LWWET_TOT_5000_0_06 AIRTEMP_MEAN_5000_0_06 RELHUM_MEAN_5000_0_06 DEWPT_MEAN_5000_0_06 WSPD_SNC_MEAN_5000_0_02 WSPD_SNC_MAG_5000_0_02 WDIR_SNC_MEAN_5000_0_02 WDIR_SNC_STDDEV_5000_0_02 WSPD_SNC_MAX_5000_0_02 AIRTEMP_MAX_5000_0_06 AIRTEMP_MIN_5000_0_06 RELHUM_MAX_5000_0_06 RELHUM_MIN_5000_0_06 SATVAPAIR_MEAN_5000_0_06 SATVAPDEW_MEAN_5000_0_06 VPD_MEAN_5000_0_06
DSCMET_421 2017-10-01 00:00:00 90290 416.800 0.0000 0.0000 5.0000 461.700 0.0000 0.0000 5.0000 399.800 0.0000 0.0000 5.0000 9.160 98.900 8.996           9.210 9.130 98.900 98.800 11.604 11.477 0.128
DSCMET_421 2017-09-30 23:55:00 90289 416.500 0.0000 0.0000 5.0000 462.200 0.0000 0.0000 5.0000 403.800 0.0000 0.0000 5.0000 9.110 98.800 8.931           9.160 9.060 98.900 98.800 11.565 11.427 0.139
DSCMET_421 2017-09-30 23:50:00 90288 415.300 0.0000 0.0000 5.0000 463.100 0.0000 0.0000 5.0000 414.000 0.0000 0.0000 5.0000 9.140 98.700 8.946           9.190 9.110 98.800 98.700 11.589 11.438 0.151
DSCMET_421 2017-09-30 23:45:00 90287 415.400 0.0000 0.0000 5.0000 465.400 0.0000 0.0000 5.0000 430.300 0.0000 0.0000 5.0000 9.120 98.700 8.926           9.160 9.080 98.700 98.600 11.573 11.423 0.150
DSCMET_421 2017-09-30 23:40:00 90286 411.600 0.0000 0.0000 5.0000 464.600 0.0000 0.0000 5.0000 502.500 0.0000 0.0000 5.0000 9.120 98.700 8.926           9.160 9.090 98.700 98.600 11.573 11.423 0.150
DSCMET_421 2017-09-30 23:35:00 90285 399.200 0.0000 0.0000 5.0000 459.200 0.0000 0.0000 5.0000 533.100 0.0000 0.0000 5.0000 9.120 98.800 8.941           9.160 9.080 98.800 98.700 11.573 11.434 0.139
DSCMET_421 2017-09-30 23:30:00 90284 390.300 0.0000 0.0000 5.0000 450.000 0.0000 0.0000 5.0000 435.400 0.0000 0.0000 5.0000 9.110 98.800 8.931           9.140 9.040 98.800 98.700 11.565 11.427 0.139
DSCMET_421 2017-09-30 23:25:00 90283 390.300 0.0000 0.0000 5.0000 449.800 0.0000 0.0000 5.0000 392.600 0.0000 0.0000 5.0000 9.100 98.800 8.921           9.140 9.040 98.800 98.700 11.558 11.419 0.139
DSCMET_421 2017-09-30 23:20:00 90282 390.500 0.0000 0.0000 5.0000 449.700 0.0000 0.0000 5.0000 417.500 0.0000 0.0000 5.0000 9.110 98.700 8.916           9.140 9.080 98.800 98.600 11.565 11.415 0.150
DSCMET_421 2017-09-30 23:15:00 90281 389.600 0.0000 0.0000 5.0000 449.000 0.0000 0.0000 5.0000 447.400 0.0000 0.0000 5.0000 9.140 98.700 8.946           9.190 9.080 98.800 98.600 11.589 11.438 0.151
DSCMET_421 2017-09-30 23:10:00 90280 415.500 0.0000 0.0000 5.0000 441.800 0.0000 0.0000 5.0000 383.200 0.0000 0.0000 5.0000 9.090 98.600 8.881           9.130 9.040 98.700 98.500 11.550 11.388 0.162
DSCMET_421 2017-09-30 23:05:00 90279 425.900 0.0000 0.0000 5.0000 442.100 0.0000 0.0000 5.0000 392.800 0.0000 0.0000 5.0000 9.130 98.500 8.906           9.180 9.080 98.600 98.400 11.581 11.407 0.174
DSCMET_421 2017-09-30 23:00:00 90278 426.700 0.0000 0.0000 5.0000 442.000 0.0000 0.0000 5.0000 394.000 0.0000 0.0000 5.0000 9.130 98.500 8.906           9.210 9.090 98.600 98.400 11.581 11.407 0.174
DSCMET_421 2017-09-30 22:55:00 90277 427.400 0.0000 0.0000 5.0000 442.300 0.0000 0.0000 5.0000 366.200 0.0000 0.0000 5.0000 9.150 98.700 8.956           9.240 9.080 98.900 98.600 11.597 11.446 0.151
DSCMET_421 2017-09-30 22:50:00 90276 428.000 0.0000 0.0000 5.0000 443.200 0.0000 0.0000 5.0000 370.800 0.0000 0.0000 5.0000 9.090 98.800 8.911           9.140 9.010 98.900 98.800 11.550 11.411 0.139
DSCMET_421 2017-09-30 22:45:00 90275 428.300 0.0000 0.0000 5.0000 443.600 0.0000 0.0000 5.0000 370.700 0.0000 0.0000 5.0000 9.090 98.800 8.911           9.130 9.030 98.900 98.800 11.550 11.411 0.139
DSCMET_421 2017-09-30 22:40:00 90274 428.500 0.0000 0.0000 5.0000 443.800 0.0000 0.0000 5.0000 373.000 0.0000 0.0000 5.0000 9.090 98.700 8.896           9.140 9.040 98.800 98.700 11.550 11.400 0.150
DSCMET_421 2017-09-30 22:35:00 90273 428.800 0.0000 0.0000 5.0000 444.400 0.0000 0.0000 5.0000 373.900 0.0000 0.0000 5.0000 9.090 98.700 8.896           9.130 9.040 98.800 98.600 11.550 11.400 0.150
DSCMET_421 2017-09-30 22:30:00 90272 429.200 0.0000 0.0000 5.0000 444.900 0.0000 0.0000 5.0000 384.200 0.0000 0.0000 5.0000 9.110 98.700 8.916           9.160 9.030 98.700 98.600 11.565 11.415 0.150
DSCMET_421 2017-09-30 22:25:00 90271 429.500 0.0000 0.0000 5.0000 445.200 0.0000 0.0000 5.0000 370.300 0.0000 0.0000 5.0000 9.110 98.700 8.916           9.140 9.060 98.800 98.700 11.565 11.415 0.150
DSCMET_421 2017-09-30 22:20:00 90270 427.000 0.0000 0.0000 5.0000 440.800 0.0000 0.0000 5.0000 339.200 0.0000 0.0000 5.0000 9.080 98.700 8.886           9.110 9.030 98.800 98.700 11.542 11.392 0.150
DSCMET_421 2017-09-30 22:15:00 90269 426.700 0.0000 0.0000 5.0000 440.900 0.0000 0.0000 5.0000 328.400 0.0000 0.0000 5.0000 9.100 98.700 8.906           9.140 9.060 98.700 98.600 11.558 11.407 0.150
DSCMET_421 2017-09-30 22:10:00 90268 427.100 0.0000 0.0000 5.0000 441.100 0.0000 0.0000 5.0000 329.400 0.0000 0.0000 5.0000 9.090 98.600 8.881           9.130 9.040 98.700 98.600 11.550 11.388 0.162
DSCMET_421 2017-09-30 22:05:00 90267 427.800 0.0000 0.0000 5.0000 441.500 0.0000 0.0000 5.0000 330.300 0.0000 0.0000 5.0000 9.120 98.600 8.911           9.160 9.080 98.700 98.600 11.573 11.411 0.162
DSCMET_421 2017-09-30 22:00:00 90266 428.300 0.0000 0.0000 5.0000 441.900 0.0000 0.0000 5.0000 331.300 0.0000 0.0000 5.0000 9.120 98.600 8.911           9.160 9.080 98.700 98.500 11.573 11.411 0.162
DSCMET_421 2017-09-30 21:55:00 90265 429.000 0.0000 0.0000 5.0000 442.200 0.0000 0.0000 5.0000 332.800 0.0000 0.0000 5.0000 9.130 98.600 8.921           9.190 9.060 98.700 98.600 11.581 11.419 0.162
DSCMET_421 2017-09-30 21:50:00 90264 428.600 0.0000 0.0000 5.0000 442.800 0.0000 0.0000 5.0000 333.800 0.0000 0.0000 5.0000 9.120 98.600 8.911           9.160 9.090 98.600 98.500 11.573 11.411 0.162
DSCMET_421 2017-09-30 21:45:00 90263 428.700 0.0000 0.0000 5.0000 442.400 0.0000 0.0000 5.0000 335.400 0.0000 0.0000 5.0000 9.170 98.700 8.976           9.220 9.110 98.800 98.600 11.612 11.461 0.151
DSCMET_421 2017-09-30 21:40:00 90262 429.500 0.0000 0.0000 5.0000 443.200 0.0000 0.0000 5.0000 339.000 0.0000 0.0000 5.0000 9.170 98.800 8.991           9.220 9.110 98.800 98.700 11.612 11.473 0.139
DSCMET_421 2017-09-30 21:35:00 90261 430.400 0.0000 0.0000 5.0000 444.000 0.0000 0.0000 5.0000 341.500 0.0000 0.0000 5.0000 9.120 98.900 8.956           9.170 9.060 98.900 98.800 11.573 11.446 0.127
DSCMET_421 2017-09-30 21:30:00 90260 430.200 0.0000 0.0000 5.0000 444.600 0.0000 0.0000 5.0000 344.300 0.0000 0.0000 5.0000 9.120 98.900 8.956           9.160 9.090 98.900 98.800 11.573 11.446 0.127
DSCMET_421 2017-09-30 21:25:00 90259 430.800 0.0000 0.0000 5.0000 445.000 0.0000 0.0000 5.0000 347.500 0.0000 0.0000 5.0000 9.140 98.900 8.976           9.190 9.090 98.900 98.800 11.589 11.461 0.127
DSCMET_421 2017-09-30 21:20:00 90258 431.500 0.0000 0.0000 5.0000 449.900 0.0000 0.0000 5.0000 350.900 0.0000 0.0000 5.0000 9.130 98.900 8.966           9.190 9.090 99.000 98.800 11.581 11.454 0.127
DSCMET_421 2017-09-30 21:15:00 90257 432.400 0.0000 0.0000 5.0000 457.000 0.0000 0.0000 5.0000 356.400 0.0000 0.0000 5.0000 9.150 99.000 9.001           9.190 9.070 99.000 98.900 11.597 11.481 0.116
DSCMET_421 2017-09-30 21:10:00 90256 433.900 0.0000 0.0000 5.0000 457.600 0.0000 0.0000 5.0000 368.700 0.0000 0.0000 5.0000 9.150 99.000 9.001           9.210 9.120 99.000 99.000 11.597 11.481 0.116
DSCMET_421 2017-09-30 21:05:00 90255 435.000 0.0000 0.0000 5.0000 457.500 0.0000 0.0000 5.0000 386.300 0.0000 0.0000 5.0000 9.170 99.000 9.021           9.210 9.110 99.100 99.000 11.612 11.496 0.116
DSCMET_421 2017-09-30 21:00:00 90254 434.400 0.0000 0.0000 5.0000 457.900 0.0000 0.0000 5.0000 394.000 0.0000 0.0000 5.0000 9.170 99.000 9.021           9.190 9.110 99.000 98.900 11.612 11.496 0.116
DSCMET_421 2017-09-30 20:55:00 90253 434.400 0.0000 0.0000 5.0000 457.900 0.0000 0.0000 5.0000 397.600 0.0000 0.0000 5.0000 9.190 99.000 9.041           9.240 9.110 99.000 98.900 11.628 11.512 0.116
DSCMET_421 2017-09-30 20:50:00 90252 435.400 0.0000 0.0000 5.0000 457.800 0.0000 0.0000 5.0000 401.400 0.0000 0.0000 5.0000 9.190 99.000 9.041           9.240 9.140 99.000 98.900 11.628 11.512 0.116
DSCMET_421 2017-09-30 20:45:00 90251 435.600 0.0000 0.0000 5.0000 458.000 0.0000 0.0000 5.0000 385.200 0.0000 0.0000 5.0000 9.200 99.000 9.051           9.220 9.170 99.000 98.900 11.636 11.519 0.116
DSCMET_421 2017-09-30 20:40:00 90250 435.800 0.0000 0.0000 5.0000 458.300 0.0000 0.0000 5.0000 345.100 0.0000 0.0000 5.0000 9.210 99.000 9.061           9.260 9.170 99.000 98.900 11.644 11.527 0.116
DSCMET_421 2017-09-30 20:35:00 90249 436.600 0.0000 0.0000 5.0000 458.300 0.0000 0.0000 5.0000 341.400 0.0000 0.0000 5.0000 9.260 99.000 9.111           9.290 9.210 99.000 98.900 11.683 11.566 0.117
DSCMET_421 2017-09-30 20:30:00 90248 437.200 0.0000 0.0000 5.0000 458.700 0.0000 0.0000 5.0000 341.000 0.0000 0.0000 5.0000 9.260 98.900 9.096           9.320 9.220 99.000 98.900 11.683 11.554 0.129
DSCMET_421 2017-09-30 20:25:00 90247 437.600 0.0000 0.0000 5.0000 458.700 0.0000 0.0000 5.0000 338.300 0.0000 0.0000 5.0000 9.290 98.900 9.126           9.360 9.220 99.000 98.900 11.707 11.578 0.129
DSCMET_421 2017-09-30 20:20:00 90246 438.400 0.0000 0.0000 5.0000 458.900 0.0000 0.0000 5.0000 336.300 0.0000 0.0000 5.0000 9.290 98.900 9.126           9.360 9.260 98.900 98.900 11.707 11.578 0.129
DSCMET_421 2017-09-30 20:15:00 90245 438.900 0.0000 0.0000 5.0000 459.500 0.0000 0.0000 5.0000 337.500 0.0000 0.0000 5.0000 9.260 98.900 9.096           9.310 9.220 98.900 98.800 11.683 11.554 0.129
DSCMET_421 2017-09-30 20:10:00 90244 440.100 0.0000 0.0000 5.0000 459.000 0.0000 0.0000 5.0000 337.700 0.0000 0.0000 5.0000 9.290 98.900 9.126           9.360 9.240 98.900 98.800 11.707 11.578 0.129
DSCMET_421 2017-09-30 20:05:00 90243 440.900 0.0000 0.0000 5.0000 459.000 0.0000 0.0000 5.0000 338.000 0.0000 0.0000 5.0000 9.270 98.800 9.091           9.350 9.220 98.900 98.800 11.691 11.551 0.140
DSCMET_421 2017-09-30 20:00:00 90242 441.600 0.0000 0.0000 5.0000 459.300 0.0000 0.0000 5.0000 338.500 0.0000 0.0000 5.0000 9.290 98.800 9.111           9.350 9.220 98.800 98.800 11.707 11.566 0.140
DSCMET_421 2017-09-30 19:55:00 90241 442.800 0.0000 0.0000 5.0000 459.800 0.0000 0.0000 5.0000 348.300 0.0000 0.0000 5.0000 9.300 98.800 9.121           9.370 9.240 98.900 98.700 11.715 11.574 0.141
DSCMET_421 2017-09-30 19:50:00 90240 443.600 0.0000 0.0000 5.0000 460.400 0.0000 0.0000 5.0000 351.100 0.0000 0.0000 5.0000 9.310 98.800 9.131           9.350 9.270 98.900 98.800 11.722 11.582 0.141
DSCMET_421 2017-09-30 19:45:00 90239 444.500 0.0000 0.0000 5.0000 460.800 0.0000 0.0000 5.0000 343.500 0.0000 0.0000 5.0000 9.340 98.800 9.161           9.370 9.300 98.900 98.700 11.746 11.605 0.141
DSCMET_421 2017-09-30 19:40:00 90238 446.100 0.0000 0.0000 5.0000 461.200 0.0000 0.0000 5.0000 354.700 0.0000 0.0000 5.0000 9.320 98.800 9.141           9.390 9.290 98.800 98.700 11.730 11.590 0.141
DSCMET_421 2017-09-30 19:35:00 90237 446.400 0.0000 0.0000 5.0000 461.700 0.0000 0.0000 5.0000 338.400 0.0000 0.0000 5.0000 9.330 98.700 9.136           9.370 9.300 98.800 98.700 11.738 11.586 0.153
DSCMET_421 2017-09-30 19:30:00 90236 446.300 0.0000 0.0000 5.0000 462.300 0.0000 0.0000 5.0000 340.600 0.0000 0.0000 5.0000 9.350 98.700 9.156           9.390 9.270 98.800 98.700 11.754 11.601 0.153
DSCMET_421 2017-09-30 19:25:00 90235 447.300 0.0000 0.0000 5.0000 463.200 0.0000 0.0000 5.0000 343.100 0.0000 0.0000 5.0000 9.380 98.600 9.171           9.440 9.300 98.700 98.600 11.778 11.613 0.165
DSCMET_421 2017-09-30 19:20:00 90234 449.100 0.0000 0.0000 5.0000 464.300 0.0000 0.0000 5.0000 345.000 0.0000 0.0000 5.0000 9.360 98.600 9.151           9.420 9.320 98.600 98.500 11.762 11.597 0.165
DSCMET_421 2017-09-30 19:15:00 90233 450.800 0.0000 0.0000 5.0000 465.300 0.0000 0.0000 5.0000 349.000 0.0000 0.0000 5.0000 9.390 98.500 9.166           9.420 9.350 98.600 98.400 11.786 11.609 0.177
DSCMET_421 2017-09-30 19:10:00 90232 452.100 0.0000 0.0000 5.0000 466.300 0.0000 0.0000 5.0000 356.600 0.0000 0.0000 5.0000 9.400 98.400 9.161           9.450 9.350 98.400 98.300 11.794 11.605 0.189
DSCMET_421 2017-09-30 19:05:00 90231 451.800 0.0000 0.0000 5.0000 467.400 0.0000 0.0000 5.0000 362.700 0.0000 0.0000 5.0000 9.420 98.300 9.166           9.470 9.370 98.400 98.200 11.810 11.609 0.201
DSCMET_421 2017-09-30 19:00:00 90230 452.900 0.0000 0.0000 5.0000 468.100 0.0000 0.0000 5.0000 365.100 0.0000 0.0000 5.0000 9.430 98.100 9.145           9.450 9.400 98.200 98.000 11.818 11.593 0.225
DSCMET_421 2017-09-30 18:55:00 90229 455.000 0.0000 0.0000 5.0000 469.600 0.0000 0.0000 5.0000 370.800 0.0000 0.0000 5.0000 9.460 98.000 9.160           9.490 9.420 98.100 97.900 11.841 11.605 0.237
DSCMET_421 2017-09-30 18:50:00 90228 455.800 0.0000 0.0000 5.0000 470.100 0.0000 0.0000 5.0000 384.200 0.0000 0.0000 5.0000 9.420 98.300 9.166           9.470 9.340 98.300 98.100 11.810 11.609 0.201
DSCMET_421 2017-09-30 18:45:00 90227 456.800 0.0000 0.0000 5.0000 471.200 0.0000 0.0000 5.0000 388.400 0.0000 0.0000 5.0000 9.420 98.300 9.166           9.500 9.370 98.400 98.300 11.810 11.609 0.201
DSCMET_421 2017-09-30 18:40:00 90226 459.200 0.0000 0.0000 5.0000 471.800 0.0000 0.0000 5.0000 363.600 0.0000 0.0000 5.0000 9.420 98.400 9.181           9.490 9.340 98.400 98.300 11.810 11.621 0.189
DSCMET_421 2017-09-30 18:35:00 90225 459.100 0.0000 0.0000 5.0000 472.500 0.0000 0.0000 5.0000 374.700 0.0000 0.0000 5.0000 9.450 98.300 9.196           9.490 9.420 98.400 98.300 11.833 11.632 0.201
DSCMET_421 2017-09-30 18:30:00 90224 461.600 0.0000 0.0000 5.0000 474.500 0.0000 0.0000 5.0000 401.200 0.0000 0.0000 5.0000 9.530 98.200 9.260           9.600 9.450 98.200 98.000 11.897 11.683 0.214
DSCMET_421 2017-09-30 18:25:00 90223 466.300 0.0000 0.0000 5.0000 479.000 0.0000 0.0000 5.0000 391.500 0.0000 0.0000 5.0000 9.490 97.900 9.175           9.570 9.450 98.100 97.800 11.865 11.616 0.249
DSCMET_421 2017-09-30 18:20:00 90222 478.000 0.0000 0.0000 5.0000 482.200 0.0000 0.0000 5.0000 397.600 0.0000 0.0000 5.0000 9.540 97.500 9.164           9.600 9.450 97.700 97.100 11.905 11.608 0.298
DSCMET_421 2017-09-30 18:15:00 90221 491.000 0.0000 0.0000 5.0000 496.400 0.0000 0.0000 5.0000 406.300 0.0000 0.0000 5.0000 9.640 95.900 9.019           9.680 9.600 97.000 95.200 11.986 11.494 0.491
DSCMET_421 2017-09-30 18:10:00 90220 506.600 0.0000 0.0000 5.0000 509.400 0.0000 0.0000 5.0000 458.100 0.0000 0.0000 5.0000 9.620 95.300 8.906           9.700 9.530 95.900 94.900 11.970 11.407 0.563
DSCMET_421 2017-09-30 18:05:00 90219 504.300 0.0000 0.0000 5.0000 521.700 0.0000 0.0000 5.0000 463.600 0.0000 0.0000 5.0000 9.680 94.700 8.872           9.710 9.610 95.600 94.300 12.018 11.381 0.637
DSCMET_421 2017-09-30 18:00:00 90218 509.900 0.0000 0.0000 5.0000 515.200 0.0000 0.0000 5.0000 499.500 0.0000 0.0000 5.0000 9.620 96.100 9.030           9.700 9.560 96.400 95.600 11.970 11.503 0.467
DSCMET_421 2017-09-30 17:55:00 90217 511.200 0.0000 0.0000 5.0000 508.400 0.0000 0.0000 5.0000 469.200 0.0000 0.0000 5.0000 9.690 95.700 9.037           9.780 9.630 96.000 95.400 12.026 11.509 0.517
DSCMET_421 2017-09-30 17:50:00 90216 507.100 0.0000 0.0000 5.0000 507.400 0.0000 0.0000 5.0000 490.700 0.0000 0.0000 5.0000 9.790 94.300 8.919           9.830 9.710 95.500 93.300 12.107 11.417 0.690
DSCMET_421 2017-09-30 17:45:00 90215 487.100 0.0000 0.0000 5.0000 487.300 0.0000 0.0000 5.0000 407.900 0.0000 0.0000 5.0000 9.810 94.600 8.986           9.860 9.740 95.200 93.600 12.123 11.469 0.655
DSCMET_421 2017-09-30 17:40:00 90214 491.600 0.0000 0.0000 5.0000 491.700 0.0000 0.0000 5.0000 441.400 0.0000 0.0000 5.0000 9.910 94.800 9.116           10.020 9.830 95.700 92.700 12.205 11.570 0.635
DSCMET_421 2017-09-30 17:35:00 90213 498.500 0.0000 0.0000 5.0000 501.600 0.0000 0.0000 5.0000 467.000 0.0000 0.0000 5.0000 10.040 92.200 8.834           10.100 9.940 93.700 91.200 12.312 11.351 0.960
DSCMET_421 2017-09-30 17:30:00 90212 479.600 0.0000 0.0000 5.0000 516.100 0.0000 0.0000 5.0000 506.300 0.0000 0.0000 5.0000 10.170 90.500 8.687           10.220 10.120 91.400 89.900 12.419 11.239 1.180
DSCMET_421 2017-09-30 17:25:00 90211 452.000 0.0000 0.0000 5.0000 496.400 0.0000 0.0000 5.0000 438.700 0.0000 0.0000 5.0000 10.180 92.400 9.004           10.250 10.070 94.200 89.900 12.428 11.483 0.944
DSCMET_421 2017-09-30 17:20:00 90210 447.500 0.0000 0.0000 5.0000 507.000 0.0000 0.0000 5.0000 459.200 0.0000 0.0000 5.0000 10.370 92.800 9.257           10.530 10.220 94.200 91.200 12.586 11.680 0.906
DSCMET_421 2017-09-30 17:15:00 90209 432.700 0.0000 0.0000 5.0000 546.800 0.0000 0.0000 5.0000 523.100 0.0000 0.0000 5.0000 10.760 91.000 9.352           11.070 10.530 92.500 89.100 12.918 11.756 1.163
DSCMET_421 2017-09-30 17:10:00 90208 383.300 0.0000 0.0000 5.0000 523.400 0.0000 0.0000 5.0000 599.100 0.0000 0.0000 5.0000 11.560 81.700 8.542           12.080 11.120 88.300 74.510 13.623 11.130 2.493
DSCMET_421 2017-09-30 17:05:00 90207 291.700 1.7500 1.0000 2.2500 369.500 1.0000 0.2500 3.7500 387.900 1.2500 0.5000 3.2500 12.370 73.650 7.803           12.480 12.210 79.240 69.800 14.370 10.584 3.787
DSCMET_421 2017-09-30 17:00:00 90206 264.500 5.0000 0.0000 0.0000 265.500 5.0000 0.0000 0.0000 265.900 5.0000 0.0000 0.0000 12.400 79.330 8.926           12.470 12.310 80.600 78.400 14.399 11.422 2.976
DSCMET_421 2017-09-30 16:55:00 90205 264.200 5.0000 0.0000 0.0000 264.500 5.0000 0.0000 0.0000 264.000 5.0000 0.0000 0.0000 12.390 79.200 8.892           12.460 12.290 80.100 78.650 14.389 11.396 2.993
DSCMET_421 2017-09-30 16:50:00 90204 264.200 5.0000 0.0000 0.0000 264.500 5.0000 0.0000 0.0000 263.900 5.0000 0.0000 0.0000 12.550 77.980 8.818           12.640 12.460 79.290 77.200 14.541 11.339 3.202
DSCMET_421 2017-09-30 16:45:00 90203 264.200 5.0000 0.0000 0.0000 264.500 5.0000 0.0000 0.0000 263.900 5.0000 0.0000 0.0000 12.600 77.010 8.681           12.710 12.540 77.630 76.240 14.589 11.235 3.354
DSCMET_421 2017-09-30 16:40:00 90202 264.200 5.0000 0.0000 0.0000 264.500 5.0000 0.0000 0.0000 263.900 5.0000 0.0000 0.0000 12.690 75.710 8.517           12.770 12.610 76.500 75.240 14.675 11.111 3.565
DSCMET_421 2017-09-30 16:35:00 90201 264.000 5.0000 0.0000 0.0000 264.500 5.0000 0.0000 0.0000 263.900 5.0000 0.0000 0.0000 12.690 75.120 8.402           12.740 12.620 76.160 74.410 14.675 11.024 3.651
DSCMET_421 2017-09-30 16:30:00 90200 263.900 5.0000 0.0000 0.0000 264.500 5.0000 0.0000 0.0000 263.900 5.0000 0.0000 0.0000 12.660 75.020 8.353           12.720 12.560 75.990 74.310 14.647 10.988 3.659
DSCMET_421 2017-09-30 16:25:00 90199 263.900 5.0000 0.0000 0.0000 264.500 5.0000 0.0000 0.0000 263.900 5.0000 0.0000 0.0000 12.740 74.030 8.235           12.860 12.620 75.760 72.820 14.724 10.900 3.824
DSCMET_421 2017-09-30 16:20:00 90198 263.900 5.0000 0.0000 0.0000 264.500 5.0000 0.0000 0.0000 263.800 5.0000 0.0000 0.0000 12.770 73.390 8.136           12.820 12.720 74.330 72.390 14.753 10.827 3.926
DSCMET_421 2017-09-30 16:15:00 90197 263.900 5.0000 0.0000 0.0000 264.300 5.0000 0.0000 0.0000 263.600 5.0000 0.0000 0.0000 12.910 72.370 8.065           13.020 12.790 73.770 71.230 14.889 10.775 4.114
DSCMET_421 2017-09-30 16:10:00 90196 263.900 5.0000 0.0000 0.0000 264.300 5.0000 0.0000 0.0000 263.600 5.0000 0.0000 0.0000 12.980 70.840 7.819           13.050 12.900 72.970 69.020 14.957 10.595 4.361
DSCMET_421 2017-09-30 16:05:00 90195 263.900 5.0000 0.0000 0.0000 264.400 5.0000 0.0000 0.0000 263.700 5.0000 0.0000 0.0000 12.870 71.720 7.894           12.970 12.770 73.830 69.800 14.850 10.650 4.199
DSCMET_421 2017-09-30 16:00:00 90194 263.900 5.0000 0.0000 0.0000 264.500 5.0000 0.0000 0.0000 263.700 5.0000 0.0000 0.0000 12.860 71.370 7.813           12.910 12.770 74.390 69.950 14.840 10.591 4.249
DSCMET_421 2017-09-30 15:55:00 90193 263.900 5.0000 0.0000 0.0000 264.500 5.0000 0.0000 0.0000 263.700 5.0000 0.0000 0.0000 12.810 70.940 7.677           12.840 12.760 72.290 70.200 14.791 10.493 4.298
DSCMET_421 2017-09-30 15:50:00 90192 263.900 5.0000 0.0000 0.0000 264.500 5.0000 0.0000 0.0000 263.700 5.0000 0.0000 0.0000 12.730 70.950 7.602           12.790 12.670 72.770 69.820 14.714 10.440 4.274
DSCMET_421 2017-09-30 15:45:00 90191 263.900 5.0000 0.0000 0.0000 264.200 5.0000 0.0000 0.0000 263.700 5.0000 0.0000 0.0000 12.760 71.670 7.779           12.850 12.640 72.770 70.480 14.743 10.566 4.177
DSCMET_421 2017-09-30 15:40:00 90190 263.900 5.0000 0.0000 0.0000 264.200 5.0000 0.0000 0.0000 263.500 5.0000 0.0000 0.0000 12.760 70.690 7.577           12.850 12.660 72.120 69.470 14.743 10.422 4.321
DSCMET_421 2017-09-30 15:35:00 90189 263.900 5.0000 0.0000 0.0000 264.200 5.0000 0.0000 0.0000 263.600 5.0000 0.0000 0.0000 12.860 70.200 7.571           12.970 12.770 70.940 69.320 14.840 10.418 4.422
DSCMET_421 2017-09-30 15:30:00 90188 264.000 5.0000 0.0000 0.0000 264.500 5.0000 0.0000 0.0000 263.800 5.0000 0.0000 0.0000 12.930 69.940 7.584           12.990 12.870 72.950 68.800 14.908 10.427 4.481
DSCMET_421 2017-09-30 15:25:00 90187 264.200 5.0000 0.0000 0.0000 264.600 5.0000 0.0000 0.0000 263.900 5.0000 0.0000 0.0000 12.910 72.430 8.078           12.970 12.840 76.100 67.720 14.889 10.784 4.105
DSCMET_421 2017-09-30 15:20:00 90186 264.200 5.0000 0.0000 0.0000 264.600 5.0000 0.0000 0.0000 263.900 5.0000 0.0000 0.0000 12.850 75.830 8.695           12.950 12.790 77.930 73.580 14.830 11.246 3.584
DSCMET_421 2017-09-30 15:15:00 90185 264.200 5.0000 0.0000 0.0000 264.700 5.0000 0.0000 0.0000 263.800 5.0000 0.0000 0.0000 12.850 77.040 8.929           12.920 12.770 78.110 75.440 14.830 11.425 3.405
DSCMET_421 2017-09-30 15:10:00 90184 264.200 5.0000 0.0000 0.0000 264.500 5.0000 0.0000 0.0000 263.800 5.0000 0.0000 0.0000 12.870 76.080 8.763           12.950 12.800 78.090 74.770 14.850 11.298 3.552
DSCMET_421 2017-09-30 15:05:00 90183 264.200 5.0000 0.0000 0.0000 264.600 5.0000 0.0000 0.0000 263.800 5.0000 0.0000 0.0000 12.720 76.220 8.645           12.800 12.620 77.590 75.300 14.704 11.208 3.497
DSCMET_421 2017-09-30 15:00:00 90182 264.600 5.0000 0.0000 0.0000 264.900 5.0000 0.0000 0.0000 263.800 5.0000 0.0000 0.0000 12.720 75.940 8.591           12.770 12.650 76.730 75.070 14.704 11.166 3.538
DSCMET_421 2017-09-30 14:55:00 90181 264.800 5.0000 0.0000 0.0000 264.800 5.0000 0.0000 0.0000 263.800 5.0000 0.0000 0.0000 12.810 77.060 8.894           12.900 12.720 78.800 76.310 14.791 11.398 3.393
DSCMET_421 2017-09-30 14:50:00 90180 265.300 5.0000 0.0000 0.0000 264.900 5.0000 0.0000 0.0000 264.100 5.0000 0.0000 0.0000 12.810 74.480 8.392           12.870 12.730 77.870 72.750 14.791 11.017 3.775
DSCMET_421 2017-09-30 14:45:00 90179 264.800 5.0000 0.0000 0.0000 265.100 5.0000 0.0000 0.0000 264.000 5.0000 0.0000 0.0000 12.900 72.220 8.025           12.980 12.820 74.060 70.860 14.879 10.745 4.133
DSCMET_421 2017-09-30 14:40:00 90178 263.900 5.0000 0.0000 0.0000 264.500 5.0000 0.0000 0.0000 263.500 5.0000 0.0000 0.0000 13.030 70.950 7.890           13.120 12.950 71.980 69.860 15.006 10.647 4.359
DSCMET_421 2017-09-30 14:35:00 90177 264.200 5.0000 0.0000 0.0000 264.500 5.0000 0.0000 0.0000 263.500 5.0000 0.0000 0.0000 13.180 70.770 7.996           13.270 13.120 72.420 69.830 15.154 10.724 4.429
DSCMET_421 2017-09-30 14:30:00 90176 264.200 5.0000 0.0000 0.0000 264.500 5.0000 0.0000 0.0000 263.600 5.0000 0.0000 0.0000 13.140 71.340 8.076           13.280 13.030 73.550 69.860 15.114 10.782 4.332
DSCMET_421 2017-09-30 14:25:00 90175 264.000 5.0000 0.0000 0.0000 264.500 5.0000 0.0000 0.0000 263.500 5.0000 0.0000 0.0000 13.040 71.760 8.066           13.080 13.000 72.900 71.040 15.016 10.775 4.240
DSCMET_421 2017-09-30 14:20:00 90174 263.900 5.0000 0.0000 0.0000 264.200 5.0000 0.0000 0.0000 263.500 5.0000 0.0000 0.0000 13.020 70.710 7.830           13.150 12.900 72.820 68.770 14.996 10.604 4.392
DSCMET_421 2017-09-30 14:15:00 90173 264.100 5.0000 0.0000 0.0000 264.200 5.0000 0.0000 0.0000 263.400 5.0000 0.0000 0.0000 13.280 69.410 7.807           13.530 13.120 71.410 67.310 15.253 10.587 4.666
DSCMET_421 2017-09-30 14:10:00 90172 264.200 5.0000 0.0000 0.0000 264.500 5.0000 0.0000 0.0000 263.700 5.0000 0.0000 0.0000 13.700 67.860 7.877           13.930 13.600 70.400 65.130 15.676 10.638 5.038
DSCMET_421 2017-09-30 14:05:00 90171 264.200 5.0000 0.0000 0.0000 264.500 5.0000 0.0000 0.0000 263.900 5.0000 0.0000 0.0000 13.550 70.250 8.243           13.780 13.170 72.670 68.750 15.524 10.905 4.618
DSCMET_421 2017-09-30 14:00:00 90170 264.400 5.0000 0.0000 0.0000 264.400 5.0000 0.0000 0.0000 263.800 5.0000 0.0000 0.0000 12.880 74.080 8.380           13.150 12.670 76.120 71.740 14.859 11.008 3.852
DSCMET_421 2017-09-30 13:55:00 90169 265.700 5.0000 0.0000 0.0000 264.900 5.0000 0.0000 0.0000 264.000 5.0000 0.0000 0.0000 12.830 73.740 8.264           12.940 12.690 76.170 72.500 14.811 10.921 3.889
DSCMET_421 2017-09-30 13:50:00 90168 268.600 5.0000 0.0000 0.0000 268.500 5.0000 0.0000 0.0000 267.200 5.0000 0.0000 0.0000 12.550 78.760 8.965           12.840 12.370 82.900 74.940 14.541 11.453 3.089
DSCMET_421 2017-09-30 13:45:00 90167 265.800 5.0000 0.0000 0.0000 266.400 5.0000 0.0000 0.0000 264.700 5.0000 0.0000 0.0000 12.520 74.790 8.173           12.560 12.470 76.370 73.400 14.513 10.854 3.659
DSCMET_421 2017-09-30 13:40:00 90166 264.100 5.0000 0.0000 0.0000 264.500 5.0000 0.0000 0.0000 263.600 5.0000 0.0000 0.0000 12.580 74.380 8.150           12.650 12.510 75.950 72.920 14.570 10.837 3.733
DSCMET_421 2017-09-30 13:35:00 90165 264.500 5.0000 0.0000 0.0000 264.300 5.0000 0.0000 0.0000 263.500 5.0000 0.0000 0.0000 12.650 73.340 8.011           12.750 12.560 74.730 71.720 14.637 10.735 3.902
DSCMET_421 2017-09-30 13:30:00 90164 263.900 5.0000 0.0000 0.0000 264.200 5.0000 0.0000 0.0000 263.500 5.0000 0.0000 0.0000 12.920 72.270 8.055           13.070 12.770 73.460 71.060 14.898 10.767 4.131
DSCMET_421 2017-09-30 13:25:00 90163 264.100 5.0000 0.0000 0.0000 264.200 5.0000 0.0000 0.0000 263.500 5.0000 0.0000 0.0000 12.940 71.800 7.978           12.990 12.890 73.130 71.010 14.918 10.711 4.207
DSCMET_421 2017-09-30 13:20:00 90162 264.500 5.0000 0.0000 0.0000 264.300 5.0000 0.0000 0.0000 263.500 5.0000 0.0000 0.0000 13.130 70.940 7.984           13.300 12.940 73.410 68.490 15.104 10.715 4.389
DSCMET_421 2017-09-30 13:15:00 90161 264.400 5.0000 0.0000 0.0000 264.600 5.0000 0.0000 0.0000 263.600 5.0000 0.0000 0.0000 13.160 70.010 7.819           13.220 13.100 72.000 68.930 15.134 10.595 4.539
DSCMET_421 2017-09-30 13:10:00 90160 263.900 5.0000 0.0000 0.0000 264.200 5.0000 0.0000 0.0000 263.500 5.0000 0.0000 0.0000 13.090 68.020 7.330           13.170 13.020 69.260 66.890 15.065 10.247 4.818
DSCMET_421 2017-09-30 13:05:00 90159 263.800 5.0000 0.0000 0.0000 264.200 5.0000 0.0000 0.0000 263.500 5.0000 0.0000 0.0000 13.020 67.400 7.129           13.120 12.900 67.920 66.580 14.996 10.107 4.889
DSCMET_421 2017-09-30 13:00:00 90158 264.000 5.0000 0.0000 0.0000 264.300 5.0000 0.0000 0.0000 263.500 5.0000 0.0000 0.0000 12.930 67.890 7.149           13.000 12.870 68.930 67.170 14.908 10.121 4.787
DSCMET_421 2017-09-30 12:55:00 90157 264.100 5.0000 0.0000 0.0000 264.200 5.0000 0.0000 0.0000 263.500 5.0000 0.0000 0.0000 12.950 68.540 7.307           13.120 12.850 69.840 67.790 14.928 10.231 4.696
DSCMET_421 2017-09-30 12:50:00 90156 263.900 5.0000 0.0000 0.0000 264.400 5.0000 0.0000 0.0000 263.500 5.0000 0.0000 0.0000 13.110 68.770 7.509           13.170 13.030 69.980 67.720 15.085 10.374 4.711
DSCMET_421 2017-09-30 12:45:00 90155 264.100 5.0000 0.0000 0.0000 264.400 5.0000 0.0000 0.0000 263.700 5.0000 0.0000 0.0000 13.230 69.050 7.683           13.400 13.120 71.620 67.490 15.203 10.498 4.705
DSCMET_421 2017-09-30 12:40:00 90154 264.200 5.0000 0.0000 0.0000 264.300 5.0000 0.0000 0.0000 263.900 5.0000 0.0000 0.0000 13.070 68.400 7.392           13.150 13.000 70.890 67.420 15.045 10.291 4.754
DSCMET_421 2017-09-30 12:35:00 90153 264.400 5.0000 0.0000 0.0000 264.300 5.0000 0.0000 0.0000 263.900 5.0000 0.0000 0.0000 13.160 67.240 7.228           13.330 13.080 67.850 66.410 15.134 10.176 4.958
DSCMET_421 2017-09-30 12:30:00 90152 264.200 5.0000 0.0000 0.0000 264.500 5.0000 0.0000 0.0000 264.300 5.0000 0.0000 0.0000 13.290 67.770 7.467           13.330 13.220 69.550 66.340 15.263 10.344 4.919
DSCMET_421 2017-09-30 12:25:00 90151 264.200 5.0000 0.0000 0.0000 264.400 5.0000 0.0000 0.0000 263.500 5.0000 0.0000 0.0000 13.230 65.680 6.953           13.300 13.200 67.100 65.110 15.203 9.985 5.218
DSCMET_421 2017-09-30 12:20:00 90150 264.400 5.0000 0.0000 0.0000 265.700 5.0000 0.0000 0.0000 264.000 5.0000 0.0000 0.0000 13.270 67.130 7.309           13.320 13.230 69.410 65.060 15.243 10.233 5.010
DSCMET_421 2017-09-30 12:15:00 90149 264.800 5.0000 0.0000 0.0000 266.900 5.0000 0.0000 0.0000 264.300 5.0000 0.0000 0.0000 13.370 64.610 6.847           13.550 13.200 66.410 63.290 15.343 9.913 5.430
DSCMET_421 2017-09-30 12:10:00 90148 264.200 5.0000 0.0000 0.0000 264.600 5.0000 0.0000 0.0000 264.000 5.0000 0.0000 0.0000 13.490 66.820 7.451           13.550 13.380 68.170 64.820 15.463 10.333 5.131
DSCMET_421 2017-09-30 12:05:00 90147 264.200 5.0000 0.0000 0.0000 264.600 5.0000 0.0000 0.0000 263.700 5.0000 0.0000 0.0000 13.430 66.960 7.425           13.530 13.330 69.280 65.760 15.403 10.314 5.089
DSCMET_421 2017-09-30 12:00:00 90146 264.200 5.0000 0.0000 0.0000 264.500 5.0000 0.0000 0.0000 263.800 5.0000 0.0000 0.0000 13.460 66.740 7.405           13.550 13.430 68.880 65.300 15.433 10.300 5.133
DSCMET_421 2017-09-30 11:55:00 90145 265.000 5.0000 0.0000 0.0000 264.500 5.0000 0.0000 0.0000 264.700 5.0000 0.0000 0.0000 13.410 68.580 7.755           13.450 13.350 73.110 65.830 15.383 10.550 4.833
DSCMET_421 2017-09-30 11:50:00 90144 265.200 5.0000 0.0000 0.0000 264.700 5.0000 0.0000 0.0000 268.700 5.0000 0.0000 0.0000 13.360 70.310 8.073           13.430 13.250 72.400 67.970 15.333 10.780 4.552
DSCMET_421 2017-09-30 11:45:00 90143 264.200 5.0000 0.0000 0.0000 264.500 5.0000 0.0000 0.0000 263.900 5.0000 0.0000 0.0000 13.300 68.560 7.646           13.480 13.090 70.930 67.270 15.273 10.471 4.802
DSCMET_421 2017-09-30 11:40:00 90142 264.200 5.0000 0.0000 0.0000 264.500 5.0000 0.0000 0.0000 263.900 5.0000 0.0000 0.0000 13.370 68.060 7.606           13.470 13.250 69.100 67.060 15.343 10.442 4.900
DSCMET_421 2017-09-30 11:35:00 90141 264.300 5.0000 0.0000 0.0000 264.500 5.0000 0.0000 0.0000 264.300 5.0000 0.0000 0.0000 13.230 67.670 7.388           13.290 13.150 69.170 66.710 15.203 10.288 4.915
DSCMET_421 2017-09-30 11:30:00 90140 264.500 5.0000 0.0000 0.0000 264.500 5.0000 0.0000 0.0000 265.900 5.0000 0.0000 0.0000 13.120 69.990 7.776           13.220 12.990 72.750 68.290 15.094 10.565 4.530
DSCMET_421 2017-09-30 11:25:00 90139 264.200 5.0000 0.0000 0.0000 264.500 5.0000 0.0000 0.0000 264.000 5.0000 0.0000 0.0000 12.900 69.380 7.437           12.990 12.800 71.130 68.570 14.879 10.323 4.556
DSCMET_421 2017-09-30 11:20:00 90138 264.400 5.0000 0.0000 0.0000 264.600 5.0000 0.0000 0.0000 263.800 5.0000 0.0000 0.0000 12.810 69.360 7.347           12.890 12.740 71.270 68.500 14.791 10.259 4.532
DSCMET_421 2017-09-30 11:15:00 90137 265.000 5.0000 0.0000 0.0000 264.700 5.0000 0.0000 0.0000 265.800 5.0000 0.0000 0.0000 12.790 69.070 7.267           12.850 12.720 72.050 67.870 14.772 10.203 4.569
DSCMET_421 2017-09-30 11:10:00 90136 264.600 5.0000 0.0000 0.0000 264.700 5.0000 0.0000 0.0000 264.600 5.0000 0.0000 0.0000 13.000 68.920 7.436           13.100 12.820 70.080 67.210 14.976 10.322 4.655
DSCMET_421 2017-09-30 11:05:00 90135 264.400 5.0000 0.0000 0.0000 264.700 5.0000 0.0000 0.0000 263.700 5.0000 0.0000 0.0000 13.080 67.920 7.299           13.140 13.020 69.770 66.860 15.055 10.225 4.830
DSCMET_421 2017-09-30 11:00:00 90134 264.500 5.0000 0.0000 0.0000 264.900 5.0000 0.0000 0.0000 263.900 5.0000 0.0000 0.0000 12.910 68.380 7.235           13.070 12.770 69.500 66.940 14.889 10.181 4.708
DSCMET_421 2017-09-30 10:55:00 90133 264.500 5.0000 0.0000 0.0000 265.000 5.0000 0.0000 0.0000 264.300 5.0000 0.0000 0.0000 12.860 70.120 7.554           13.010 12.760 72.900 66.910 14.840 10.406 4.434
DSCMET_421 2017-09-30 10:50:00 90132 264.700 5.0000 0.0000 0.0000 265.500 5.0000 0.0000 0.0000 264.800 5.0000 0.0000 0.0000 12.710 72.010 7.800           12.790 12.670 73.780 70.200 14.695 10.582 4.113
DSCMET_421 2017-09-30 10:45:00 90131 264.800 5.0000 0.0000 0.0000 265.200 5.0000 0.0000 0.0000 264.400 5.0000 0.0000 0.0000 12.660 68.000 6.915           12.720 12.610 70.560 66.360 14.647 9.960 4.687
DSCMET_421 2017-09-30 10:40:00 90130 264.900 5.0000 0.0000 0.0000 265.200 5.0000 0.0000 0.0000 264.700 5.0000 0.0000 0.0000 12.610 67.010 6.654           12.710 12.540 69.700 65.600 14.599 9.783 4.816
DSCMET_421 2017-09-30 10:35:00 90129 264.900 5.0000 0.0000 0.0000 265.200 5.0000 0.0000 0.0000 265.200 5.0000 0.0000 0.0000 12.630 70.500 7.413           12.690 12.560 74.200 66.220 14.618 10.306 4.312
DSCMET_421 2017-09-30 10:30:00 90128 264.900 5.0000 0.0000 0.0000 265.200 5.0000 0.0000 0.0000 265.400 5.0000 0.0000 0.0000 12.550 71.040 7.448           12.640 12.460 73.770 69.470 14.541 10.330 4.211
DSCMET_421 2017-09-30 10:25:00 90127 264.900 5.0000 0.0000 0.0000 265.200 5.0000 0.0000 0.0000 266.400 5.0000 0.0000 0.0000 12.500 72.240 7.645           12.580 12.390 74.930 70.430 14.494 10.470 4.023
DSCMET_421 2017-09-30 10:20:00 90126 264.900 5.0000 0.0000 0.0000 265.200 5.0000 0.0000 0.0000 267.400 5.0000 0.0000 0.0000 12.510 72.820 7.771           12.630 12.440 76.210 69.950 14.503 10.561 3.942
DSCMET_421 2017-09-30 10:15:00 90125 265.100 5.0000 0.0000 0.0000 265.400 5.0000 0.0000 0.0000 268.300 5.0000 0.0000 0.0000 12.630 74.240 8.171           12.880 12.430 80.000 70.800 14.618 10.852 3.766
DSCMET_421 2017-09-30 10:10:00 90124 265.200 5.0000 0.0000 0.0000 265.600 5.0000 0.0000 0.0000 269.600 5.0000 0.0000 0.0000 12.930 78.190 9.226           13.080 12.800 81.500 75.150 14.908 11.657 3.251
DSCMET_421 2017-09-30 10:05:00 90123 264.900 5.0000 0.0000 0.0000 265.400 5.0000 0.0000 0.0000 270.600 5.0000 0.0000 0.0000 12.570 77.760 8.795           12.780 12.340 82.100 72.930 14.560 11.322 3.238
DSCMET_421 2017-09-30 10:00:00 90122 264.900 5.0000 0.0000 0.0000 265.500 5.0000 0.0000 0.0000 271.700 5.0000 0.0000 0.0000 12.470 72.720 7.713           12.750 12.270 74.450 71.190 14.465 10.519 3.946
DSCMET_421 2017-09-30 09:55:00 90121 265.200 5.0000 0.0000 0.0000 265.600 5.0000 0.0000 0.0000 273.800 3.7500 1.2500 0.0000 12.290 74.910 7.974           12.440 12.140 77.890 71.380 14.295 10.708 3.587
DSCMET_421 2017-09-30 09:50:00 90120 265.300 5.0000 0.0000 0.0000 265.900 5.0000 0.0000 0.0000 278.000 0.0000 5.0000 0.0000 12.280 78.370 8.629           12.510 12.040 81.700 76.160 14.286 11.196 3.090
DSCMET_421 2017-09-30 09:45:00 90119 265.300 5.0000 0.0000 0.0000 265.900 5.0000 0.0000 0.0000 281.500 0.0000 4.2500 0.7500 11.710 80.300 8.434           12.010 11.380 85.700 75.900 13.759 11.048 2.710
DSCMET_421 2017-09-30 09:40:00 90118 265.300 5.0000 0.0000 0.0000 265.900 5.0000 0.0000 0.0000 284.500 0.0000 0.0000 5.0000 11.540 82.700 8.703           11.710 11.360 85.800 81.600 13.605 11.251 2.354
DSCMET_421 2017-09-30 09:35:00 90117 265.300 5.0000 0.0000 0.0000 266.000 5.0000 0.0000 0.0000 286.400 0.0000 0.0000 5.0000 11.020 83.300 8.301           11.490 10.470 86.900 80.500 13.144 10.949 2.195
DSCMET_421 2017-09-30 09:30:00 90116 265.400 5.0000 0.0000 0.0000 266.100 5.0000 0.0000 0.0000 288.300 0.0000 0.0000 5.0000 10.500 84.500 8.002           10.550 10.450 87.200 82.600 12.696 10.728 1.968
DSCMET_421 2017-09-30 09:25:00 90115 265.800 5.0000 0.0000 0.0000 266.300 5.0000 0.0000 0.0000 288.400 0.0000 0.0000 5.0000 10.360 88.000 8.461           10.600 10.270 90.300 86.900 12.578 11.069 1.509
DSCMET_421 2017-09-30 09:20:00 90114 266.100 5.0000 0.0000 0.0000 266.400 5.0000 0.0000 0.0000 287.100 0.0000 0.0000 5.0000 10.180 88.100 8.301           10.270 10.070 89.700 86.800 12.428 10.949 1.479
DSCMET_421 2017-09-30 09:15:00 90113 266.400 5.0000 0.0000 0.0000 267.200 5.0000 0.0000 0.0000 283.600 0.0000 3.0000 2.0000 10.050 88.800 8.289           10.100 9.990 90.400 87.100 12.320 10.940 1.380
DSCMET_421 2017-09-30 09:10:00 90112 266.600 5.0000 0.0000 0.0000 269.000 5.0000 0.0000 0.0000 280.500 0.0000 5.0000 0.0000 10.100 90.800 8.667           10.240 9.990 93.300 89.500 12.361 11.224 1.137
DSCMET_421 2017-09-30 09:05:00 90111 266.900 5.0000 0.0000 0.0000 270.900 5.0000 0.0000 0.0000 280.200 0.0000 5.0000 0.0000 10.110 89.700 8.497           10.210 10.060 92.200 86.400 12.370 11.095 1.274
DSCMET_421 2017-09-30 09:00:00 90110 267.500 5.0000 0.0000 0.0000 273.500 3.5000 1.5000 0.0000 284.000 0.0000 2.5000 2.5000 10.170 91.700 8.882           10.220 10.110 92.700 90.500 12.419 11.388 1.031
DSCMET_421 2017-09-30 08:55:00 90109 268.300 5.0000 0.0000 0.0000 276.700 0.0000 5.0000 0.0000 292.300 0.0000 0.0000 5.0000 10.130 91.700 8.842           10.220 10.040 93.400 88.800 12.386 11.358 1.028
DSCMET_421 2017-09-30 08:50:00 90108 269.400 5.0000 0.0000 0.0000 281.000 0.0000 5.0000 0.0000 308.000 0.0000 0.0000 5.0000 9.880 92.000 8.643           10.010 9.680 94.600 87.800 12.180 11.206 0.974
DSCMET_421 2017-09-30 08:45:00 90107 270.400 5.0000 0.0000 0.0000 284.300 0.0000 2.2500 2.7500 325.100 0.0000 0.0000 5.0000 9.510 94.300 8.641           9.640 9.360 94.700 93.600 11.881 11.204 0.677
DSCMET_421 2017-09-30 08:40:00 90106 271.300 5.0000 0.0000 0.0000 287.400 0.0000 0.0000 5.0000 348.100 0.0000 0.0000 5.0000 9.360 94.900 8.585           9.410 9.300 95.600 94.300 11.762 11.162 0.600
DSCMET_421 2017-09-30 08:35:00 90105 271.800 5.0000 0.0000 0.0000 290.100 0.0000 0.0000 5.0000 360.900 0.0000 0.0000 5.0000 9.440 95.900 8.820           9.530 9.300 96.400 95.000 11.826 11.341 0.485
DSCMET_421 2017-09-30 08:30:00 90104 272.400 5.0000 0.0000 0.0000 292.300 0.0000 0.0000 5.0000 375.500 0.0000 0.0000 5.0000 9.350 95.700 8.699           9.480 9.230 96.500 94.400 11.754 11.249 0.505
DSCMET_421 2017-09-30 08:25:00 90103 273.000 5.0000 0.0000 0.0000 294.800 0.0000 0.0000 5.0000 397.300 0.0000 0.0000 5.0000 9.450 96.500 8.922           9.630 9.160 96.800 96.000 11.833 11.419 0.414
DSCMET_421 2017-09-30 08:20:00 90102 273.500 5.0000 0.0000 0.0000 298.100 0.0000 0.0000 5.0000 412.600 0.0000 0.0000 5.0000 9.030 95.300 8.319           9.150 8.930 96.200 94.300 11.503 10.962 0.541
DSCMET_421 2017-09-30 08:15:00 90101 273.600 5.0000 0.0000 0.0000 300.600 0.0000 0.0000 5.0000 437.000 0.0000 0.0000 5.0000 8.920 92.600 7.788           8.960 8.830 94.400 90.200 11.418 10.573 0.845
DSCMET_421 2017-09-30 08:10:00 90100 273.000 5.0000 0.0000 0.0000 300.300 0.0000 0.0000 5.0000 519.300 0.0000 0.0000 5.0000 8.790 94.300 7.926           8.870 8.730 95.900 89.700 11.318 10.673 0.645
DSCMET_421 2017-09-30 08:05:00 90099 270.300 5.0000 0.0000 0.0000 290.200 0.0000 0.0000 5.0000 481.900 0.0000 0.0000 5.0000 8.850 96.000 8.248           9.000 8.770 96.700 95.200 11.364 10.909 0.455
DSCMET_421 2017-09-30 08:00:00 90098 269.400 5.0000 0.0000 0.0000 290.700 0.0000 0.0000 5.0000 468.300 0.0000 0.0000 5.0000 8.850 96.600 8.340           9.000 8.730 97.300 95.700 11.364 10.978 0.386
DSCMET_421 2017-09-30 07:55:00 90097 269.500 5.0000 0.0000 0.0000 293.300 0.0000 0.0000 5.0000 480.600 0.0000 0.0000 5.0000 8.860 96.900 8.395           8.980 8.770 97.400 95.900 11.372 11.019 0.353
DSCMET_421 2017-09-30 07:50:00 90096 269.500 5.0000 0.0000 0.0000 295.600 0.0000 0.0000 5.0000 497.000 0.0000 0.0000 5.0000 8.700 95.800 8.068           8.770 8.630 96.200 95.300 11.249 10.777 0.472
DSCMET_421 2017-09-30 07:45:00 90095 268.500 5.0000 0.0000 0.0000 295.400 0.0000 0.0000 5.0000 528.800 0.0000 0.0000 5.0000 8.510 95.200 7.787           8.620 8.390 96.000 94.800 11.105 10.572 0.533
DSCMET_421 2017-09-30 07:40:00 90094 266.800 5.0000 0.0000 0.0000 294.800 0.0000 0.0000 5.0000 482.100 0.0000 0.0000 5.0000 8.550 95.600 7.888           8.600 8.500 96.100 95.300 11.135 10.646 0.490
DSCMET_421 2017-09-30 07:35:00 90093 266.100 5.0000 0.0000 0.0000 295.000 0.0000 0.0000 5.0000 462.500 0.0000 0.0000 5.0000 8.590 94.800 7.805           8.630 8.520 95.200 94.100 11.166 10.585 0.581
DSCMET_421 2017-09-30 07:30:00 90092 266.000 5.0000 0.0000 0.0000 296.700 0.0000 0.0000 5.0000 465.500 0.0000 0.0000 5.0000 8.460 93.900 7.536           8.520 8.390 94.200 93.300 11.068 10.393 0.675
DSCMET_421 2017-09-30 07:25:00 90091 265.800 5.0000 0.0000 0.0000 297.900 0.0000 0.0000 5.0000 469.000 0.0000 0.0000 5.0000 8.250 95.200 7.528           8.350 8.170 95.900 93.600 10.911 10.387 0.524
DSCMET_421 2017-09-30 07:20:00 90090 265.700 5.0000 0.0000 0.0000 298.900 0.0000 0.0000 5.0000 470.600 0.0000 0.0000 5.0000 8.230 95.900 7.616           8.320 8.170 96.200 95.600 10.896 10.449 0.447
DSCMET_421 2017-09-30 07:15:00 90089 265.700 5.0000 0.0000 0.0000 300.200 0.0000 0.0000 5.0000 472.400 0.0000 0.0000 5.0000 8.140 96.000 7.541           8.200 8.060 96.300 95.800 10.830 10.397 0.433
DSCMET_421 2017-09-30 07:10:00 90088 265.700 5.0000 0.0000 0.0000 300.800 0.0000 0.0000 5.0000 474.400 0.0000 0.0000 5.0000 8.140 96.500 7.617           8.240 8.040 96.700 96.300 10.830 10.451 0.379
DSCMET_421 2017-09-30 07:05:00 90087 265.700 5.0000 0.0000 0.0000 301.800 0.0000 0.0000 5.0000 475.900 0.0000 0.0000 5.0000 8.000 96.800 7.523           8.090 7.940 97.000 96.600 10.727 10.384 0.343
DSCMET_421 2017-09-30 07:00:00 90086 265.700 5.0000 0.0000 0.0000 303.100 0.0000 0.0000 5.0000 477.100 0.0000 0.0000 5.0000 7.998 96.800 7.521           8.060 7.940 96.900 96.700 10.726 10.382 0.343
DSCMET_421 2017-09-30 06:55:00 90085 265.700 5.0000 0.0000 0.0000 303.900 0.0000 0.0000 5.0000 478.000 0.0000 0.0000 5.0000 7.927 96.600 7.420           7.990 7.841 96.700 96.500 10.674 10.311 0.363
DSCMET_421 2017-09-30 06:50:00 90084 265.700 5.0000 0.0000 0.0000 305.600 0.0000 0.0000 5.0000 478.800 0.0000 0.0000 5.0000 7.861 97.300 7.460           7.891 7.808 97.700 96.700 10.626 10.339 0.287
DSCMET_421 2017-09-30 06:45:00 90083 265.700 5.0000 0.0000 0.0000 306.300 0.0000 0.0000 5.0000 480.100 0.0000 0.0000 5.0000 7.787 97.800 7.461           7.857 7.742 97.900 97.600 10.572 10.340 0.233
DSCMET_421 2017-09-30 06:40:00 90082 265.700 5.0000 0.0000 0.0000 306.700 0.0000 0.0000 5.0000 480.800 0.0000 0.0000 5.0000 7.747 97.900 7.436           7.791 7.708 97.900 97.700 10.544 10.322 0.221
DSCMET_421 2017-09-30 06:35:00 90081 265.700 5.0000 0.0000 0.0000 307.100 0.0000 0.0000 5.0000 481.300 0.0000 0.0000 5.0000 7.767 97.700 7.426           7.808 7.725 97.700 97.500 10.558 10.315 0.243
DSCMET_421 2017-09-30 06:30:00 90080 265.700 5.0000 0.0000 0.0000 307.600 0.0000 0.0000 5.0000 482.000 0.0000 0.0000 5.0000 7.728 97.800 7.403           7.775 7.659 97.900 97.700 10.530 10.298 0.232
DSCMET_421 2017-09-30 06:25:00 90079 265.700 5.0000 0.0000 0.0000 308.300 0.0000 0.0000 5.0000 482.400 0.0000 0.0000 5.0000 7.733 97.800 7.408           7.791 7.658 97.900 97.800 10.533 10.302 0.232
DSCMET_421 2017-09-30 06:20:00 90078 265.700 5.0000 0.0000 0.0000 309.100 0.0000 0.0000 5.0000 482.600 0.0000 0.0000 5.0000 7.641 97.900 7.331           7.725 7.576 98.000 97.900 10.468 10.248 0.220
DSCMET_421 2017-09-30 06:15:00 90077 265.700 5.0000 0.0000 0.0000 309.700 0.0000 0.0000 5.0000 483.000 0.0000 0.0000 5.0000 7.598 98.000 7.303           7.642 7.559 98.100 97.800 10.437 10.228 0.209
DSCMET_421 2017-09-30 06:10:00 90076 265.700 5.0000 0.0000 0.0000 310.300 0.0000 0.0000 5.0000 483.500 0.0000 0.0000 5.0000 7.550 98.200 7.285           7.609 7.493 98.300 98.100 10.403 10.215 0.187
DSCMET_421 2017-09-30 06:05:00 90075 265.700 5.0000 0.0000 0.0000 310.700 0.0000 0.0000 5.0000 484.000 0.0000 0.0000 5.0000 7.516 98.300 7.265           7.543 7.459 98.400 98.200 10.378 10.202 0.176
DSCMET_421 2017-09-30 06:00:00 90074 265.700 5.0000 0.0000 0.0000 311.000 0.0000 0.0000 5.0000 484.200 0.0000 0.0000 5.0000 7.561 98.200 7.296           7.625 7.509 98.300 98.100 10.410 10.223 0.187
DSCMET_421 2017-09-30 05:55:00 90073 265.700 5.0000 0.0000 0.0000 311.300 0.0000 0.0000 5.0000 484.200 0.0000 0.0000 5.0000 7.557 98.100 7.277           7.609 7.492 98.200 98.000 10.408 10.210 0.198
DSCMET_421 2017-09-30 05:50:00 90072 265.700 5.0000 0.0000 0.0000 311.800 0.0000 0.0000 5.0000 484.200 0.0000 0.0000 5.0000 7.582 98.500 7.361           7.675 7.459 98.700 98.200 10.425 10.269 0.156
DSCMET_421 2017-09-30 05:45:00 90071 265.700 5.0000 0.0000 0.0000 312.600 0.0000 0.0000 5.0000 484.200 0.0000 0.0000 5.0000 7.405 98.700 7.214           7.509 7.360 98.700 98.600 10.300 10.166 0.134
DSCMET_421 2017-09-30 05:40:00 90070 265.700 5.0000 0.0000 0.0000 312.900 0.0000 0.0000 5.0000 484.200 0.0000 0.0000 5.0000 7.407 98.800 7.231           7.443 7.344 98.900 98.700 10.301 10.178 0.124
DSCMET_421 2017-09-30 05:35:00 90069 265.700 5.0000 0.0000 0.0000 313.200 0.0000 0.0000 5.0000 484.000 0.0000 0.0000 5.0000 7.427 98.900 7.265           7.476 7.376 99.000 98.800 10.316 10.202 0.113
DSCMET_421 2017-09-30 05:30:00 90068 265.700 5.0000 0.0000 0.0000 313.200 0.0000 0.0000 5.0000 483.100 0.0000 0.0000 5.0000 7.440 99.000 7.293           7.509 7.376 99.000 99.000 10.325 10.221 0.103
DSCMET_421 2017-09-30 05:25:00 90067 265.700 5.0000 0.0000 0.0000 313.400 0.0000 0.0000 5.0000 481.700 0.0000 0.0000 5.0000 7.445 99.000 7.298           7.492 7.376 99.100 98.900 10.328 10.225 0.103
DSCMET_421 2017-09-30 05:20:00 90066 265.700 5.0000 0.0000 0.0000 313.500 0.0000 0.0000 5.0000 481.000 0.0000 0.0000 5.0000 7.329 99.000 7.182           7.376 7.293 99.000 98.900 10.247 10.144 0.102
DSCMET_421 2017-09-30 05:15:00 90065 265.700 5.0000 0.0000 0.0000 313.200 0.0000 0.0000 5.0000 479.000 0.0000 0.0000 5.0000 7.329 98.900 7.168           7.376 7.292 98.900 98.800 10.247 10.134 0.113
DSCMET_421 2017-09-30 05:10:00 90064 265.700 5.0000 0.0000 0.0000 312.900 0.0000 0.0000 5.0000 476.100 0.0000 0.0000 5.0000 7.367 98.800 7.191           7.442 7.326 98.900 98.700 10.273 10.150 0.123
DSCMET_421 2017-09-30 05:05:00 90063 265.700 5.0000 0.0000 0.0000 312.400 0.0000 0.0000 5.0000 472.800 0.0000 0.0000 5.0000 7.459 98.700 7.268           7.492 7.392 98.800 98.600 10.338 10.204 0.134
DSCMET_421 2017-09-30 05:00:00 90062 265.700 5.0000 0.0000 0.0000 311.800 0.0000 0.0000 5.0000 468.800 0.0000 0.0000 5.0000 7.504 98.500 7.283           7.558 7.475 98.600 98.500 10.370 10.214 0.156
DSCMET_421 2017-09-30 04:55:00 90061 265.700 5.0000 0.0000 0.0000 311.500 0.0000 0.0000 5.0000 465.700 0.0000 0.0000 5.0000 7.595 98.500 7.374           7.658 7.541 98.600 98.500 10.435 10.278 0.157
DSCMET_421 2017-09-30 04:50:00 90060 265.700 5.0000 0.0000 0.0000 311.500 0.0000 0.0000 5.0000 463.500 0.0000 0.0000 5.0000 7.639 98.600 7.433           7.691 7.574 98.700 98.600 10.466 10.320 0.147
DSCMET_421 2017-09-30 04:45:00 90059 265.700 5.0000 0.0000 0.0000 311.800 0.0000 0.0000 5.0000 462.400 0.0000 0.0000 5.0000 7.563 98.600 7.357           7.591 7.525 98.700 98.600 10.412 10.266 0.146
DSCMET_421 2017-09-30 04:40:00 90058 265.700 5.0000 0.0000 0.0000 311.900 0.0000 0.0000 5.0000 461.700 0.0000 0.0000 5.0000 7.593 98.600 7.387           7.641 7.524 98.700 98.600 10.433 10.287 0.146
DSCMET_421 2017-09-30 04:35:00 90057 265.700 5.0000 0.0000 0.0000 312.200 0.0000 0.0000 5.0000 461.300 0.0000 0.0000 5.0000 7.618 98.700 7.427           7.657 7.574 98.800 98.600 10.451 10.315 0.136
DSCMET_421 2017-09-30 04:30:00 90056 265.700 5.0000 0.0000 0.0000 312.200 0.0000 0.0000 5.0000 460.500 0.0000 0.0000 5.0000 7.602 98.800 7.425           7.673 7.491 98.800 98.700 10.440 10.314 0.125
DSCMET_421 2017-09-30 04:25:00 90055 265.700 5.0000 0.0000 0.0000 312.200 0.0000 0.0000 5.0000 459.700 0.0000 0.0000 5.0000 7.633 98.800 7.456           7.724 7.525 98.900 98.800 10.462 10.336 0.126
DSCMET_421 2017-09-30 04:20:00 90054 265.700 5.0000 0.0000 0.0000 312.200 0.0000 0.0000 5.0000 458.700 0.0000 0.0000 5.0000 7.678 98.900 7.516           7.740 7.606 99.000 98.800 10.494 10.379 0.115
DSCMET_421 2017-09-30 04:15:00 90053 265.700 5.0000 0.0000 0.0000 312.200 0.0000 0.0000 5.0000 457.800 0.0000 0.0000 5.0000 7.605 99.000 7.458           7.639 7.572 99.000 98.900 10.442 10.337 0.104
DSCMET_421 2017-09-30 04:10:00 90052 265.700 5.0000 0.0000 0.0000 312.100 0.0000 0.0000 5.0000 456.500 0.0000 0.0000 5.0000 7.603 99.000 7.456           7.638 7.555 99.100 99.000 10.440 10.336 0.104
DSCMET_421 2017-09-30 04:05:00 90051 265.700 5.0000 0.0000 0.0000 311.900 0.0000 0.0000 5.0000 454.500 0.0000 0.0000 5.0000 7.557 99.000 7.410           7.589 7.506 99.100 98.900 10.408 10.304 0.104
DSCMET_421 2017-09-30 04:00:00 90050 265.700 5.0000 0.0000 0.0000 311.600 0.0000 0.0000 5.0000 451.900 0.0000 0.0000 5.0000 7.560 99.000 7.413           7.605 7.505 99.000 98.900 10.410 10.306 0.104
DSCMET_421 2017-09-30 03:55:00 90049 266.000 5.0000 0.0000 0.0000 310.900 0.0000 0.0000 5.0000 448.900 0.0000 0.0000 5.0000 7.591 99.000 7.444           7.638 7.522 99.000 98.900 10.432 10.328 0.104
DSCMET_421 2017-09-30 03:50:00 90048 266.000 5.0000 0.0000 0.0000 309.900 0.0000 0.0000 5.0000 444.500 0.0000 0.0000 5.0000 7.620 99.000 7.473           7.655 7.588 99.000 98.900 10.453 10.348 0.105
DSCMET_421 2017-09-30 03:45:00 90047 266.000 5.0000 0.0000 0.0000 308.500 0.0000 0.0000 5.0000 439.500 0.0000 0.0000 5.0000 7.659 98.900 7.497           7.704 7.588 98.900 98.900 10.480 10.365 0.115
DSCMET_421 2017-09-30 03:40:00 90046 266.000 5.0000 0.0000 0.0000 307.000 0.0000 0.0000 5.0000 435.100 0.0000 0.0000 5.0000 7.671 98.900 7.509           7.704 7.638 99.000 98.800 10.489 10.374 0.115
DSCMET_421 2017-09-30 03:35:00 90045 266.000 5.0000 0.0000 0.0000 305.300 0.0000 0.0000 5.0000 430.600 0.0000 0.0000 5.0000 7.740 98.900 7.578           7.770 7.687 98.900 98.800 10.539 10.423 0.116
DSCMET_421 2017-09-30 03:30:00 90044 266.000 5.0000 0.0000 0.0000 303.700 0.0000 0.0000 5.0000 425.700 0.0000 0.0000 5.0000 7.818 98.800 7.641           7.885 7.736 98.900 98.800 10.595 10.468 0.127
DSCMET_421 2017-09-30 03:25:00 90043 266.000 5.0000 0.0000 0.0000 302.200 0.0000 0.0000 5.0000 421.200 0.0000 0.0000 5.0000 7.961 98.800 7.784           8.080 7.835 98.900 98.800 10.699 10.570 0.128
DSCMET_421 2017-09-30 03:20:00 90042 265.900 5.0000 0.0000 0.0000 300.500 0.0000 0.0000 5.0000 416.300 0.0000 0.0000 5.0000 8.050 98.900 7.888           8.080 8.020 98.900 98.800 10.764 10.645 0.118
DSCMET_421 2017-09-30 03:15:00 90041 266.000 5.0000 0.0000 0.0000 298.900 0.0000 0.0000 5.0000 412.000 0.0000 0.0000 5.0000 8.060 98.800 7.883           8.100 7.984 98.900 98.800 10.771 10.642 0.129
DSCMET_421 2017-09-30 03:10:00 90040 265.900 5.0000 0.0000 0.0000 297.500 0.0000 0.0000 5.0000 407.100 0.0000 0.0000 5.0000 8.090 98.800 7.913           8.180 8.000 98.800 98.700 10.793 10.663 0.130
DSCMET_421 2017-09-30 03:05:00 90039 266.000 5.0000 0.0000 0.0000 296.200 0.0000 0.0000 5.0000 402.100 0.0000 0.0000 5.0000 8.180 98.800 8.003           8.230 8.080 98.800 98.700 10.859 10.729 0.130
DSCMET_421 2017-09-30 03:00:00 90038 266.000 5.0000 0.0000 0.0000 295.100 0.0000 0.0000 5.0000 397.600 0.0000 0.0000 5.0000 8.270 98.700 8.078           8.350 8.180 98.700 98.600 10.926 10.784 0.142
DSCMET_421 2017-09-30 02:55:00 90037 265.900 5.0000 0.0000 0.0000 293.800 0.0000 0.0000 5.0000 393.600 0.0000 0.0000 5.0000 8.370 98.600 8.163           8.430 8.300 98.700 98.600 11.000 10.846 0.154
DSCMET_421 2017-09-30 02:50:00 90036 265.900 5.0000 0.0000 0.0000 292.500 0.0000 0.0000 5.0000 389.300 0.0000 0.0000 5.0000 8.380 98.600 8.173           8.430 8.330 98.700 98.600 11.008 10.854 0.154
DSCMET_421 2017-09-30 02:45:00 90035 266.000 5.0000 0.0000 0.0000 291.500 0.0000 0.0000 5.0000 385.400 0.0000 0.0000 5.0000 8.450 98.600 8.242           8.510 8.380 98.700 98.600 11.060 10.905 0.155
DSCMET_421 2017-09-30 02:40:00 90034 266.000 5.0000 0.0000 0.0000 290.400 0.0000 0.0000 5.0000 382.300 0.0000 0.0000 5.0000 8.480 98.600 8.272           8.510 8.410 98.700 98.600 11.083 10.928 0.155
DSCMET_421 2017-09-30 02:35:00 90033 265.900 5.0000 0.0000 0.0000 288.900 0.0000 0.0000 5.0000 378.400 0.0000 0.0000 5.0000 8.550 98.600 8.342           8.590 8.490 98.700 98.500 11.135 10.980 0.156
DSCMET_421 2017-09-30 02:30:00 90032 266.000 5.0000 0.0000 0.0000 287.700 0.0000 0.0000 5.0000 373.500 0.0000 0.0000 5.0000 8.550 98.500 8.327           8.630 8.480 98.600 98.500 11.135 10.968 0.167
DSCMET_421 2017-09-30 02:25:00 90031 266.000 5.0000 0.0000 0.0000 286.800 0.0000 0.0000 5.0000 368.900 0.0000 0.0000 5.0000 8.750 98.600 8.542           8.840 8.610 98.700 98.500 11.287 11.129 0.158
DSCMET_421 2017-09-30 02:20:00 90030 266.000 5.0000 0.0000 0.0000 285.800 0.0000 0.0000 5.0000 364.200 0.0000 0.0000 5.0000 8.820 98.600 8.612           8.860 8.740 98.700 98.500 11.341 11.182 0.159
DSCMET_421 2017-09-30 02:15:00 90029 266.000 5.0000 0.0000 0.0000 284.300 0.0000 1.5000 3.5000 359.000 0.0000 0.0000 5.0000 8.850 98.500 8.627           8.970 8.790 98.600 98.500 11.364 11.194 0.170
DSCMET_421 2017-09-30 02:10:00 90028 265.900 5.0000 0.0000 0.0000 283.000 0.0000 5.0000 0.0000 354.100 0.0000 0.0000 5.0000 8.980 98.500 8.757           9.020 8.920 98.600 98.500 11.464 11.292 0.172
DSCMET_421 2017-09-30 02:05:00 90027 265.900 5.0000 0.0000 0.0000 281.800 0.0000 5.0000 0.0000 348.500 0.0000 0.0000 5.0000 9.020 98.500 8.796           9.120 8.960 98.500 98.400 11.495 11.323 0.172
DSCMET_421 2017-09-30 02:00:00 90026 265.900 5.0000 0.0000 0.0000 280.600 0.0000 5.0000 0.0000 343.400 0.0000 0.0000 5.0000 9.080 98.400 8.841           9.140 9.020 98.500 98.400 11.542 11.357 0.185
DSCMET_421 2017-09-30 01:55:00 90025 265.900 5.0000 0.0000 0.0000 279.100 0.0000 5.0000 0.0000 338.000 0.0000 0.0000 5.0000 9.180 98.300 8.926           9.300 9.090 98.400 98.300 11.620 11.423 0.198
DSCMET_421 2017-09-30 01:50:00 90024 265.900 5.0000 0.0000 0.0000 277.800 0.0000 5.0000 0.0000 332.000 0.0000 0.0000 5.0000 9.290 98.300 9.036           9.370 9.220 98.400 98.200 11.707 11.508 0.199
DSCMET_421 2017-09-30 01:45:00 90023 265.800 5.0000 0.0000 0.0000 276.400 0.0000 5.0000 0.0000 326.400 0.0000 0.0000 5.0000 9.380 98.200 9.111           9.440 9.320 98.300 98.100 11.778 11.566 0.212
DSCMET_421 2017-09-30 01:40:00 90022 265.700 5.0000 0.0000 0.0000 275.300 0.0000 5.0000 0.0000 320.500 0.0000 0.0000 5.0000 9.450 98.000 9.150           9.500 9.400 98.100 97.800 11.833 11.597 0.237
DSCMET_421 2017-09-30 01:35:00 90021 265.700 5.0000 0.0000 0.0000 274.400 0.7500 4.2500 0.0000 314.200 0.0000 0.0000 5.0000 9.570 97.700 9.224           9.650 9.470 97.800 97.600 11.929 11.655 0.274
DSCMET_421 2017-09-30 01:30:00 90020 265.600 5.0000 0.0000 0.0000 273.400 5.0000 0.0000 0.0000 309.600 0.0000 0.0000 5.0000 9.740 97.700 9.394           9.820 9.620 97.700 97.500 12.066 11.789 0.278
DSCMET_421 2017-09-30 01:25:00 90019 265.700 5.0000 0.0000 0.0000 272.500 5.0000 0.0000 0.0000 305.100 0.0000 0.0000 5.0000 9.820 97.500 9.443           9.880 9.730 97.600 97.400 12.131 11.828 0.303
DSCMET_421 2017-09-30 01:20:00 90018 265.600 5.0000 0.0000 0.0000 271.900 5.0000 0.0000 0.0000 302.000 0.0000 0.0000 5.0000 9.930 97.600 9.568           9.980 9.870 97.700 97.400 12.221 11.928 0.293
DSCMET_421 2017-09-30 01:15:00 90017 265.600 5.0000 0.0000 0.0000 271.400 5.0000 0.0000 0.0000 300.000 0.0000 0.0000 5.0000 9.930 97.600 9.568           9.980 9.870 97.700 97.500 12.221 11.928 0.293
DSCMET_421 2017-09-30 01:10:00 90016 265.600 5.0000 0.0000 0.0000 271.200 5.0000 0.0000 0.0000 298.700 0.0000 0.0000 5.0000 9.940 97.600 9.578           10.000 9.900 97.600 97.500 12.229 11.936 0.294
DSCMET_421 2017-09-30 01:05:00 90015 265.600 5.0000 0.0000 0.0000 270.900 5.0000 0.0000 0.0000 297.900 0.0000 0.0000 5.0000 9.990 97.600 9.628           10.050 9.950 97.700 97.600 12.271 11.976 0.294
DSCMET_421 2017-09-30 01:00:00 90014 265.600 5.0000 0.0000 0.0000 270.900 5.0000 0.0000 0.0000 296.800 0.0000 0.0000 5.0000 10.020 97.900 9.704           10.060 9.960 98.000 97.800 12.295 12.037 0.258
DSCMET_421 2017-09-30 00:55:00 90013 265.600 5.0000 0.0000 0.0000 270.600 5.0000 0.0000 0.0000 294.700 0.0000 0.0000 5.0000 10.050 98.000 9.749           10.110 9.980 98.000 97.900 12.320 12.074 0.246
DSCMET_421 2017-09-30 00:50:00 90012 265.600 5.0000 0.0000 0.0000 270.000 5.0000 0.0000 0.0000 291.300 0.0000 0.0000 5.0000 10.170 97.900 9.853           10.240 10.050 98.000 97.800 12.419 12.158 0.261
DSCMET_421 2017-09-30 00:45:00 90011 265.600 5.0000 0.0000 0.0000 269.500 5.0000 0.0000 0.0000 288.600 0.0000 0.0000 5.0000 10.250 97.900 9.933           10.340 10.150 98.000 97.700 12.486 12.224 0.262
DSCMET_421 2017-09-30 00:40:00 90010 265.600 5.0000 0.0000 0.0000 268.900 5.0000 0.0000 0.0000 286.300 0.0000 0.0000 5.0000 10.330 97.700 9.982           10.390 10.240 97.800 97.600 12.553 12.264 0.289
DSCMET_421 2017-09-30 00:35:00 90009 265.600 5.0000 0.0000 0.0000 268.500 5.0000 0.0000 0.0000 283.800 0.0000 2.7500 2.2500 10.420 97.800 10.087           10.490 10.360 97.900 97.700 12.629 12.351 0.278
DSCMET_421 2017-09-30 00:30:00 90008 265.600 5.0000 0.0000 0.0000 268.100 5.0000 0.0000 0.0000 280.900 0.0000 5.0000 0.0000 10.490 97.700 10.142           10.560 10.410 97.800 97.600 12.688 12.396 0.292
DSCMET_421 2017-09-30 00:25:00 90007 265.600 5.0000 0.0000 0.0000 267.700 5.0000 0.0000 0.0000 278.300 0.0000 5.0000 0.0000 10.590 97.600 10.226           10.660 10.490 97.700 97.400 12.773 12.466 0.307
DSCMET_421 2017-09-30 00:20:00 90006 265.600 5.0000 0.0000 0.0000 267.400 5.0000 0.0000 0.0000 276.500 0.0000 5.0000 0.0000 10.700 97.500 10.321           10.760 10.590 97.600 97.400 12.867 12.545 0.322
DSCMET_421 2017-09-30 00:15:00 90005 265.600 5.0000 0.0000 0.0000 267.100 5.0000 0.0000 0.0000 274.400 1.7500 3.2500 0.0000 10.730 97.200 10.304           10.810 10.670 97.400 97.000 12.892 12.531 0.361
DSCMET_421 2017-09-30 00:10:00 90004 265.600 5.0000 0.0000 0.0000 266.900 5.0000 0.0000 0.0000 272.500 5.0000 0.0000 0.0000 10.840 97.000 10.383           10.920 10.770 97.100 96.900 12.987 12.598 0.390
DSCMET_421 2017-09-30 00:05:00 90003 265.600 5.0000 0.0000 0.0000 266.600 5.0000 0.0000 0.0000 270.800 5.0000 0.0000 0.0000 10.910 96.800 10.422           10.940 10.870 97.000 96.600 13.048 12.630 0.418
DSCMET_421 2017-09-30 00:00:00 90002 265.600 5.0000 0.0000 0.0000 266.600 5.0000 0.0000 0.0000 269.800 5.0000 0.0000 0.0000 10.910 96.500 10.376           11.010 10.840 96.800 95.900 13.048 12.591 0.457
DSCMET_421 2017-09-29 23:55:00 90001 265.600 5.0000 0.0000 0.0000 266.600 5.0000 0.0000 0.0000 269.000 5.0000 0.0000 0.0000 11.040 96.000 10.427           11.110 10.940 96.400 95.500 13.161 12.635 0.526
DSCMET_421 2017-09-29 23:50:00 90000 265.600 5.0000 0.0000 0.0000 266.600 5.0000 0.0000 0.0000 268.800 5.0000 0.0000 0.0000 11.030 96.700 10.526           11.120 10.940 97.000 96.400 13.152 12.718 0.434
DSCMET_421 2017-09-29 23:45:00 89999 265.600 5.0000 0.0000 0.0000 266.600 5.0000 0.0000 0.0000 268.300 5.0000 0.0000 0.0000 11.070 96.300 10.504           11.120 10.970 96.500 95.900 13.187 12.699 0.488
DSCMET_421 2017-09-29 23:40:00 89998 265.600 5.0000 0.0000 0.0000 266.600 5.0000 0.0000 0.0000 267.800 5.0000 0.0000 0.0000 11.220 95.400 10.512           11.340 11.090 95.800 94.900 13.319 12.707 0.613
DSCMET_421 2017-09-29 23:35:00 89997 265.600 5.0000 0.0000 0.0000 266.600 5.0000 0.0000 0.0000 267.100 5.0000 0.0000 0.0000 11.320 95.000 10.549           11.370 11.270 95.200 94.800 13.408 12.738 0.670
DSCMET_421 2017-09-29 23:30:00 89996 265.600 5.0000 0.0000 0.0000 266.600 5.0000 0.0000 0.0000 266.700 5.0000 0.0000 0.0000 11.340 94.300 10.458           11.390 11.290 94.900 93.800 13.426 12.660 0.765
DSCMET_421 2017-09-29 23:25:00 89995 265.600 5.0000 0.0000 0.0000 266.600 5.0000 0.0000 0.0000 266.600 5.0000 0.0000 0.0000 11.420 92.900 10.313           11.470 11.350 93.500 92.400 13.497 12.539 0.958
DSCMET_421 2017-09-29 23:20:00 89994 265.600 5.0000 0.0000 0.0000 266.600 5.0000 0.0000 0.0000 266.600 5.0000 0.0000 0.0000 11.480 92.700 10.340           11.620 11.400 93.100 92.200 13.551 12.562 0.989
DSCMET_421 2017-09-29 23:15:00 89993 265.600 5.0000 0.0000 0.0000 266.500 5.0000 0.0000 0.0000 266.500 5.0000 0.0000 0.0000 11.540 93.000 10.448           11.620 11.480 93.800 92.100 13.605 12.652 0.952
DSCMET_421 2017-09-29 23:10:00 89992 265.600 5.0000 0.0000 0.0000 266.300 5.0000 0.0000 0.0000 266.500 5.0000 0.0000 0.0000 11.600 93.300 10.556           11.670 11.530 94.100 92.700 13.659 12.744 0.915
DSCMET_421 2017-09-29 23:05:00 89991 265.500 5.0000 0.0000 0.0000 266.400 5.0000 0.0000 0.0000 266.500 5.0000 0.0000 0.0000 11.490 93.700 10.511           11.600 11.370 94.900 93.100 13.560 12.706 0.854
DSCMET_421 2017-09-29 23:00:00 89990 265.600 5.0000 0.0000 0.0000 266.500 5.0000 0.0000 0.0000 266.500 5.0000 0.0000 0.0000 11.550 94.500 10.698           11.720 11.400 95.400 93.400 13.614 12.865 0.749
DSCMET_421 2017-09-29 22:55:00 89989 265.500 5.0000 0.0000 0.0000 266.500 5.0000 0.0000 0.0000 266.500 5.0000 0.0000 0.0000 11.650 93.700 10.670           11.730 11.530 94.200 93.400 13.704 12.841 0.863
DSCMET_421 2017-09-29 22:50:00 89988 265.500 5.0000 0.0000 0.0000 266.500 5.0000 0.0000 0.0000 266.500 5.0000 0.0000 0.0000 11.550 94.200 10.650           11.600 11.520 94.400 94.100 13.614 12.824 0.790
DSCMET_421 2017-09-29 22:45:00 89987 265.500 5.0000 0.0000 0.0000 266.500 5.0000 0.0000 0.0000 266.500 5.0000 0.0000 0.0000 11.510 94.900 10.722           11.570 11.420 95.100 94.500 13.578 12.885 0.692
DSCMET_421 2017-09-29 22:40:00 89986 265.500 5.0000 0.0000 0.0000 266.500 5.0000 0.0000 0.0000 266.500 5.0000 0.0000 0.0000 11.530 95.000 10.757           11.560 11.480 95.200 94.500 13.596 12.916 0.680
DSCMET_421 2017-09-29 22:35:00 89985 265.500 5.0000 0.0000 0.0000 266.500 5.0000 0.0000 0.0000 266.500 5.0000 0.0000 0.0000 11.630 94.700 10.809           11.700 11.530 95.300 94.000 13.686 12.961 0.725
DSCMET_421 2017-09-29 22:30:00 89984 265.500 5.0000 0.0000 0.0000 266.500 5.0000 0.0000 0.0000 266.500 5.0000 0.0000 0.0000 11.650 94.100 10.734           11.750 11.600 94.600 93.100 13.704 12.896 0.809
DSCMET_421 2017-09-29 22:25:00 89983 265.500 5.0000 0.0000 0.0000 266.500 5.0000 0.0000 0.0000 266.500 5.0000 0.0000 0.0000 11.780 92.200 10.557           11.900 11.700 93.500 90.100 13.822 12.744 1.078
DSCMET_421 2017-09-29 22:20:00 89982 265.500 5.0000 0.0000 0.0000 266.500 5.0000 0.0000 0.0000 266.600 5.0000 0.0000 0.0000 11.800 92.700 10.657           11.850 11.730 94.900 90.100 13.841 12.830 1.010
DSCMET_421 2017-09-29 22:15:00 89981 265.500 5.0000 0.0000 0.0000 266.200 5.0000 0.0000 0.0000 266.500 5.0000 0.0000 0.0000 11.920 93.900 10.970           12.080 11.790 94.900 91.600 13.951 13.100 0.851
DSCMET_421 2017-09-29 22:10:00 89980 265.500 5.0000 0.0000 0.0000 266.200 5.0000 0.0000 0.0000 266.300 5.0000 0.0000 0.0000 12.250 87.500 10.237           12.380 12.110 91.900 84.300 14.257 12.475 1.782
DSCMET_421 2017-09-29 22:05:00 89979 265.500 5.0000 0.0000 0.0000 266.400 5.0000 0.0000 0.0000 266.600 5.0000 0.0000 0.0000 12.110 90.800 10.654           12.310 11.990 94.100 84.800 14.127 12.827 1.300
DSCMET_421 2017-09-29 22:00:00 89978 265.600 5.0000 0.0000 0.0000 266.500 5.0000 0.0000 0.0000 266.600 5.0000 0.0000 0.0000 12.240 92.600 11.077           12.390 12.090 94.200 88.000 14.248 13.194 1.054
DSCMET_421 2017-09-29 21:55:00 89977 265.600 5.0000 0.0000 0.0000 266.500 5.0000 0.0000 0.0000 266.800 5.0000 0.0000 0.0000 12.340 94.400 11.467           12.390 12.260 95.000 93.900 14.342 13.539 0.803
DSCMET_421 2017-09-29 21:50:00 89976 265.600 5.0000 0.0000 0.0000 266.500 5.0000 0.0000 0.0000 266.600 5.0000 0.0000 0.0000 12.620 92.600 11.454           12.820 12.410 94.700 84.600 14.608 13.527 1.081
DSCMET_421 2017-09-29 21:45:00 89975 265.800 5.0000 0.0000 0.0000 266.500 5.0000 0.0000 0.0000 266.700 5.0000 0.0000 0.0000 12.590 94.300 11.699           12.710 12.420 95.900 85.100 14.579 13.748 0.831
DSCMET_421 2017-09-29 21:40:00 89974 265.700 5.0000 0.0000 0.0000 266.500 5.0000 0.0000 0.0000 266.500 5.0000 0.0000 0.0000 12.880 93.600 11.874           13.220 12.690 94.800 89.600 14.859 13.908 0.951
DSCMET_421 2017-09-29 21:35:00 89973 265.600 5.0000 0.0000 0.0000 266.300 5.0000 0.0000 0.0000 266.500 5.0000 0.0000 0.0000 13.160 85.500 10.785           13.390 12.670 92.900 81.800 15.134 12.939 2.194
DSCMET_421 2017-09-29 21:30:00 89972 265.900 5.0000 0.0000 0.0000 266.500 5.0000 0.0000 0.0000 266.800 5.0000 0.0000 0.0000 12.770 96.400 12.212           12.840 12.710 96.700 95.000 14.753 14.222 0.531
DSCMET_421 2017-09-29 21:25:00 89971 265.900 5.0000 0.0000 0.0000 266.500 5.0000 0.0000 0.0000 266.800 5.0000 0.0000 0.0000 12.870 96.400 12.311           12.920 12.820 96.500 96.300 14.850 14.315 0.535
DSCMET_421 2017-09-29 21:20:00 89970 265.900 5.0000 0.0000 0.0000 266.500 5.0000 0.0000 0.0000 266.800 5.0000 0.0000 0.0000 12.870 96.600 12.343           12.940 12.840 96.700 96.400 14.850 14.345 0.505
DSCMET_421 2017-09-29 21:15:00 89969 265.900 5.0000 0.0000 0.0000 266.500 5.0000 0.0000 0.0000 266.800 5.0000 0.0000 0.0000 12.880 96.600 12.353           12.970 12.820 96.700 96.400 14.859 14.354 0.505
DSCMET_421 2017-09-29 21:10:00 89968 265.900 5.0000 0.0000 0.0000 266.500 5.0000 0.0000 0.0000 266.800 5.0000 0.0000 0.0000 12.940 96.400 12.381           12.970 12.890 96.600 96.200 14.918 14.381 0.537
DSCMET_421 2017-09-29 21:05:00 89967 265.800 5.0000 0.0000 0.0000 266.500 5.0000 0.0000 0.0000 266.800 5.0000 0.0000 0.0000 12.870 96.700 12.359           12.900 12.820 96.800 96.500 14.850 14.360 0.490
DSCMET_421 2017-09-29 21:00:00 89966 265.800 5.0000 0.0000 0.0000 266.500 5.0000 0.0000 0.0000 266.800 5.0000 0.0000 0.0000 12.910 96.200 12.320           13.000 12.820 96.700 95.900 14.889 14.323 0.566
DSCMET_421 2017-09-29 20:55:00 89965 265.900 5.0000 0.0000 0.0000 266.500 5.0000 0.0000 0.0000 266.800 5.0000 0.0000 0.0000 12.950 96.300 12.375           13.040 12.840 96.800 95.900 14.928 14.375 0.552
DSCMET_421 2017-09-29 20:50:00 89964 265.900 5.0000 0.0000 0.0000 266.500 5.0000 0.0000 0.0000 266.800 5.0000 0.0000 0.0000 12.920 96.300 12.345           13.040 12.820 96.800 95.900 14.898 14.347 0.551
DSCMET_421 2017-09-29 20:45:00 89963 265.900 5.0000 0.0000 0.0000 266.500 5.0000 0.0000 0.0000 266.900 5.0000 0.0000 0.0000 13.010 96.200 12.419           13.070 12.920 96.700 95.800 14.986 14.417 0.569
DSCMET_421 2017-09-29 20:40:00 89962 265.800 5.0000 0.0000 0.0000 266.500 5.0000 0.0000 0.0000 267.200 5.0000 0.0000 0.0000 12.920 96.700 12.408           12.970 12.870 97.000 96.600 14.898 14.407 0.492
DSCMET_421 2017-09-29 20:35:00 89961 265.800 5.0000 0.0000 0.0000 266.500 5.0000 0.0000 0.0000 267.200 5.0000 0.0000 0.0000 12.850 97.100 12.401           12.900 12.770 97.200 97.000 14.830 14.400 0.430
DSCMET_421 2017-09-29 20:30:00 89960 265.800 5.0000 0.0000 0.0000 266.500 5.0000 0.0000 0.0000 267.200 5.0000 0.0000 0.0000 12.850 97.200 12.417           12.900 12.790 97.300 97.000 14.830 14.415 0.415
DSCMET_421 2017-09-29 20:25:00 89959 265.800 5.0000 0.0000 0.0000 266.500 5.0000 0.0000 0.0000 267.200 5.0000 0.0000 0.0000 12.830 97.200 12.397           12.870 12.800 97.300 97.000 14.811 14.396 0.415
DSCMET_421 2017-09-29 20:20:00 89958 265.800 5.0000 0.0000 0.0000 266.500 5.0000 0.0000 0.0000 267.200 5.0000 0.0000 0.0000 12.870 96.600 12.343           12.940 12.800 97.000 96.400 14.850 14.345 0.505
DSCMET_421 2017-09-29 20:15:00 89957 265.700 5.0000 0.0000 0.0000 266.500 5.0000 0.0000 0.0000 267.000 5.0000 0.0000 0.0000 13.040 95.900 12.401           13.240 12.940 96.400 94.900 15.016 14.400 0.616
DSCMET_421 2017-09-29 20:10:00 89956 265.800 5.0000 0.0000 0.0000 266.500 5.0000 0.0000 0.0000 267.000 5.0000 0.0000 0.0000 13.190 95.400 12.471           13.270 13.140 96.000 94.900 15.164 14.466 0.698
DSCMET_421 2017-09-29 20:05:00 89955 265.800 5.0000 0.0000 0.0000 266.500 5.0000 0.0000 0.0000 267.500 5.0000 0.0000 0.0000 13.030 96.400 12.471           13.170 12.970 96.800 95.500 15.006 14.466 0.540
DSCMET_421 2017-09-29 20:00:00 89954 265.600 5.0000 0.0000 0.0000 266.500 5.0000 0.0000 0.0000 267.700 5.0000 0.0000 0.0000 13.240 95.400 12.521           13.380 13.000 96.500 94.900 15.213 14.513 0.700
DSCMET_421 2017-09-29 19:55:00 89953 265.600 5.0000 0.0000 0.0000 266.500 5.0000 0.0000 0.0000 268.500 5.0000 0.0000 0.0000 13.000 96.700 12.488           13.120 12.920 97.000 96.200 14.976 14.482 0.494
DSCMET_421 2017-09-29 19:50:00 89952 265.500 5.0000 0.0000 0.0000 266.500 5.0000 0.0000 0.0000 268.600 5.0000 0.0000 0.0000 13.120 96.300 12.544           13.180 12.970 97.000 96.100 15.094 14.536 0.558
DSCMET_421 2017-09-29 19:45:00 89951 265.600 5.0000 0.0000 0.0000 266.500 5.0000 0.0000 0.0000 269.200 5.0000 0.0000 0.0000 13.000 97.200 12.567           13.100 12.930 97.400 97.100 14.976 14.557 0.419
DSCMET_421 2017-09-29 19:40:00 89950 265.500 5.0000 0.0000 0.0000 266.500 5.0000 0.0000 0.0000 269.300 5.0000 0.0000 0.0000 13.030 97.000 12.565           13.100 12.950 97.100 96.900 15.006 14.556 0.450
DSCMET_421 2017-09-29 19:35:00 89949 265.500 5.0000 0.0000 0.0000 266.500 5.0000 0.0000 0.0000 269.300 5.0000 0.0000 0.0000 13.120 97.100 12.670           13.180 13.070 97.300 97.000 15.094 14.657 0.438
DSCMET_421 2017-09-29 19:30:00 89948 265.500 5.0000 0.0000 0.0000 266.500 5.0000 0.0000 0.0000 269.100 5.0000 0.0000 0.0000 13.110 97.300 12.692           13.170 13.050 97.400 97.100 15.085 14.677 0.407
DSCMET_421 2017-09-29 19:25:00 89947 265.500 5.0000 0.0000 0.0000 266.500 5.0000 0.0000 0.0000 268.600 5.0000 0.0000 0.0000 13.160 96.900 12.679           13.230 13.070 97.300 96.600 15.134 14.665 0.469
DSCMET_421 2017-09-29 19:20:00 89946 265.500 5.0000 0.0000 0.0000 266.500 5.0000 0.0000 0.0000 268.300 5.0000 0.0000 0.0000 13.160 96.800 12.663           13.260 13.050 97.200 96.500 15.134 14.650 0.484
DSCMET_421 2017-09-29 19:15:00 89945 265.500 5.0000 0.0000 0.0000 266.500 5.0000 0.0000 0.0000 268.600 5.0000 0.0000 0.0000 13.210 97.200 12.776           13.310 13.130 97.400 96.900 15.183 14.758 0.425
DSCMET_421 2017-09-29 19:10:00 89944 265.500 5.0000 0.0000 0.0000 266.500 5.0000 0.0000 0.0000 268.800 5.0000 0.0000 0.0000 13.260 96.600 12.731           13.380 13.160 97.100 96.300 15.233 14.715 0.518
DSCMET_421 2017-09-29 19:05:00 89943 265.500 5.0000 0.0000 0.0000 266.500 5.0000 0.0000 0.0000 267.800 5.0000 0.0000 0.0000 13.340 96.600 12.811           13.380 13.300 96.700 96.500 15.313 14.792 0.521
DSCMET_421 2017-09-29 19:00:00 89942 265.500 5.0000 0.0000 0.0000 266.500 5.0000 0.0000 0.0000 266.900 5.0000 0.0000 0.0000 13.400 96.400 12.839           13.450 13.350 96.700 96.200 15.373 14.819 0.553
DSCMET_421 2017-09-29 18:55:00 89941 265.500 5.0000 0.0000 0.0000 266.400 5.0000 0.0000 0.0000 266.500 5.0000 0.0000 0.0000 13.480 95.800 12.823           13.560 13.380 96.200 95.600 15.453 14.804 0.649
DSCMET_421 2017-09-29 18:50:00 89940 265.500 5.0000 0.0000 0.0000 266.300 5.0000 0.0000 0.0000 266.500 5.0000 0.0000 0.0000 13.530 96.400 12.968           13.560 13.500 96.700 95.800 15.504 14.945 0.558
DSCMET_421 2017-09-29 18:45:00 89939 265.500 5.0000 0.0000 0.0000 266.200 5.0000 0.0000 0.0000 266.500 5.0000 0.0000 0.0000 13.580 96.300 13.002           13.640 13.480 96.600 95.800 15.554 14.979 0.576
DSCMET_421 2017-09-29 18:40:00 89938 265.500 5.0000 0.0000 0.0000 266.100 5.0000 0.0000 0.0000 266.500 5.0000 0.0000 0.0000 13.650 95.500 12.944           13.690 13.610 95.800 95.200 15.625 14.922 0.703
DSCMET_421 2017-09-29 18:35:00 89937 265.500 5.0000 0.0000 0.0000 266.100 5.0000 0.0000 0.0000 266.400 5.0000 0.0000 0.0000 13.590 95.800 12.933           13.680 13.540 96.000 95.600 15.564 14.911 0.654
DSCMET_421 2017-09-29 18:30:00 89936 265.500 5.0000 0.0000 0.0000 266.100 5.0000 0.0000 0.0000 266.500 5.0000 0.0000 0.0000 13.650 95.600 12.960           13.740 13.590 95.900 95.500 15.625 14.938 0.688
DSCMET_421 2017-09-29 18:25:00 89935 265.500 5.0000 0.0000 0.0000 266.100 5.0000 0.0000 0.0000 266.500 5.0000 0.0000 0.0000 13.760 95.500 13.054           13.830 13.680 95.900 94.900 15.737 15.029 0.708
DSCMET_421 2017-09-29 18:20:00 89934 265.500 5.0000 0.0000 0.0000 266.100 5.0000 0.0000 0.0000 266.400 5.0000 0.0000 0.0000 13.650 96.500 13.104           13.690 13.610 96.800 96.000 15.625 15.078 0.547
DSCMET_421 2017-09-29 18:15:00 89933 265.500 5.0000 0.0000 0.0000 266.100 5.0000 0.0000 0.0000 266.400 5.0000 0.0000 0.0000 13.750 96.600 13.219           13.810 13.640 96.800 96.100 15.727 15.192 0.535
DSCMET_421 2017-09-29 18:10:00 89932 265.500 5.0000 0.0000 0.0000 266.100 5.0000 0.0000 0.0000 266.100 5.0000 0.0000 0.0000 13.820 95.100 13.049           13.890 13.770 96.000 93.700 15.799 15.025 0.774
DSCMET_421 2017-09-29 18:05:00 89931 265.500 5.0000 0.0000 0.0000 266.100 5.0000 0.0000 0.0000 266.100 5.0000 0.0000 0.0000 13.810 93.900 12.845           13.870 13.770 94.100 93.600 15.789 14.826 0.963
DSCMET_421 2017-09-29 18:00:00 89930 265.500 5.0000 0.0000 0.0000 266.100 5.0000 0.0000 0.0000 266.300 5.0000 0.0000 0.0000 13.880 94.600 13.028           14.070 13.790 95.400 93.900 15.861 15.004 0.856
DSCMET_421 2017-09-29 17:55:00 89929 265.500 5.0000 0.0000 0.0000 266.100 5.0000 0.0000 0.0000 266.300 5.0000 0.0000 0.0000 14.070 94.400 13.185           14.150 14.000 95.300 93.800 16.057 15.158 0.899
DSCMET_421 2017-09-29 17:50:00 89928 265.400 5.0000 0.0000 0.0000 266.100 5.0000 0.0000 0.0000 266.100 5.0000 0.0000 0.0000 14.090 93.500 13.058           14.170 14.040 93.700 93.300 16.078 15.033 1.045
DSCMET_421 2017-09-29 17:45:00 89927 265.500 5.0000 0.0000 0.0000 266.100 5.0000 0.0000 0.0000 265.800 5.0000 0.0000 0.0000 14.230 93.000 13.115           14.300 14.170 93.400 92.600 16.225 15.089 1.136
DSCMET_421 2017-09-29 17:40:00 89926 265.400 5.0000 0.0000 0.0000 265.900 5.0000 0.0000 0.0000 265.800 5.0000 0.0000 0.0000 14.330 91.800 13.015           14.430 14.230 93.000 90.800 16.330 14.991 1.339
DSCMET_421 2017-09-29 17:35:00 89925 265.200 5.0000 0.0000 0.0000 266.100 5.0000 0.0000 0.0000 265.800 5.0000 0.0000 0.0000 14.490 91.200 13.073           14.580 14.400 92.000 89.700 16.500 15.048 1.452
DSCMET_421 2017-09-29 17:30:00 89924 265.100 5.0000 0.0000 0.0000 266.200 5.0000 0.0000 0.0000 265.800 5.0000 0.0000 0.0000 14.550 90.800 13.065           14.620 14.500 91.600 89.900 16.564 15.040 1.524
DSCMET_421 2017-09-29 17:25:00 89923 265.100 5.0000 0.0000 0.0000 266.700 5.0000 0.0000 0.0000 266.100 5.0000 0.0000 0.0000 14.560 91.400 13.176           14.650 14.470 91.900 90.900 16.575 15.149 1.425
DSCMET_421 2017-09-29 17:20:00 89922 265.100 5.0000 0.0000 0.0000 267.200 5.0000 0.0000 0.0000 266.500 5.0000 0.0000 0.0000 14.650 90.700 13.147           14.700 14.600 91.400 90.200 16.671 15.121 1.550
DSCMET_421 2017-09-29 17:15:00 89921 265.100 5.0000 0.0000 0.0000 268.100 5.0000 0.0000 0.0000 268.500 5.0000 0.0000 0.0000 14.740 89.500 13.032           14.810 14.660 90.500 88.800 16.769 15.008 1.761
DSCMET_421 2017-09-29 17:10:00 89920 265.100 5.0000 0.0000 0.0000 270.200 5.0000 0.0000 0.0000 272.100 4.5000 0.5000 0.0000 14.730 90.000 13.107           14.780 14.680 91.200 89.100 16.758 15.082 1.676
DSCMET_421 2017-09-29 17:05:00 89919 265.300 5.0000 0.0000 0.0000 273.700 3.0000 2.0000 0.0000 276.700 0.0000 5.0000 0.0000 14.860 90.200 13.270           14.980 14.710 91.500 88.100 16.899 15.243 1.656
DSCMET_421 2017-09-29 17:00:00 89918 265.700 5.0000 0.0000 0.0000 278.800 0.0000 5.0000 0.0000 282.500 0.0000 3.2500 1.7500 14.980 88.800 13.149           15.080 14.900 90.700 87.100 17.030 15.123 1.907
DSCMET_421 2017-09-29 16:55:00 89917 266.700 5.0000 0.0000 0.0000 286.100 0.0000 1.0000 4.0000 293.300 0.0000 0.0000 5.0000 15.010 88.300 13.092           15.060 14.930 89.800 87.000 17.063 15.067 1.996
DSCMET_421 2017-09-29 16:50:00 89916 268.400 5.0000 0.0000 0.0000 294.700 0.0000 0.0000 5.0000 306.300 0.0000 0.0000 5.0000 15.060 88.100 13.106           15.160 14.980 89.500 86.700 17.118 15.081 2.037
DSCMET_421 2017-09-29 16:45:00 89915 269.100 5.0000 0.0000 0.0000 298.400 0.0000 0.0000 5.0000 313.300 0.0000 0.0000 5.0000 15.200 85.600 12.804           15.230 15.140 86.400 84.300 17.273 14.785 2.487
DSCMET_421 2017-09-29 16:40:00 89914 267.200 5.0000 0.0000 0.0000 282.100 1.5000 1.2500 2.2500 294.600 0.7500 0.7500 3.5000 15.170 85.200 12.703           15.240 15.090 87.400 84.300 17.239 14.688 2.551
DSCMET_421 2017-09-29 16:35:00 89913 264.800 5.0000 0.0000 0.0000 265.600 5.0000 0.0000 0.0000 265.400 5.0000 0.0000 0.0000 15.120 85.500 12.708           15.190 15.040 86.700 84.600 17.184 14.692 2.492
DSCMET_421 2017-09-29 16:30:00 89912 264.800 5.0000 0.0000 0.0000 266.100 5.0000 0.0000 0.0000 265.400 5.0000 0.0000 0.0000 15.060 86.000 12.738           15.130 14.980 86.500 85.500 17.118 14.721 2.397
DSCMET_421 2017-09-29 16:25:00 89911 264.800 5.0000 0.0000 0.0000 266.300 5.0000 0.0000 0.0000 265.600 5.0000 0.0000 0.0000 15.210 85.200 12.742           15.320 15.060 86.400 84.200 17.284 14.726 2.558
DSCMET_421 2017-09-29 16:20:00 89910 264.800 5.0000 0.0000 0.0000 265.700 5.0000 0.0000 0.0000 265.000 5.0000 0.0000 0.0000 15.430 82.400 12.448           15.560 15.320 83.800 80.900 17.530 14.444 3.085
DSCMET_421 2017-09-29 16:15:00 89909 264.600 5.0000 0.0000 0.0000 265.100 5.0000 0.0000 0.0000 265.200 5.0000 0.0000 0.0000 15.540 81.400 12.370           15.620 15.490 82.400 80.600 17.654 14.370 3.284
DSCMET_421 2017-09-29 16:10:00 89908 264.400 5.0000 0.0000 0.0000 264.800 5.0000 0.0000 0.0000 264.400 5.0000 0.0000 0.0000 15.760 79.300 12.187           15.800 15.690 81.600 78.230 17.904 14.198 3.706
DSCMET_421 2017-09-29 16:05:00 89907 264.400 5.0000 0.0000 0.0000 264.800 5.0000 0.0000 0.0000 264.400 5.0000 0.0000 0.0000 15.840 78.830 12.174           15.920 15.800 80.400 77.870 17.996 14.186 3.810
DSCMET_421 2017-09-29 16:00:00 89906 264.400 5.0000 0.0000 0.0000 264.800 5.0000 0.0000 0.0000 264.400 5.0000 0.0000 0.0000 15.850 78.440 12.109           15.900 15.770 79.690 77.320 18.008 14.125 3.882
DSCMET_421 2017-09-29 15:55:00 89905 264.400 5.0000 0.0000 0.0000 264.800 5.0000 0.0000 0.0000 264.400 5.0000 0.0000 0.0000 15.950 78.320 12.182           16.020 15.890 78.980 77.450 18.123 14.194 3.929
DSCMET_421 2017-09-29 15:50:00 89904 264.400 5.0000 0.0000 0.0000 264.800 5.0000 0.0000 0.0000 264.300 5.0000 0.0000 0.0000 16.090 77.320 12.123           16.170 16.000 78.300 76.210 18.286 14.139 4.147
DSCMET_421 2017-09-29 15:45:00 89903 264.400 5.0000 0.0000 0.0000 264.700 5.0000 0.0000 0.0000 264.300 5.0000 0.0000 0.0000 16.230 76.550 12.107           16.300 16.170 77.750 75.740 18.450 14.123 4.327
DSCMET_421 2017-09-29 15:40:00 89902 264.400 5.0000 0.0000 0.0000 264.700 5.0000 0.0000 0.0000 264.100 5.0000 0.0000 0.0000 16.310 75.100 11.894           16.380 16.250 76.060 74.120 18.544 13.927 4.618
DSCMET_421 2017-09-29 15:35:00 89901 264.400 5.0000 0.0000 0.0000 264.700 5.0000 0.0000 0.0000 264.200 5.0000 0.0000 0.0000 16.340 75.610 12.026           16.400 16.270 76.650 74.680 18.580 14.048 4.532
DSCMET_421 2017-09-29 15:30:00 89900 264.400 5.0000 0.0000 0.0000 264.700 5.0000 0.0000 0.0000 264.400 5.0000 0.0000 0.0000 16.340 75.790 12.062           16.400 16.280 77.370 74.950 18.580 14.082 4.498
DSCMET_421 2017-09-29 15:25:00 89899 264.400 5.0000 0.0000 0.0000 264.700 5.0000 0.0000 0.0000 264.400 5.0000 0.0000 0.0000 16.310 75.790 12.033           16.370 16.230 77.570 74.700 18.544 14.055 4.490
DSCMET_421 2017-09-29 15:20:00 89898 264.400 5.0000 0.0000 0.0000 264.700 5.0000 0.0000 0.0000 264.200 5.0000 0.0000 0.0000 16.360 74.970 11.916           16.480 16.280 76.770 73.900 18.603 13.947 4.656
DSCMET_421 2017-09-29 15:15:00 89897 264.400 5.0000 0.0000 0.0000 264.700 5.0000 0.0000 0.0000 264.200 5.0000 0.0000 0.0000 16.470 75.220 12.073           16.530 16.420 76.070 73.530 18.734 14.092 4.642
DSCMET_421 2017-09-29 15:10:00 89896 264.400 5.0000 0.0000 0.0000 264.700 5.0000 0.0000 0.0000 264.100 5.0000 0.0000 0.0000 16.510 74.660 11.998           16.580 16.460 75.810 73.680 18.782 14.023 4.759
DSCMET_421 2017-09-29 15:05:00 89895 264.400 5.0000 0.0000 0.0000 264.700 5.0000 0.0000 0.0000 264.100 5.0000 0.0000 0.0000 16.560 75.110 12.137           16.630 16.500 76.520 73.820 18.842 14.152 4.690
DSCMET_421 2017-09-29 15:00:00 89894 264.400 5.0000 0.0000 0.0000 264.700 5.0000 0.0000 0.0000 264.100 5.0000 0.0000 0.0000 16.620 75.340 12.242           16.680 16.560 76.980 73.860 18.914 14.250 4.664
DSCMET_421 2017-09-29 14:55:00 89893 264.400 5.0000 0.0000 0.0000 264.700 5.0000 0.0000 0.0000 264.200 5.0000 0.0000 0.0000 16.620 74.340 12.039           16.660 16.550 75.030 73.370 18.914 14.060 4.853
DSCMET_421 2017-09-29 14:50:00 89892 264.400 5.0000 0.0000 0.0000 264.700 5.0000 0.0000 0.0000 264.200 5.0000 0.0000 0.0000 16.710 75.230 12.306           16.810 16.580 76.450 73.380 19.022 14.310 4.712
DSCMET_421 2017-09-29 14:45:00 89891 264.500 5.0000 0.0000 0.0000 264.700 5.0000 0.0000 0.0000 264.100 5.0000 0.0000 0.0000 16.740 72.480 11.770           16.900 16.650 75.090 71.130 19.058 13.814 5.245
DSCMET_421 2017-09-29 14:40:00 89890 264.700 5.0000 0.0000 0.0000 264.700 5.0000 0.0000 0.0000 264.300 5.0000 0.0000 0.0000 16.840 74.130 12.208           16.930 16.710 76.440 72.290 19.180 14.218 4.962
DSCMET_421 2017-09-29 14:35:00 89889 264.600 5.0000 0.0000 0.0000 264.700 5.0000 0.0000 0.0000 264.200 5.0000 0.0000 0.0000 16.670 74.100 12.038           16.710 16.630 75.470 72.690 18.974 14.060 4.914
DSCMET_421 2017-09-29 14:30:00 89888 264.600 5.0000 0.0000 0.0000 264.700 5.0000 0.0000 0.0000 264.100 5.0000 0.0000 0.0000 16.690 73.340 11.901           16.750 16.650 75.290 72.570 18.998 13.933 5.065
DSCMET_421 2017-09-29 14:25:00 89887 264.500 5.0000 0.0000 0.0000 264.700 5.0000 0.0000 0.0000 264.100 5.0000 0.0000 0.0000 16.700 72.540 11.744           16.750 16.660 73.610 71.330 19.010 13.790 5.220
DSCMET_421 2017-09-29 14:20:00 89886 264.700 5.0000 0.0000 0.0000 264.800 5.0000 0.0000 0.0000 264.100 5.0000 0.0000 0.0000 16.760 73.560 12.014           16.830 16.700 79.040 71.620 19.083 14.037 5.045
DSCMET_421 2017-09-29 14:15:00 89885 264.700 5.0000 0.0000 0.0000 264.900 5.0000 0.0000 0.0000 264.400 5.0000 0.0000 0.0000 16.740 77.480 12.784           16.900 16.630 80.700 73.450 19.058 14.766 4.292
DSCMET_421 2017-09-29 14:10:00 89884 264.700 5.0000 0.0000 0.0000 264.800 5.0000 0.0000 0.0000 264.400 5.0000 0.0000 0.0000 16.800 73.730 12.087           16.860 16.750 78.230 71.560 19.131 14.105 5.026
DSCMET_421 2017-09-29 14:05:00 89883 264.500 5.0000 0.0000 0.0000 264.800 5.0000 0.0000 0.0000 264.200 5.0000 0.0000 0.0000 16.840 72.930 11.960           16.890 16.780 77.230 70.810 19.180 13.988 5.192
DSCMET_421 2017-09-29 14:00:00 89882 264.700 5.0000 0.0000 0.0000 264.900 5.0000 0.0000 0.0000 264.300 5.0000 0.0000 0.0000 16.700 75.590 12.369           16.810 16.560 79.670 71.530 19.010 14.370 4.640
DSCMET_421 2017-09-29 13:55:00 89881 264.600 5.0000 0.0000 0.0000 265.100 5.0000 0.0000 0.0000 264.200 5.0000 0.0000 0.0000 16.760 73.910 12.086           16.850 16.610 75.290 72.190 19.083 14.104 4.979
DSCMET_421 2017-09-29 13:50:00 89880 264.600 5.0000 0.0000 0.0000 265.000 5.0000 0.0000 0.0000 264.100 5.0000 0.0000 0.0000 16.880 72.310 11.869           16.940 16.760 74.110 71.390 19.229 13.904 5.324
DSCMET_421 2017-09-29 13:45:00 89879 264.700 5.0000 0.0000 0.0000 264.700 5.0000 0.0000 0.0000 264.200 5.0000 0.0000 0.0000 16.910 73.650 12.177           17.010 16.830 76.470 71.740 19.265 14.189 5.076
DSCMET_421 2017-09-29 13:40:00 89878 264.600 5.0000 0.0000 0.0000 264.700 5.0000 0.0000 0.0000 264.100 5.0000 0.0000 0.0000 16.800 73.790 12.100           16.850 16.700 75.670 72.490 19.131 14.117 5.014
DSCMET_421 2017-09-29 13:35:00 89877 264.400 5.0000 0.0000 0.0000 264.700 5.0000 0.0000 0.0000 264.100 5.0000 0.0000 0.0000 16.810 74.090 12.171           16.900 16.730 75.270 72.840 19.143 14.183 4.960
DSCMET_421 2017-09-29 13:30:00 89876 264.400 5.0000 0.0000 0.0000 264.700 5.0000 0.0000 0.0000 264.200 5.0000 0.0000 0.0000 16.810 74.630 12.281           16.900 16.660 75.360 73.450 19.143 14.287 4.857
DSCMET_421 2017-09-29 13:25:00 89875 264.400 5.0000 0.0000 0.0000 264.700 5.0000 0.0000 0.0000 264.100 5.0000 0.0000 0.0000 16.720 74.310 12.129           16.810 16.660 75.950 72.210 19.034 14.144 4.890
DSCMET_421 2017-09-29 13:20:00 89874 264.400 5.0000 0.0000 0.0000 264.700 5.0000 0.0000 0.0000 264.100 5.0000 0.0000 0.0000 16.810 73.320 12.012           16.880 16.760 74.360 72.390 19.143 14.036 5.107
DSCMET_421 2017-09-29 13:15:00 89873 264.300 5.0000 0.0000 0.0000 264.700 5.0000 0.0000 0.0000 264.100 5.0000 0.0000 0.0000 17.200 71.870 12.084           17.430 16.850 73.420 70.530 19.622 14.103 5.520
DSCMET_421 2017-09-29 13:10:00 89872 264.700 5.0000 0.0000 0.0000 264.700 5.0000 0.0000 0.0000 264.100 5.0000 0.0000 0.0000 17.210 71.680 12.054           17.490 17.000 73.120 69.290 19.635 14.074 5.561
DSCMET_421 2017-09-29 13:05:00 89871 264.800 5.0000 0.0000 0.0000 264.800 5.0000 0.0000 0.0000 264.100 5.0000 0.0000 0.0000 17.160 71.790 12.029           17.250 17.030 73.930 69.950 19.573 14.051 5.521
DSCMET_421 2017-09-29 13:00:00 89870 264.800 5.0000 0.0000 0.0000 265.000 5.0000 0.0000 0.0000 264.100 5.0000 0.0000 0.0000 17.090 73.320 12.282           17.250 16.960 74.950 71.450 19.486 14.287 5.199
DSCMET_421 2017-09-29 12:55:00 89869 264.800 5.0000 0.0000 0.0000 265.100 5.0000 0.0000 0.0000 264.200 5.0000 0.0000 0.0000 16.720 73.790 12.023           17.010 16.580 75.210 72.130 19.034 14.045 4.989
DSCMET_421 2017-09-29 12:50:00 89868 264.700 5.0000 0.0000 0.0000 265.000 5.0000 0.0000 0.0000 264.300 5.0000 0.0000 0.0000 16.460 75.530 12.125           16.520 16.380 76.560 74.100 18.722 14.141 4.581
DSCMET_421 2017-09-29 12:45:00 89867 264.700 5.0000 0.0000 0.0000 265.000 5.0000 0.0000 0.0000 264.100 5.0000 0.0000 0.0000 16.440 74.600 11.918           16.630 16.320 76.020 73.320 18.698 13.949 4.749
DSCMET_421 2017-09-29 12:40:00 89866 264.800 5.0000 0.0000 0.0000 265.000 5.0000 0.0000 0.0000 264.100 5.0000 0.0000 0.0000 16.300 74.630 11.789           16.380 16.190 76.090 73.400 18.532 13.831 4.702
DSCMET_421 2017-09-29 12:35:00 89865 264.800 5.0000 0.0000 0.0000 264.900 5.0000 0.0000 0.0000 264.100 5.0000 0.0000 0.0000 16.430 74.020 11.790           16.520 16.230 74.520 73.300 18.686 13.832 4.855
DSCMET_421 2017-09-29 12:30:00 89864 265.000 5.0000 0.0000 0.0000 265.100 5.0000 0.0000 0.0000 264.300 5.0000 0.0000 0.0000 16.570 74.400 12.003           16.800 16.300 75.960 71.760 18.854 14.027 4.827
DSCMET_421 2017-09-29 12:25:00 89863 265.100 5.0000 0.0000 0.0000 265.100 5.0000 0.0000 0.0000 264.500 5.0000 0.0000 0.0000 16.060 76.610 11.954           16.280 15.950 77.880 75.280 18.251 13.982 4.269
DSCMET_421 2017-09-29 12:20:00 89862 265.100 5.0000 0.0000 0.0000 265.000 5.0000 0.0000 0.0000 264.200 5.0000 0.0000 0.0000 16.010 74.280 11.438           16.200 15.890 76.240 72.870 18.193 13.514 4.679
DSCMET_421 2017-09-29 12:15:00 89861 265.100 5.0000 0.0000 0.0000 265.100 5.0000 0.0000 0.0000 264.200 5.0000 0.0000 0.0000 16.240 74.110 11.626           16.340 16.190 76.320 71.430 18.462 13.682 4.780
DSCMET_421 2017-09-29 12:10:00 89860 265.400 5.0000 0.0000 0.0000 265.300 5.0000 0.0000 0.0000 264.300 5.0000 0.0000 0.0000 16.310 76.530 12.180           16.400 16.200 79.150 71.860 18.544 14.192 4.352
DSCMET_421 2017-09-29 12:05:00 89859 265.800 5.0000 0.0000 0.0000 265.400 5.0000 0.0000 0.0000 265.700 5.0000 0.0000 0.0000 16.310 77.310 12.334           16.450 16.020 80.100 74.590 18.544 14.337 4.208
DSCMET_421 2017-09-29 12:00:00 89858 267.000 5.0000 0.0000 0.0000 265.400 5.0000 0.0000 0.0000 269.000 5.0000 0.0000 0.0000 16.070 79.090 12.448           16.240 15.960 80.600 76.880 18.263 14.444 3.819
DSCMET_421 2017-09-29 11:55:00 89857 268.700 5.0000 0.0000 0.0000 265.700 5.0000 0.0000 0.0000 271.600 5.0000 0.0000 0.0000 16.100 79.880 12.628           16.310 15.960 83.200 77.210 18.298 14.616 3.681
DSCMET_421 2017-09-29 11:50:00 89856 271.100 5.0000 0.0000 0.0000 266.400 5.0000 0.0000 0.0000 273.400 4.2500 0.7500 0.0000 16.050 79.860 12.576           16.290 15.830 83.000 76.880 18.239 14.566 3.673
DSCMET_421 2017-09-29 11:45:00 89855 275.500 1.0000 4.0000 0.0000 267.900 5.0000 0.0000 0.0000 275.900 0.0000 5.0000 0.0000 16.210 77.480 12.271           16.390 15.960 79.900 75.950 18.426 14.277 4.150
DSCMET_421 2017-09-29 11:40:00 89854 281.700 0.0000 4.0000 1.0000 269.800 5.0000 0.0000 0.0000 278.900 0.0000 5.0000 0.0000 16.510 77.480 12.561           16.830 16.190 80.500 74.510 18.782 14.552 4.230
DSCMET_421 2017-09-29 11:35:00 89853 288.800 0.0000 0.0000 5.0000 272.000 5.0000 0.0000 0.0000 282.200 0.0000 5.0000 0.0000 15.970 80.700 12.657           16.130 15.800 83.400 77.780 18.146 14.644 3.502
DSCMET_421 2017-09-29 11:30:00 89852 297.100 0.0000 0.0000 5.0000 277.200 0.5000 4.5000 0.0000 286.000 0.0000 1.2500 3.7500 16.080 82.200 13.046           16.510 15.500 84.700 80.100 18.274 15.021 3.253
DSCMET_421 2017-09-29 11:25:00 89851 304.400 0.0000 0.0000 5.0000 284.400 0.0000 2.0000 3.0000 291.300 0.0000 0.0000 5.0000 15.490 84.300 12.855           15.600 15.350 87.300 81.500 17.597 14.835 2.763
DSCMET_421 2017-09-29 11:20:00 89850 310.900 0.0000 0.0000 5.0000 292.700 0.0000 0.0000 5.0000 294.300 0.0000 0.0000 5.0000 15.710 80.900 12.442           16.000 15.470 85.800 77.890 17.847 14.438 3.409
DSCMET_421 2017-09-29 11:15:00 89849 320.300 0.0000 0.0000 5.0000 306.800 0.0000 0.0000 5.0000 302.500 0.0000 0.0000 5.0000 15.850 86.200 13.549           16.190 14.990 90.200 82.700 18.008 15.523 2.485
DSCMET_421 2017-09-29 11:10:00 89848 329.300 0.0000 0.0000 5.0000 322.300 0.0000 0.0000 5.0000 317.000 0.0000 0.0000 5.0000 14.410 86.900 12.258           14.880 14.250 88.600 84.800 16.415 14.265 2.150
DSCMET_421 2017-09-29 11:05:00 89847 338.300 0.0000 0.0000 5.0000 344.800 0.0000 0.0000 5.0000 330.100 0.0000 0.0000 5.0000 14.230 88.100 12.289           14.310 14.180 91.200 86.300 16.225 14.294 1.931
DSCMET_421 2017-09-29 11:00:00 89846 343.800 0.0000 0.0000 5.0000 362.200 0.0000 0.0000 5.0000 346.400 0.0000 0.0000 5.0000 14.390 92.200 13.141           14.580 14.260 94.700 90.100 16.394 15.115 1.279
DSCMET_421 2017-09-29 10:55:00 89845 347.900 0.0000 0.0000 5.0000 371.700 0.0000 0.0000 5.0000 358.900 0.0000 0.0000 5.0000 14.280 93.900 13.312           14.560 14.100 95.000 92.500 16.277 15.284 0.993
DSCMET_421 2017-09-29 10:50:00 89844 351.000 0.0000 0.0000 5.0000 378.100 0.0000 0.0000 5.0000 371.300 0.0000 0.0000 5.0000 14.070 94.000 13.120           14.200 13.920 95.500 92.000 16.057 15.094 0.963
DSCMET_421 2017-09-29 10:45:00 89843 354.000 0.0000 0.0000 5.0000 382.900 0.0000 0.0000 5.0000 383.500 0.0000 0.0000 5.0000 13.840 94.900 13.037           14.020 13.620 96.100 91.600 15.819 15.013 0.807
DSCMET_421 2017-09-29 10:40:00 89842 357.700 0.0000 0.0000 5.0000 388.400 0.0000 0.0000 5.0000 397.400 0.0000 0.0000 5.0000 13.500 90.500 11.977           13.600 13.420 91.800 89.300 15.473 14.003 1.470
DSCMET_421 2017-09-29 10:35:00 89841 362.000 0.0000 0.0000 5.0000 394.300 0.0000 0.0000 5.0000 415.400 0.0000 0.0000 5.0000 13.450 92.600 12.276           13.520 13.340 95.600 90.800 15.423 14.282 1.141
DSCMET_421 2017-09-29 10:30:00 89840 365.300 0.0000 0.0000 5.0000 398.800 0.0000 0.0000 5.0000 431.600 0.0000 0.0000 5.0000 13.290 94.100 12.362           13.400 13.200 95.600 93.000 15.263 14.362 0.901
DSCMET_421 2017-09-29 10:25:00 89839 367.200 0.0000 0.0000 5.0000 402.400 0.0000 0.0000 5.0000 444.900 0.0000 0.0000 5.0000 13.230 94.300 12.334           13.290 13.090 95.600 91.100 15.203 14.337 0.867
DSCMET_421 2017-09-29 10:20:00 89838 367.700 0.0000 0.0000 5.0000 401.800 0.0000 0.0000 5.0000 453.200 0.0000 0.0000 5.0000 13.010 93.000 11.905           13.120 12.840 95.000 91.000 14.986 13.937 1.049
DSCMET_421 2017-09-29 10:15:00 89837 366.600 0.0000 0.0000 5.0000 395.300 0.0000 0.0000 5.0000 465.400 0.0000 0.0000 5.0000 12.850 95.100 12.085           12.940 12.770 96.200 93.400 14.830 14.103 0.727
DSCMET_421 2017-09-29 10:10:00 89836 363.700 0.0000 0.0000 5.0000 373.700 0.0000 0.0000 5.0000 452.800 0.0000 0.0000 5.0000 12.920 94.800 12.107           13.120 12.770 96.000 91.600 14.898 14.124 0.775
DSCMET_421 2017-09-29 10:05:00 89835 337.500 0.0000 0.0000 5.0000 353.300 0.0000 0.0000 5.0000 430.800 0.0000 0.0000 5.0000 13.100 89.800 11.465           13.160 13.020 91.700 88.900 15.075 13.537 1.538
DSCMET_421 2017-09-29 10:00:00 89834 304.300 0.0000 0.0000 5.0000 307.300 0.0000 0.0000 5.0000 413.000 0.0000 0.0000 5.0000 13.160 89.600 11.490           13.260 13.110 91.200 88.000 15.134 13.560 1.574
DSCMET_421 2017-09-29 09:55:00 89833 286.500 0.0000 2.2500 2.7500 295.800 0.0000 0.0000 5.0000 348.400 0.0000 0.0000 5.0000 13.230 90.300 11.677           13.390 13.120 91.200 89.100 15.203 13.729 1.475
DSCMET_421 2017-09-29 09:50:00 89832 269.000 4.2500 0.7500 0.0000 273.100 3.7500 0.5000 0.7500 274.200 3.5000 0.7500 0.7500 13.470 86.800 11.316           13.560 13.410 88.000 86.400 15.443 13.405 2.038
DSCMET_421 2017-09-29 09:45:00 89831 265.300 5.0000 0.0000 0.0000 266.100 5.0000 0.0000 0.0000 265.900 5.0000 0.0000 0.0000 13.510 86.200 11.251           13.590 13.440 87.200 85.200 15.483 13.347 2.137
DSCMET_421 2017-09-29 09:40:00 89830 265.200 5.0000 0.0000 0.0000 265.900 5.0000 0.0000 0.0000 265.900 5.0000 0.0000 0.0000 13.530 86.000 11.236           13.570 13.490 86.600 85.500 15.504 13.333 2.171
DSCMET_421 2017-09-29 09:35:00 89829 265.200 5.0000 0.0000 0.0000 265.900 5.0000 0.0000 0.0000 265.900 5.0000 0.0000 0.0000 13.540 86.000 11.245           13.570 13.510 86.700 85.100 15.514 13.342 2.172
DSCMET_421 2017-09-29 09:30:00 89828 265.200 5.0000 0.0000 0.0000 265.900 5.0000 0.0000 0.0000 265.900 5.0000 0.0000 0.0000 13.500 86.800 11.346           13.540 13.430 87.800 86.200 15.473 13.431 2.042
DSCMET_421 2017-09-29 09:25:00 89827 265.600 5.0000 0.0000 0.0000 265.900 5.0000 0.0000 0.0000 265.900 5.0000 0.0000 0.0000 13.440 87.000 11.321           13.490 13.360 88.100 86.200 15.413 13.409 2.004
DSCMET_421 2017-09-29 09:20:00 89826 265.600 5.0000 0.0000 0.0000 265.900 5.0000 0.0000 0.0000 265.900 5.0000 0.0000 0.0000 13.330 87.000 11.213           13.380 13.280 88.100 86.000 15.303 13.313 1.989
DSCMET_421 2017-09-29 09:15:00 89825 265.600 5.0000 0.0000 0.0000 265.900 5.0000 0.0000 0.0000 266.000 5.0000 0.0000 0.0000 13.240 87.300 11.177           13.340 13.160 88.300 85.900 15.213 13.281 1.932
DSCMET_421 2017-09-29 09:10:00 89824 265.900 5.0000 0.0000 0.0000 266.100 5.0000 0.0000 0.0000 266.200 5.0000 0.0000 0.0000 13.100 89.200 11.363           13.160 13.030 91.000 87.700 15.075 13.447 1.628
DSCMET_421 2017-09-29 09:05:00 89823 266.200 5.0000 0.0000 0.0000 266.200 5.0000 0.0000 0.0000 266.400 5.0000 0.0000 0.0000 12.890 91.000 11.458           13.050 12.750 91.800 89.800 14.869 13.531 1.338
DSCMET_421 2017-09-29 09:00:00 89822 266.200 5.0000 0.0000 0.0000 266.200 5.0000 0.0000 0.0000 266.600 5.0000 0.0000 0.0000 12.560 92.300 11.345           12.800 12.420 93.700 90.300 14.551 13.430 1.120
DSCMET_421 2017-09-29 08:55:00 89821 266.600 5.0000 0.0000 0.0000 266.200 5.0000 0.0000 0.0000 266.600 5.0000 0.0000 0.0000 12.430 92.000 11.167           12.520 12.270 92.800 91.100 14.427 13.273 1.154
DSCMET_421 2017-09-29 08:50:00 89820 266.800 5.0000 0.0000 0.0000 266.200 5.0000 0.0000 0.0000 266.600 5.0000 0.0000 0.0000 12.150 93.800 11.182           12.250 12.070 94.200 93.000 14.164 13.286 0.878
DSCMET_421 2017-09-29 08:45:00 89819 267.000 5.0000 0.0000 0.0000 266.200 5.0000 0.0000 0.0000 266.600 5.0000 0.0000 0.0000 12.080 93.800 11.112           12.200 12.000 94.400 93.000 14.099 13.225 0.874
DSCMET_421 2017-09-29 08:40:00 89818 267.200 5.0000 0.0000 0.0000 266.200 5.0000 0.0000 0.0000 266.700 5.0000 0.0000 0.0000 12.130 92.700 10.984           12.190 12.090 93.000 92.600 14.145 13.113 1.033
DSCMET_421 2017-09-29 08:35:00 89817 267.600 5.0000 0.0000 0.0000 266.600 5.0000 0.0000 0.0000 267.500 5.0000 0.0000 0.0000 12.070 92.700 10.925           12.140 11.990 92.800 92.600 14.089 13.061 1.029
DSCMET_421 2017-09-29 08:30:00 89816 267.900 5.0000 0.0000 0.0000 266.900 5.0000 0.0000 0.0000 269.300 5.0000 0.0000 0.0000 11.980 93.100 10.901           12.060 11.920 93.400 92.600 14.006 13.040 0.966
DSCMET_421 2017-09-29 08:25:00 89815 268.200 5.0000 0.0000 0.0000 267.100 5.0000 0.0000 0.0000 271.600 5.0000 0.0000 0.0000 11.830 93.500 10.816           11.920 11.770 93.900 93.300 13.868 12.967 0.901
DSCMET_421 2017-09-29 08:20:00 89814 268.500 5.0000 0.0000 0.0000 267.300 5.0000 0.0000 0.0000 275.500 1.0000 4.0000 0.0000 11.680 94.600 10.843           11.810 11.520 95.300 94.100 13.731 12.990 0.741
DSCMET_421 2017-09-29 08:15:00 89813 268.800 5.0000 0.0000 0.0000 267.600 5.0000 0.0000 0.0000 280.000 0.0000 5.0000 0.0000 11.550 94.700 10.730           11.620 11.470 95.200 94.100 13.614 12.892 0.722
DSCMET_421 2017-09-29 08:10:00 89812 268.900 5.0000 0.0000 0.0000 267.600 5.0000 0.0000 0.0000 284.900 0.0000 1.7500 3.2500 11.510 94.400 10.642           11.610 11.430 94.600 94.100 13.578 12.817 0.760
DSCMET_421 2017-09-29 08:05:00 89811 269.000 5.0000 0.0000 0.0000 267.900 5.0000 0.0000 0.0000 290.000 0.0000 0.0000 5.0000 11.430 95.000 10.658           11.610 11.180 95.700 94.300 13.506 12.831 0.675
DSCMET_421 2017-09-29 08:00:00 89810 268.300 5.0000 0.0000 0.0000 267.600 5.0000 0.0000 0.0000 293.100 0.0000 0.0000 5.0000 11.200 95.200 10.461           11.230 11.140 95.700 94.300 13.302 12.663 0.638
DSCMET_421 2017-09-29 07:55:00 89809 266.200 5.0000 0.0000 0.0000 266.300 5.0000 0.0000 0.0000 296.600 0.0000 0.0000 5.0000 11.190 94.200 10.293           11.280 11.100 95.000 93.800 13.293 12.522 0.771
DSCMET_421 2017-09-29 07:50:00 89808 265.800 5.0000 0.0000 0.0000 266.300 5.0000 0.0000 0.0000 301.100 0.0000 0.0000 5.0000 11.100 94.900 10.314           11.160 11.030 95.300 94.400 13.214 12.540 0.674
DSCMET_421 2017-09-29 07:45:00 89807 265.600 5.0000 0.0000 0.0000 266.300 5.0000 0.0000 0.0000 300.300 0.0000 0.0000 5.0000 11.230 93.600 10.237           11.330 11.060 94.300 92.900 13.328 12.475 0.853
DSCMET_421 2017-09-29 07:40:00 89806 265.600 5.0000 0.0000 0.0000 266.300 5.0000 0.0000 0.0000 302.200 0.0000 0.0000 5.0000 10.990 94.500 10.142           11.080 10.930 94.800 94.200 13.117 12.396 0.721
DSCMET_421 2017-09-29 07:35:00 89805 265.600 5.0000 0.0000 0.0000 266.300 5.0000 0.0000 0.0000 304.800 0.0000 0.0000 5.0000 10.870 94.800 10.070           10.930 10.780 95.200 94.500 13.013 12.336 0.677
DSCMET_421 2017-09-29 07:30:00 89804 265.600 5.0000 0.0000 0.0000 266.300 5.0000 0.0000 0.0000 307.400 0.0000 0.0000 5.0000 10.760 95.300 10.039           10.900 10.660 95.500 95.100 12.918 12.311 0.607
DSCMET_421 2017-09-29 07:25:00 89803 265.600 5.0000 0.0000 0.0000 266.300 5.0000 0.0000 0.0000 310.800 0.0000 0.0000 5.0000 10.730 95.000 9.962           10.800 10.700 95.300 94.800 12.892 12.248 0.645
DSCMET_421 2017-09-29 07:20:00 89802 265.600 5.0000 0.0000 0.0000 266.300 5.0000 0.0000 0.0000 314.800 0.0000 0.0000 5.0000 10.610 95.800 9.968           10.750 10.530 95.900 95.500 12.790 12.253 0.537
DSCMET_421 2017-09-29 07:15:00 89801 265.600 5.0000 0.0000 0.0000 266.300 5.0000 0.0000 0.0000 317.300 0.0000 0.0000 5.0000 10.490 96.000 9.880           10.550 10.460 96.300 95.800 12.688 12.180 0.508
DSCMET_421 2017-09-29 07:10:00 89800 265.600 5.0000 0.0000 0.0000 266.300 5.0000 0.0000 0.0000 318.600 0.0000 0.0000 5.0000 10.370 96.200 9.791           10.430 10.320 96.300 96.000 12.586 12.108 0.478
DSCMET_421 2017-09-29 07:05:00 89799 265.600 5.0000 0.0000 0.0000 266.300 5.0000 0.0000 0.0000 319.900 0.0000 0.0000 5.0000 10.410 96.100 9.816           10.450 10.370 96.700 95.900 12.620 12.128 0.492
DSCMET_421 2017-09-29 07:00:00 89798 265.600 5.0000 0.0000 0.0000 266.300 5.0000 0.0000 0.0000 321.200 0.0000 0.0000 5.0000 10.290 96.900 9.820           10.430 10.150 97.000 96.700 12.519 12.131 0.388
DSCMET_421 2017-09-29 06:55:00 89797 265.500 5.0000 0.0000 0.0000 266.300 5.0000 0.0000 0.0000 321.600 0.0000 0.0000 5.0000 10.220 96.600 9.704           10.300 10.150 96.700 96.600 12.461 12.037 0.424
DSCMET_421 2017-09-29 06:50:00 89796 265.600 5.0000 0.0000 0.0000 266.300 5.0000 0.0000 0.0000 322.000 0.0000 0.0000 5.0000 10.340 96.900 9.870           10.400 10.250 97.000 96.700 12.561 12.172 0.389
DSCMET_421 2017-09-29 06:45:00 89795 265.600 5.0000 0.0000 0.0000 266.300 5.0000 0.0000 0.0000 322.200 0.0000 0.0000 5.0000 10.410 96.600 9.893           10.510 10.300 96.800 96.500 12.620 12.191 0.429
DSCMET_421 2017-09-29 06:40:00 89794 265.600 5.0000 0.0000 0.0000 266.300 5.0000 0.0000 0.0000 322.400 0.0000 0.0000 5.0000 10.470 96.300 9.906           10.560 10.380 96.700 95.800 12.671 12.202 0.469
DSCMET_421 2017-09-29 06:35:00 89793 265.600 5.0000 0.0000 0.0000 266.300 5.0000 0.0000 0.0000 322.600 0.0000 0.0000 5.0000 10.310 96.700 9.809           10.460 10.200 96.800 96.400 12.536 12.122 0.414
DSCMET_421 2017-09-29 06:30:00 89792 265.400 5.0000 0.0000 0.0000 266.300 5.0000 0.0000 0.0000 322.900 0.0000 0.0000 5.0000 10.310 96.100 9.716           10.430 10.200 96.400 96.000 12.536 12.047 0.489
DSCMET_421 2017-09-29 06:25:00 89791 265.600 5.0000 0.0000 0.0000 266.300 5.0000 0.0000 0.0000 323.200 0.0000 0.0000 5.0000 10.350 96.300 9.787           10.430 10.250 96.500 96.100 12.570 12.105 0.465
DSCMET_421 2017-09-29 06:20:00 89790 265.500 5.0000 0.0000 0.0000 266.300 5.0000 0.0000 0.0000 323.500 0.0000 0.0000 5.0000 10.340 96.300 9.777           10.400 10.300 96.400 96.200 12.561 12.097 0.465
DSCMET_421 2017-09-29 06:15:00 89789 265.500 5.0000 0.0000 0.0000 266.300 5.0000 0.0000 0.0000 323.700 0.0000 0.0000 5.0000 10.280 96.700 9.779           10.370 10.180 96.900 96.500 12.511 12.098 0.413
DSCMET_421 2017-09-29 06:10:00 89788 265.300 5.0000 0.0000 0.0000 266.300 5.0000 0.0000 0.0000 323.700 0.0000 0.0000 5.0000 10.260 96.900 9.790           10.320 10.220 97.000 96.700 12.494 12.107 0.387
DSCMET_421 2017-09-29 06:05:00 89787 265.300 5.0000 0.0000 0.0000 266.300 5.0000 0.0000 0.0000 323.700 0.0000 0.0000 5.0000 10.260 97.100 9.821           10.330 10.170 97.200 96.800 12.494 12.132 0.362
DSCMET_421 2017-09-29 06:00:00 89786 265.300 5.0000 0.0000 0.0000 266.300 5.0000 0.0000 0.0000 323.400 0.0000 0.0000 5.0000 10.240 96.900 9.770           10.300 10.180 96.900 96.800 12.478 12.091 0.387
DSCMET_421 2017-09-29 05:55:00 89785 265.300 5.0000 0.0000 0.0000 266.300 5.0000 0.0000 0.0000 323.200 0.0000 0.0000 5.0000 10.220 96.900 9.750           10.280 10.130 97.000 96.600 12.461 12.075 0.386
DSCMET_421 2017-09-29 05:50:00 89784 265.300 5.0000 0.0000 0.0000 266.300 5.0000 0.0000 0.0000 323.000 0.0000 0.0000 5.0000 10.170 96.900 9.700           10.320 10.030 97.200 96.600 12.419 12.034 0.385
DSCMET_421 2017-09-29 05:45:00 89783 265.300 5.0000 0.0000 0.0000 266.300 5.0000 0.0000 0.0000 323.000 0.0000 0.0000 5.0000 10.150 96.800 9.665           10.270 10.050 97.100 96.600 12.403 12.006 0.397
DSCMET_421 2017-09-29 05:40:00 89782 265.300 5.0000 0.0000 0.0000 266.300 5.0000 0.0000 0.0000 322.800 0.0000 0.0000 5.0000 10.130 97.100 9.691           10.200 10.070 97.300 97.000 12.386 12.027 0.359
DSCMET_421 2017-09-29 05:35:00 89781 265.300 5.0000 0.0000 0.0000 266.300 5.0000 0.0000 0.0000 322.500 0.0000 0.0000 5.0000 10.020 97.000 9.566           10.080 9.980 97.200 96.900 12.295 11.926 0.369
DSCMET_421 2017-09-29 05:30:00 89780 265.300 5.0000 0.0000 0.0000 266.300 5.0000 0.0000 0.0000 321.900 0.0000 0.0000 5.0000 10.100 97.100 9.661           10.120 10.070 97.200 97.000 12.361 12.003 0.358
DSCMET_421 2017-09-29 05:25:00 89779 265.300 5.0000 0.0000 0.0000 266.300 5.0000 0.0000 0.0000 321.000 0.0000 0.0000 5.0000 10.130 96.800 9.645           10.180 10.070 97.000 96.600 12.386 11.990 0.396
DSCMET_421 2017-09-29 05:20:00 89778 265.300 5.0000 0.0000 0.0000 266.300 5.0000 0.0000 0.0000 319.900 0.0000 0.0000 5.0000 10.180 96.600 9.664           10.250 10.130 96.700 96.500 12.428 12.005 0.423
DSCMET_421 2017-09-29 05:15:00 89777 265.300 5.0000 0.0000 0.0000 266.300 5.0000 0.0000 0.0000 319.200 0.0000 0.0000 5.0000 10.200 96.600 9.684           10.230 10.130 96.700 96.500 12.444 12.021 0.423
DSCMET_421 2017-09-29 05:10:00 89776 265.300 5.0000 0.0000 0.0000 266.300 5.0000 0.0000 0.0000 319.100 0.0000 0.0000 5.0000 10.170 96.700 9.670           10.280 10.120 96.800 96.400 12.419 12.009 0.410
DSCMET_421 2017-09-29 05:05:00 89775 265.300 5.0000 0.0000 0.0000 266.300 5.0000 0.0000 0.0000 318.900 0.0000 0.0000 5.0000 10.250 96.200 9.672           10.330 10.170 96.400 96.100 12.486 12.011 0.474
DSCMET_421 2017-09-29 05:00:00 89774 265.300 5.0000 0.0000 0.0000 266.300 5.0000 0.0000 0.0000 318.600 0.0000 0.0000 5.0000 10.260 96.400 9.713           10.300 10.220 96.500 96.300 12.494 12.044 0.450
DSCMET_421 2017-09-29 04:55:00 89773 265.300 5.0000 0.0000 0.0000 266.300 5.0000 0.0000 0.0000 318.000 0.0000 0.0000 5.0000 10.220 96.900 9.750           10.330 10.080 97.100 96.600 12.461 12.075 0.386
DSCMET_421 2017-09-29 04:50:00 89772 265.300 5.0000 0.0000 0.0000 266.300 5.0000 0.0000 0.0000 317.100 0.0000 0.0000 5.0000 10.120 96.500 9.589           10.220 10.020 96.800 96.300 12.378 11.945 0.433
DSCMET_421 2017-09-29 04:45:00 89771 265.300 5.0000 0.0000 0.0000 266.300 5.0000 0.0000 0.0000 316.500 0.0000 0.0000 5.0000 10.270 96.700 9.769           10.400 10.180 97.100 96.400 12.503 12.090 0.413
DSCMET_421 2017-09-29 04:40:00 89770 265.300 5.0000 0.0000 0.0000 266.600 5.0000 0.0000 0.0000 315.600 0.0000 0.0000 5.0000 10.250 97.300 9.841           10.450 10.050 97.400 97.100 12.486 12.149 0.337
DSCMET_421 2017-09-29 04:35:00 89769 265.300 5.0000 0.0000 0.0000 266.600 5.0000 0.0000 0.0000 314.100 0.0000 0.0000 5.0000 10.040 97.300 9.632           10.100 9.970 97.400 97.200 12.312 11.979 0.332
DSCMET_421 2017-09-29 04:30:00 89768 265.300 5.0000 0.0000 0.0000 266.600 5.0000 0.0000 0.0000 312.900 0.0000 0.0000 5.0000 10.020 97.200 9.597           10.100 9.950 97.300 97.000 12.295 11.951 0.344
DSCMET_421 2017-09-29 04:25:00 89767 265.300 5.0000 0.0000 0.0000 266.600 5.0000 0.0000 0.0000 311.600 0.0000 0.0000 5.0000 10.090 96.900 9.621           10.130 10.050 97.000 96.800 12.353 11.970 0.383
DSCMET_421 2017-09-29 04:20:00 89766 265.300 5.0000 0.0000 0.0000 266.600 5.0000 0.0000 0.0000 309.900 0.0000 0.0000 5.0000 10.150 97.000 9.696           10.200 10.070 97.200 96.700 12.403 12.031 0.372
DSCMET_421 2017-09-29 04:15:00 89765 265.300 5.0000 0.0000 0.0000 266.600 5.0000 0.0000 0.0000 307.500 0.0000 0.0000 5.0000 10.160 97.400 9.767           10.230 10.100 97.600 97.100 12.411 12.088 0.323
DSCMET_421 2017-09-29 04:10:00 89764 265.300 5.0000 0.0000 0.0000 266.600 5.0000 0.0000 0.0000 305.200 0.0000 0.0000 5.0000 10.150 97.200 9.726           10.250 10.050 97.300 97.000 12.403 12.055 0.347
DSCMET_421 2017-09-29 04:05:00 89763 265.300 5.0000 0.0000 0.0000 266.600 5.0000 0.0000 0.0000 303.100 0.0000 0.0000 5.0000 10.150 96.800 9.665           10.220 10.080 97.000 96.700 12.403 12.006 0.397
DSCMET_421 2017-09-29 04:00:00 89762 265.300 5.0000 0.0000 0.0000 266.600 5.0000 0.0000 0.0000 301.200 0.0000 0.0000 5.0000 10.240 96.600 9.724           10.280 10.180 96.700 96.200 12.478 12.053 0.424
DSCMET_421 2017-09-29 03:55:00 89761 265.300 5.0000 0.0000 0.0000 266.300 5.0000 0.0000 0.0000 299.600 0.0000 0.0000 5.0000 10.350 96.000 9.741           10.410 10.220 96.100 95.700 12.570 12.067 0.503
DSCMET_421 2017-09-29 03:50:00 89760 265.300 5.0000 0.0000 0.0000 266.300 5.0000 0.0000 0.0000 298.300 0.0000 0.0000 5.0000 10.440 96.500 9.908           10.530 10.350 96.800 95.900 12.645 12.203 0.443
DSCMET_421 2017-09-29 03:45:00 89759 265.300 5.0000 0.0000 0.0000 266.300 5.0000 0.0000 0.0000 296.900 0.0000 0.0000 5.0000 10.330 96.800 9.844           10.430 10.220 96.900 96.700 12.553 12.151 0.402
DSCMET_421 2017-09-29 03:40:00 89758 265.300 5.0000 0.0000 0.0000 266.300 5.0000 0.0000 0.0000 295.500 0.0000 0.0000 5.0000 10.230 96.400 9.683           10.350 10.170 96.700 96.200 12.469 12.020 0.449
DSCMET_421 2017-09-29 03:35:00 89757 265.300 5.0000 0.0000 0.0000 266.300 5.0000 0.0000 0.0000 294.500 0.0000 0.0000 5.0000 10.420 96.200 9.841           10.480 10.330 96.300 96.100 12.629 12.149 0.480
DSCMET_421 2017-09-29 03:30:00 89756 265.300 5.0000 0.0000 0.0000 266.300 5.0000 0.0000 0.0000 293.300 0.0000 0.0000 5.0000 10.440 96.500 9.908           10.510 10.350 96.700 96.100 12.645 12.203 0.443
DSCMET_421 2017-09-29 03:25:00 89755 265.300 5.0000 0.0000 0.0000 266.100 5.0000 0.0000 0.0000 292.200 0.0000 0.0000 5.0000 10.350 96.300 9.787           10.410 10.250 96.600 95.900 12.570 12.105 0.465
DSCMET_421 2017-09-29 03:20:00 89754 265.300 5.0000 0.0000 0.0000 266.000 5.0000 0.0000 0.0000 291.600 0.0000 0.0000 5.0000 10.440 96.000 9.830           10.500 10.360 96.300 95.700 12.645 12.140 0.506
DSCMET_421 2017-09-29 03:15:00 89753 265.300 5.0000 0.0000 0.0000 265.900 5.0000 0.0000 0.0000 291.100 0.0000 0.0000 5.0000 10.540 95.800 9.899           10.580 10.500 95.900 95.600 12.730 12.195 0.535
DSCMET_421 2017-09-29 03:10:00 89752 265.300 5.0000 0.0000 0.0000 265.900 5.0000 0.0000 0.0000 290.700 0.0000 0.0000 5.0000 10.510 95.800 9.869           10.550 10.460 95.900 95.400 12.705 12.171 0.534
DSCMET_421 2017-09-29 03:05:00 89751 265.300 5.0000 0.0000 0.0000 265.900 5.0000 0.0000 0.0000 290.500 0.0000 0.0000 5.0000 10.600 95.300 9.880           10.680 10.530 95.400 95.200 12.781 12.180 0.601
DSCMET_421 2017-09-29 03:00:00 89750 265.300 5.0000 0.0000 0.0000 265.900 5.0000 0.0000 0.0000 290.200 0.0000 0.0000 5.0000 10.640 95.200 9.904           10.710 10.580 95.400 95.000 12.815 12.200 0.615
DSCMET_421 2017-09-29 02:55:00 89749 265.300 5.0000 0.0000 0.0000 265.900 5.0000 0.0000 0.0000 290.200 0.0000 0.0000 5.0000 10.600 95.300 9.880           10.660 10.550 95.600 94.800 12.781 12.180 0.601
DSCMET_421 2017-09-29 02:50:00 89748 265.300 5.0000 0.0000 0.0000 265.900 5.0000 0.0000 0.0000 290.200 0.0000 0.0000 5.0000 10.710 95.000 9.942           10.760 10.630 95.100 94.700 12.875 12.231 0.644
DSCMET_421 2017-09-29 02:45:00 89747 265.300 5.0000 0.0000 0.0000 265.900 5.0000 0.0000 0.0000 290.200 0.0000 0.0000 5.0000 10.680 95.300 9.960           10.750 10.580 95.600 95.000 12.850 12.246 0.604
DSCMET_421 2017-09-29 02:40:00 89746 265.300 5.0000 0.0000 0.0000 265.900 5.0000 0.0000 0.0000 290.200 0.0000 0.0000 5.0000 10.660 95.400 9.955           10.710 10.600 95.600 95.200 12.832 12.242 0.590
DSCMET_421 2017-09-29 02:35:00 89745 265.300 5.0000 0.0000 0.0000 265.900 5.0000 0.0000 0.0000 290.300 0.0000 0.0000 5.0000 10.600 96.000 9.989           10.660 10.530 96.400 95.600 12.781 12.270 0.511
DSCMET_421 2017-09-29 02:30:00 89744 265.300 5.0000 0.0000 0.0000 265.900 5.0000 0.0000 0.0000 289.900 0.0000 0.0000 5.0000 10.480 96.300 9.916           10.560 10.430 96.500 96.100 12.679 12.210 0.469
DSCMET_421 2017-09-29 02:25:00 89743 265.300 5.0000 0.0000 0.0000 265.900 5.0000 0.0000 0.0000 289.300 0.0000 0.0000 5.0000 10.480 96.100 9.885           10.550 10.430 96.200 95.900 12.679 12.185 0.494
DSCMET_421 2017-09-29 02:20:00 89742 265.300 5.0000 0.0000 0.0000 265.900 5.0000 0.0000 0.0000 288.700 0.0000 0.0000 5.0000 10.520 95.900 9.894           10.560 10.480 96.000 95.800 12.713 12.192 0.521
DSCMET_421 2017-09-29 02:15:00 89741 265.300 5.0000 0.0000 0.0000 265.900 5.0000 0.0000 0.0000 288.000 0.0000 0.0000 5.0000 10.590 96.200 10.010           10.660 10.550 96.500 95.900 12.773 12.287 0.485
DSCMET_421 2017-09-29 02:10:00 89740 265.300 5.0000 0.0000 0.0000 265.900 5.0000 0.0000 0.0000 287.300 0.0000 0.0000 5.0000 10.650 95.300 9.930           10.790 10.500 95.900 94.900 12.824 12.221 0.603
DSCMET_421 2017-09-29 02:05:00 89739 265.300 5.0000 0.0000 0.0000 265.900 5.0000 0.0000 0.0000 286.900 0.0000 0.0000 5.0000 10.710 95.500 10.021           10.740 10.660 95.600 95.400 12.875 12.296 0.579
DSCMET_421 2017-09-29 02:00:00 89738 265.300 5.0000 0.0000 0.0000 265.900 5.0000 0.0000 0.0000 286.300 0.0000 0.0000 5.0000 10.710 95.700 10.052           10.780 10.640 96.300 95.500 12.875 12.322 0.554
DSCMET_421 2017-09-29 01:55:00 89737 265.300 5.0000 0.0000 0.0000 265.900 5.0000 0.0000 0.0000 285.300 0.0000 0.0000 5.0000 10.560 96.000 9.950           10.660 10.490 96.400 95.700 12.747 12.237 0.510
DSCMET_421 2017-09-29 01:50:00 89736 265.300 5.0000 0.0000 0.0000 265.900 5.0000 0.0000 0.0000 284.200 0.0000 1.5000 3.5000 10.700 95.500 10.011           10.780 10.590 95.800 95.300 12.867 12.288 0.579
DSCMET_421 2017-09-29 01:45:00 89735 265.300 5.0000 0.0000 0.0000 266.000 5.0000 0.0000 0.0000 282.900 0.0000 5.0000 0.0000 10.670 95.900 10.043           10.710 10.590 96.000 95.800 12.841 12.314 0.526
DSCMET_421 2017-09-29 01:40:00 89734 265.300 5.0000 0.0000 0.0000 265.900 5.0000 0.0000 0.0000 281.400 0.0000 5.0000 0.0000 10.680 95.900 10.053           10.710 10.640 96.000 95.600 12.850 12.323 0.527
DSCMET_421 2017-09-29 01:35:00 89733 265.300 5.0000 0.0000 0.0000 266.000 5.0000 0.0000 0.0000 279.900 0.0000 5.0000 0.0000 10.720 95.700 10.062           10.760 10.660 95.800 95.600 12.884 12.330 0.554
DSCMET_421 2017-09-29 01:30:00 89732 265.300 5.0000 0.0000 0.0000 265.900 5.0000 0.0000 0.0000 278.400 0.0000 5.0000 0.0000 10.820 95.200 10.083           10.910 10.710 95.500 95.100 12.970 12.347 0.623
DSCMET_421 2017-09-29 01:25:00 89731 265.300 5.0000 0.0000 0.0000 265.900 5.0000 0.0000 0.0000 277.300 0.0000 5.0000 0.0000 10.850 95.300 10.129           10.890 10.810 95.500 95.100 12.996 12.385 0.611
DSCMET_421 2017-09-29 01:20:00 89730 265.200 5.0000 0.0000 0.0000 265.900 5.0000 0.0000 0.0000 276.200 0.0000 5.0000 0.0000 10.970 94.900 10.185           11.010 10.910 95.000 94.800 13.100 12.432 0.668
DSCMET_421 2017-09-29 01:15:00 89729 265.200 5.0000 0.0000 0.0000 265.900 5.0000 0.0000 0.0000 275.400 0.0000 5.0000 0.0000 11.080 94.500 10.231           11.160 10.970 94.800 94.300 13.196 12.470 0.726
DSCMET_421 2017-09-29 01:10:00 89728 265.200 5.0000 0.0000 0.0000 265.900 5.0000 0.0000 0.0000 274.600 0.0000 5.0000 0.0000 11.070 94.600 10.237           11.140 10.990 94.800 94.300 13.187 12.475 0.712
DSCMET_421 2017-09-29 01:05:00 89727 265.200 5.0000 0.0000 0.0000 265.900 5.0000 0.0000 0.0000 273.800 5.0000 0.0000 0.0000 11.120 94.600 10.287           11.220 11.040 94.800 94.200 13.231 12.517 0.714
DSCMET_421 2017-09-29 01:00:00 89726 265.200 5.0000 0.0000 0.0000 265.900 5.0000 0.0000 0.0000 273.100 5.0000 0.0000 0.0000 11.050 94.900 10.265           11.090 10.970 95.100 94.700 13.170 12.498 0.672
DSCMET_421 2017-09-29 00:55:00 89725 265.200 5.0000 0.0000 0.0000 265.900 5.0000 0.0000 0.0000 272.000 5.0000 0.0000 0.0000 11.100 94.700 10.283           11.220 11.010 94.900 94.600 13.214 12.513 0.700
DSCMET_421 2017-09-29 00:50:00 89724 265.200 5.0000 0.0000 0.0000 265.900 5.0000 0.0000 0.0000 271.300 5.0000 0.0000 0.0000 11.270 94.200 10.372           11.320 11.170 94.800 93.800 13.364 12.588 0.775
DSCMET_421 2017-09-29 00:45:00 89723 265.200 5.0000 0.0000 0.0000 265.900 5.0000 0.0000 0.0000 271.100 5.0000 0.0000 0.0000 11.230 94.700 10.412           11.320 11.170 95.200 94.100 13.328 12.622 0.706
DSCMET_421 2017-09-29 00:40:00 89722 265.200 5.0000 0.0000 0.0000 265.900 5.0000 0.0000 0.0000 270.700 5.0000 0.0000 0.0000 11.090 95.300 10.367           11.170 11.020 95.700 95.000 13.205 12.584 0.621
DSCMET_421 2017-09-29 00:35:00 89721 265.200 5.0000 0.0000 0.0000 265.900 5.0000 0.0000 0.0000 270.100 5.0000 0.0000 0.0000 11.100 95.100 10.346           11.170 11.060 95.400 94.700 13.214 12.566 0.647
DSCMET_421 2017-09-29 00:30:00 89720 265.200 5.0000 0.0000 0.0000 265.900 5.0000 0.0000 0.0000 269.800 5.0000 0.0000 0.0000 11.120 95.500 10.429           11.220 11.020 95.900 94.900 13.231 12.636 0.595
DSCMET_421 2017-09-29 00:25:00 89719 265.200 5.0000 0.0000 0.0000 265.900 5.0000 0.0000 0.0000 269.100 5.0000 0.0000 0.0000 11.170 94.900 10.384           11.290 11.040 95.500 94.600 13.275 12.598 0.677
DSCMET_421 2017-09-29 00:20:00 89718 265.200 5.0000 0.0000 0.0000 265.900 5.0000 0.0000 0.0000 268.800 5.0000 0.0000 0.0000 11.290 94.700 10.472           11.340 11.250 94.900 94.500 13.381 12.672 0.709
DSCMET_421 2017-09-29 00:15:00 89717 265.200 5.0000 0.0000 0.0000 265.900 5.0000 0.0000 0.0000 268.500 5.0000 0.0000 0.0000 11.430 93.900 10.483           11.590 11.240 94.400 93.300 13.506 12.682 0.824
DSCMET_421 2017-09-29 00:10:00 89716 265.200 5.0000 0.0000 0.0000 265.900 5.0000 0.0000 0.0000 268.300 5.0000 0.0000 0.0000 11.700 92.900 10.591           11.870 11.570 93.900 91.800 13.749 12.773 0.976
DSCMET_421 2017-09-29 00:05:00 89715 265.200 5.0000 0.0000 0.0000 265.900 5.0000 0.0000 0.0000 268.800 5.0000 0.0000 0.0000 11.460 94.500 10.609           11.670 11.290 95.200 93.500 13.533 12.789 0.744
DSCMET_421 2017-09-29 00:00:00 89714 265.200 5.0000 0.0000 0.0000 265.900 5.0000 0.0000 0.0000 268.100 5.0000 0.0000 0.0000 11.410 94.500 10.559           11.520 11.320 94.900 94.200 13.488 12.746 0.742
DSCMET_421 2017-09-28 23:55:00 89713 265.200 5.0000 0.0000 0.0000 265.900 5.0000 0.0000 0.0000 267.800 5.0000 0.0000 0.0000 11.610 94.000 10.678           11.700 11.570 94.200 93.700 13.668 12.848 0.820
DSCMET_421 2017-09-28 23:50:00 89712 265.200 5.0000 0.0000 0.0000 265.900 5.0000 0.0000 0.0000 267.300 5.0000 0.0000 0.0000 11.830 93.400 10.800           12.110 11.680 94.000 91.900 13.868 12.953 0.915
DSCMET_421 2017-09-28 23:45:00 89711 265.200 5.0000 0.0000 0.0000 265.900 5.0000 0.0000 0.0000 267.100 5.0000 0.0000 0.0000 11.950 92.600 10.790           12.210 11.710 93.600 91.300 13.978 12.944 1.034
DSCMET_421 2017-09-28 23:40:00 89710 265.100 5.0000 0.0000 0.0000 265.900 5.0000 0.0000 0.0000 266.900 5.0000 0.0000 0.0000 11.780 93.500 10.767           11.860 11.700 94.300 93.000 13.822 12.924 0.898
DSCMET_421 2017-09-28 23:35:00 89709 265.000 5.0000 0.0000 0.0000 265.900 5.0000 0.0000 0.0000 266.700 5.0000 0.0000 0.0000 11.690 93.500 10.677           11.930 11.600 94.300 92.400 13.740 12.847 0.893
DSCMET_421 2017-09-28 23:30:00 89708 265.100 5.0000 0.0000 0.0000 265.900 5.0000 0.0000 0.0000 267.100 5.0000 0.0000 0.0000 12.050 92.000 10.791           12.150 11.930 92.800 91.500 14.071 12.945 1.126
DSCMET_421 2017-09-28 23:25:00 89707 265.000 5.0000 0.0000 0.0000 265.900 5.0000 0.0000 0.0000 268.000 5.0000 0.0000 0.0000 11.670 94.700 10.849           11.930 11.530 95.400 93.200 13.722 12.995 0.727
DSCMET_421 2017-09-28 23:20:00 89706 264.900 5.0000 0.0000 0.0000 265.900 5.0000 0.0000 0.0000 267.500 5.0000 0.0000 0.0000 11.630 94.700 10.809           11.730 11.530 95.100 94.400 13.686 12.961 0.725
DSCMET_421 2017-09-28 23:15:00 89705 264.900 5.0000 0.0000 0.0000 265.900 5.0000 0.0000 0.0000 267.100 5.0000 0.0000 0.0000 11.630 95.200 10.888           11.730 11.550 95.700 94.400 13.686 13.029 0.657
DSCMET_421 2017-09-28 23:10:00 89704 264.900 5.0000 0.0000 0.0000 265.700 5.0000 0.0000 0.0000 266.700 5.0000 0.0000 0.0000 11.790 94.000 10.857           11.910 11.680 94.600 93.700 13.831 13.002 0.830
DSCMET_421 2017-09-28 23:05:00 89703 264.900 5.0000 0.0000 0.0000 265.500 5.0000 0.0000 0.0000 266.500 5.0000 0.0000 0.0000 11.880 94.000 10.946           11.980 11.830 94.200 93.800 13.914 13.079 0.835
DSCMET_421 2017-09-28 23:00:00 89702 264.900 5.0000 0.0000 0.0000 265.500 5.0000 0.0000 0.0000 266.200 5.0000 0.0000 0.0000 12.010 94.000 11.075           12.080 11.930 94.100 93.800 14.034 13.192 0.842
DSCMET_421 2017-09-28 22:55:00 89701 264.900 5.0000 0.0000 0.0000 265.500 5.0000 0.0000 0.0000 266.100 5.0000 0.0000 0.0000 12.210 92.900 11.096           12.390 12.090 93.700 91.900 14.220 13.210 1.010
DSCMET_421 2017-09-28 22:50:00 89700 264.900 5.0000 0.0000 0.0000 265.500 5.0000 0.0000 0.0000 266.200 5.0000 0.0000 0.0000 12.430 91.900 11.151           12.540 12.320 92.200 91.600 14.427 13.259 1.169
DSCMET_421 2017-09-28 22:45:00 89699 264.900 5.0000 0.0000 0.0000 265.500 5.0000 0.0000 0.0000 266.200 5.0000 0.0000 0.0000 12.520 91.800 11.224           12.570 12.410 92.700 91.400 14.513 13.323 1.190
DSCMET_421 2017-09-28 22:40:00 89698 264.900 5.0000 0.0000 0.0000 265.500 5.0000 0.0000 0.0000 266.000 5.0000 0.0000 0.0000 12.450 92.300 11.236           12.540 12.390 92.800 91.600 14.446 13.334 1.112
DSCMET_421 2017-09-28 22:35:00 89697 264.900 5.0000 0.0000 0.0000 265.500 5.0000 0.0000 0.0000 265.500 5.0000 0.0000 0.0000 12.550 91.400 11.188           12.720 12.410 91.800 91.000 14.541 13.291 1.251
DSCMET_421 2017-09-28 22:30:00 89696 264.900 5.0000 0.0000 0.0000 265.500 5.0000 0.0000 0.0000 265.600 5.0000 0.0000 0.0000 12.580 92.300 11.365           12.710 12.490 93.400 91.500 14.570 13.448 1.122
DSCMET_421 2017-09-28 22:25:00 89695 264.900 5.0000 0.0000 0.0000 265.500 5.0000 0.0000 0.0000 265.500 5.0000 0.0000 0.0000 12.730 90.600 11.233           12.820 12.640 91.300 90.000 14.714 13.331 1.383
DSCMET_421 2017-09-28 22:20:00 89694 264.800 5.0000 0.0000 0.0000 265.500 5.0000 0.0000 0.0000 265.500 5.0000 0.0000 0.0000 12.610 92.100 11.362           12.700 12.370 93.600 91.200 14.599 13.445 1.153
DSCMET_421 2017-09-28 22:15:00 89693 264.800 5.0000 0.0000 0.0000 265.500 5.0000 0.0000 0.0000 265.400 5.0000 0.0000 0.0000 12.450 92.800 11.318           12.720 12.320 93.500 91.500 14.446 13.406 1.040
DSCMET_421 2017-09-28 22:10:00 89692 264.800 5.0000 0.0000 0.0000 265.500 5.0000 0.0000 0.0000 265.400 5.0000 0.0000 0.0000 12.990 90.200 11.423           13.380 12.670 92.700 88.000 14.967 13.500 1.467
DSCMET_421 2017-09-28 22:05:00 89691 264.800 5.0000 0.0000 0.0000 265.500 5.0000 0.0000 0.0000 265.500 5.0000 0.0000 0.0000 12.650 92.400 11.451           12.700 12.550 92.900 92.000 14.637 13.525 1.112
DSCMET_421 2017-09-28 22:00:00 89690 264.800 5.0000 0.0000 0.0000 265.500 5.0000 0.0000 0.0000 265.400 5.0000 0.0000 0.0000 12.890 91.500 11.540           13.030 12.740 92.000 91.100 14.869 13.605 1.264
DSCMET_421 2017-09-28 21:55:00 89689 264.800 5.0000 0.0000 0.0000 265.500 5.0000 0.0000 0.0000 265.500 5.0000 0.0000 0.0000 13.030 91.000 11.596           13.100 12.950 91.200 90.900 15.006 13.655 1.351
DSCMET_421 2017-09-28 21:50:00 89688 264.800 5.0000 0.0000 0.0000 265.500 5.0000 0.0000 0.0000 265.200 5.0000 0.0000 0.0000 13.100 90.800 11.632           13.180 13.030 91.100 90.500 15.075 13.688 1.387
DSCMET_421 2017-09-28 21:45:00 89687 264.800 5.0000 0.0000 0.0000 265.500 5.0000 0.0000 0.0000 265.200 5.0000 0.0000 0.0000 13.220 90.700 11.734           13.300 13.120 91.000 90.400 15.193 13.780 1.413
DSCMET_421 2017-09-28 21:40:00 89686 264.800 5.0000 0.0000 0.0000 265.500 5.0000 0.0000 0.0000 265.200 5.0000 0.0000 0.0000 13.330 90.200 11.759           13.410 13.230 90.600 89.800 15.303 13.803 1.500
DSCMET_421 2017-09-28 21:35:00 89685 264.800 5.0000 0.0000 0.0000 265.300 5.0000 0.0000 0.0000 265.200 5.0000 0.0000 0.0000 13.350 90.100 11.762           13.380 13.300 90.300 89.900 15.323 13.806 1.517
DSCMET_421 2017-09-28 21:30:00 89684 264.800 5.0000 0.0000 0.0000 265.100 5.0000 0.0000 0.0000 265.100 5.0000 0.0000 0.0000 13.430 89.900 11.807           13.480 13.360 90.100 89.600 15.403 13.847 1.556
DSCMET_421 2017-09-28 21:25:00 89683 264.800 5.0000 0.0000 0.0000 265.100 5.0000 0.0000 0.0000 265.100 5.0000 0.0000 0.0000 13.410 90.100 11.821           13.440 13.360 90.400 89.900 15.383 13.860 1.523
DSCMET_421 2017-09-28 21:20:00 89682 264.800 5.0000 0.0000 0.0000 265.100 5.0000 0.0000 0.0000 265.100 5.0000 0.0000 0.0000 13.440 90.300 11.884           13.480 13.390 90.500 90.200 15.413 13.918 1.495
DSCMET_421 2017-09-28 21:15:00 89681 264.800 5.0000 0.0000 0.0000 265.100 5.0000 0.0000 0.0000 265.100 5.0000 0.0000 0.0000 13.570 90.000 11.962           13.690 13.460 90.400 89.500 15.544 13.990 1.554
DSCMET_421 2017-09-28 21:10:00 89680 264.800 5.0000 0.0000 0.0000 265.100 5.0000 0.0000 0.0000 265.100 5.0000 0.0000 0.0000 13.680 89.700 12.020           13.740 13.630 89.900 89.400 15.656 14.043 1.613
DSCMET_421 2017-09-28 21:05:00 89679 264.800 5.0000 0.0000 0.0000 265.100 5.0000 0.0000 0.0000 265.100 5.0000 0.0000 0.0000 13.730 89.200 11.985           13.790 13.590 89.600 88.900 15.707 14.010 1.696
DSCMET_421 2017-09-28 21:00:00 89678 264.800 5.0000 0.0000 0.0000 265.100 5.0000 0.0000 0.0000 264.800 5.0000 0.0000 0.0000 13.730 89.400 12.019           13.790 13.670 89.600 89.100 15.707 14.042 1.665
DSCMET_421 2017-09-28 20:55:00 89677 264.800 5.0000 0.0000 0.0000 265.100 5.0000 0.0000 0.0000 264.900 5.0000 0.0000 0.0000 13.960 89.100 12.195           14.120 13.790 90.000 88.700 15.943 14.205 1.738
DSCMET_421 2017-09-28 20:50:00 89676 264.800 5.0000 0.0000 0.0000 265.100 5.0000 0.0000 0.0000 265.000 5.0000 0.0000 0.0000 13.890 90.100 12.295           13.950 13.820 90.700 89.300 15.871 14.300 1.571
DSCMET_421 2017-09-28 20:45:00 89675 264.700 5.0000 0.0000 0.0000 265.100 5.0000 0.0000 0.0000 264.800 5.0000 0.0000 0.0000 13.970 89.200 12.221           14.170 13.850 89.600 88.200 15.954 14.231 1.723
DSCMET_421 2017-09-28 20:40:00 89674 264.600 5.0000 0.0000 0.0000 265.100 5.0000 0.0000 0.0000 264.800 5.0000 0.0000 0.0000 14.270 88.100 12.328           14.320 14.220 88.400 87.900 16.267 14.331 1.936
DSCMET_421 2017-09-28 20:35:00 89673 264.500 5.0000 0.0000 0.0000 265.100 5.0000 0.0000 0.0000 264.800 5.0000 0.0000 0.0000 14.370 87.900 12.392           14.420 14.330 88.200 87.600 16.372 14.391 1.981
DSCMET_421 2017-09-28 20:30:00 89672 264.700 5.0000 0.0000 0.0000 265.100 5.0000 0.0000 0.0000 264.800 5.0000 0.0000 0.0000 14.380 87.700 12.367           14.430 14.280 88.400 87.300 16.383 14.368 2.015
DSCMET_421 2017-09-28 20:25:00 89671 264.500 5.0000 0.0000 0.0000 265.100 5.0000 0.0000 0.0000 264.800 5.0000 0.0000 0.0000 14.370 88.500 12.496           14.430 14.300 89.900 88.100 16.372 14.490 1.883
DSCMET_421 2017-09-28 20:20:00 89670 264.400 5.0000 0.0000 0.0000 265.100 5.0000 0.0000 0.0000 264.800 5.0000 0.0000 0.0000 14.490 88.100 12.545           14.560 14.410 88.300 87.900 16.500 14.537 1.964
DSCMET_421 2017-09-28 20:15:00 89669 264.400 5.0000 0.0000 0.0000 265.100 5.0000 0.0000 0.0000 264.800 5.0000 0.0000 0.0000 14.460 88.400 12.567           14.510 14.380 88.600 88.100 16.468 14.558 1.910
DSCMET_421 2017-09-28 20:10:00 89668 264.400 5.0000 0.0000 0.0000 265.100 5.0000 0.0000 0.0000 264.700 5.0000 0.0000 0.0000 14.510 88.600 12.651           14.580 14.450 89.000 88.300 16.521 14.638 1.883
DSCMET_421 2017-09-28 20:05:00 89667 264.400 5.0000 0.0000 0.0000 265.100 5.0000 0.0000 0.0000 264.400 5.0000 0.0000 0.0000 14.750 87.700 12.732           14.930 14.610 88.500 86.900 16.779 14.716 2.064
DSCMET_421 2017-09-28 20:00:00 89666 264.400 5.0000 0.0000 0.0000 265.100 5.0000 0.0000 0.0000 264.400 5.0000 0.0000 0.0000 15.070 86.200 12.783           15.160 14.940 86.800 85.800 17.129 14.765 2.364
DSCMET_421 2017-09-28 19:55:00 89665 264.400 5.0000 0.0000 0.0000 265.100 5.0000 0.0000 0.0000 264.400 5.0000 0.0000 0.0000 15.230 85.600 12.833           15.370 15.120 85.900 85.100 17.306 14.814 2.492
DSCMET_421 2017-09-28 19:50:00 89664 264.400 5.0000 0.0000 0.0000 265.000 5.0000 0.0000 0.0000 264.400 5.0000 0.0000 0.0000 15.500 84.100 12.828           15.570 15.350 85.000 83.600 17.609 14.809 2.800
DSCMET_421 2017-09-28 19:45:00 89663 264.400 5.0000 0.0000 0.0000 264.700 5.0000 0.0000 0.0000 264.400 5.0000 0.0000 0.0000 15.280 85.800 12.918           15.370 15.220 86.200 84.900 17.362 14.896 2.465
DSCMET_421 2017-09-28 19:40:00 89662 264.400 5.0000 0.0000 0.0000 264.800 5.0000 0.0000 0.0000 264.400 5.0000 0.0000 0.0000 15.400 85.800 13.036           15.470 15.320 86.000 85.400 17.496 15.012 2.484
DSCMET_421 2017-09-28 19:35:00 89661 264.400 5.0000 0.0000 0.0000 264.800 5.0000 0.0000 0.0000 264.400 5.0000 0.0000 0.0000 15.490 85.600 13.088           15.570 15.430 86.000 85.400 17.597 15.063 2.534
DSCMET_421 2017-09-28 19:30:00 89660 264.400 5.0000 0.0000 0.0000 264.700 5.0000 0.0000 0.0000 264.100 5.0000 0.0000 0.0000 15.510 84.900 12.982           15.550 15.470 85.400 84.300 17.620 14.959 2.661
DSCMET_421 2017-09-28 19:25:00 89659 264.400 5.0000 0.0000 0.0000 264.700 5.0000 0.0000 0.0000 264.100 5.0000 0.0000 0.0000 15.710 84.300 13.070           15.950 15.500 84.800 83.200 17.847 15.045 2.802
DSCMET_421 2017-09-28 19:20:00 89658 264.400 5.0000 0.0000 0.0000 264.700 5.0000 0.0000 0.0000 264.100 5.0000 0.0000 0.0000 16.070 82.700 13.129           16.160 15.960 83.500 82.200 18.263 15.103 3.159
DSCMET_421 2017-09-28 19:15:00 89657 264.400 5.0000 0.0000 0.0000 264.700 5.0000 0.0000 0.0000 264.000 5.0000 0.0000 0.0000 16.080 83.200 13.231           16.140 15.980 83.700 82.800 18.274 15.204 3.070
DSCMET_421 2017-09-28 19:10:00 89656 264.400 5.0000 0.0000 0.0000 264.700 5.0000 0.0000 0.0000 264.000 5.0000 0.0000 0.0000 15.850 85.300 13.388           15.980 15.730 86.200 83.900 18.008 15.361 2.647
DSCMET_421 2017-09-28 19:05:00 89655 264.400 5.0000 0.0000 0.0000 264.700 5.0000 0.0000 0.0000 264.000 5.0000 0.0000 0.0000 16.170 83.700 13.411           16.310 15.960 84.900 82.600 18.379 15.384 2.996
DSCMET_421 2017-09-28 19:00:00 89654 264.400 5.0000 0.0000 0.0000 264.700 5.0000 0.0000 0.0000 264.000 5.0000 0.0000 0.0000 16.180 84.000 13.475           16.270 16.040 84.700 83.200 18.391 15.449 2.943
DSCMET_421 2017-09-28 18:55:00 89653 264.400 5.0000 0.0000 0.0000 264.700 5.0000 0.0000 0.0000 263.800 5.0000 0.0000 0.0000 16.290 83.800 13.547           16.350 16.200 84.400 83.300 18.521 15.520 3.000
DSCMET_421 2017-09-28 18:50:00 89652 264.200 5.0000 0.0000 0.0000 264.700 5.0000 0.0000 0.0000 263.700 5.0000 0.0000 0.0000 16.500 82.800 13.567           16.630 16.390 83.700 82.100 18.770 15.541 3.228
DSCMET_421 2017-09-28 18:45:00 89651 264.100 5.0000 0.0000 0.0000 264.700 5.0000 0.0000 0.0000 263.700 5.0000 0.0000 0.0000 16.740 81.700 13.596           16.900 16.580 82.400 80.700 19.058 15.571 3.488
DSCMET_421 2017-09-28 18:40:00 89650 264.000 5.0000 0.0000 0.0000 264.400 5.0000 0.0000 0.0000 263.600 5.0000 0.0000 0.0000 16.790 82.000 13.701           16.930 16.660 82.900 81.200 19.119 15.678 3.441
DSCMET_421 2017-09-28 18:35:00 89649 264.000 5.0000 0.0000 0.0000 264.300 5.0000 0.0000 0.0000 263.600 5.0000 0.0000 0.0000 17.170 79.930 13.679           17.330 17.000 81.300 78.870 19.585 15.654 3.931
DSCMET_421 2017-09-28 18:30:00 89648 264.000 5.0000 0.0000 0.0000 264.300 5.0000 0.0000 0.0000 263.400 5.0000 0.0000 0.0000 17.080 80.900 13.777           17.240 16.960 81.900 79.280 19.474 15.754 3.719
DSCMET_421 2017-09-28 18:25:00 89647 264.000 5.0000 0.0000 0.0000 264.300 5.0000 0.0000 0.0000 263.300 5.0000 0.0000 0.0000 17.400 79.030 13.728           17.520 17.220 80.200 78.530 19.872 15.705 4.167
DSCMET_421 2017-09-28 18:20:00 89646 264.000 5.0000 0.0000 0.0000 264.300 5.0000 0.0000 0.0000 263.300 5.0000 0.0000 0.0000 17.620 78.470 13.832           17.950 17.360 80.200 75.910 20.150 15.812 4.338
DSCMET_421 2017-09-28 18:15:00 89645 264.000 5.0000 0.0000 0.0000 264.300 5.0000 0.0000 0.0000 263.000 5.0000 0.0000 0.0000 17.840 76.410 13.636           17.980 17.670 78.180 74.930 20.431 15.611 4.820
DSCMET_421 2017-09-28 18:10:00 89644 263.600 5.0000 0.0000 0.0000 264.000 5.0000 0.0000 0.0000 263.000 5.0000 0.0000 0.0000 17.900 76.380 13.688           18.240 17.670 78.410 74.010 20.508 15.664 4.844
DSCMET_421 2017-09-28 18:05:00 89643 263.600 5.0000 0.0000 0.0000 263.900 5.0000 0.0000 0.0000 263.000 5.0000 0.0000 0.0000 17.990 76.070 13.713           18.280 17.510 80.400 74.030 20.625 15.689 4.936
DSCMET_421 2017-09-28 18:00:00 89642 263.600 5.0000 0.0000 0.0000 263.900 5.0000 0.0000 0.0000 262.800 5.0000 0.0000 0.0000 18.090 76.650 13.927           18.290 17.630 80.400 74.750 20.755 15.909 4.846
DSCMET_421 2017-09-28 17:55:00 89641 263.600 5.0000 0.0000 0.0000 263.900 5.0000 0.0000 0.0000 262.600 5.0000 0.0000 0.0000 18.470 73.910 13.733           18.820 18.120 76.050 71.670 21.256 15.710 5.546
DSCMET_421 2017-09-28 17:50:00 89640 263.600 5.0000 0.0000 0.0000 263.800 5.0000 0.0000 0.0000 262.600 5.0000 0.0000 0.0000 18.590 73.200 13.700           18.800 18.400 74.250 71.220 21.416 15.676 5.739
DSCMET_421 2017-09-28 17:45:00 89639 263.600 5.0000 0.0000 0.0000 263.600 5.0000 0.0000 0.0000 262.500 5.0000 0.0000 0.0000 18.960 72.220 13.849           19.080 18.900 73.600 70.730 21.917 15.828 6.088
DSCMET_421 2017-09-28 17:40:00 89638 263.300 5.0000 0.0000 0.0000 263.600 5.0000 0.0000 0.0000 262.200 5.0000 0.0000 0.0000 18.990 72.780 13.996           19.310 18.800 74.310 70.900 21.958 15.981 5.977
DSCMET_421 2017-09-28 17:35:00 89637 263.400 5.0000 0.0000 0.0000 263.600 5.0000 0.0000 0.0000 262.200 5.0000 0.0000 0.0000 19.560 68.870 13.693           19.760 19.310 72.120 66.980 22.751 15.669 7.082
DSCMET_421 2017-09-28 17:30:00 89636 263.200 5.0000 0.0000 0.0000 263.500 5.0000 0.0000 0.0000 262.200 5.0000 0.0000 0.0000 19.710 68.220 13.690           19.950 19.270 71.840 66.000 22.964 15.666 7.298
DSCMET_421 2017-09-28 17:25:00 89635 263.200 5.0000 0.0000 0.0000 263.400 5.0000 0.0000 0.0000 261.900 5.0000 0.0000 0.0000 19.840 68.210 13.812           20.200 19.650 69.450 66.380 23.150 15.790 7.359
DSCMET_421 2017-09-28 17:20:00 89634 263.200 5.0000 0.0000 0.0000 263.200 5.0000 0.0000 0.0000 261.900 5.0000 0.0000 0.0000 20.260 65.290 13.539           20.360 20.150 66.280 64.340 23.759 15.512 8.247
DSCMET_421 2017-09-28 17:15:00 89633 263.200 5.0000 0.0000 0.0000 263.200 5.0000 0.0000 0.0000 261.700 5.0000 0.0000 0.0000 20.680 62.470 13.259           20.860 20.380 65.600 59.810 24.383 15.232 9.151
DSCMET_421 2017-09-28 17:10:00 89632 263.200 5.0000 0.0000 0.0000 263.100 5.0000 0.0000 0.0000 261.500 5.0000 0.0000 0.0000 21.070 59.290 12.826           21.250 20.760 62.980 57.140 24.974 14.807 10.167
DSCMET_421 2017-09-28 17:05:00 89631 263.200 5.0000 0.0000 0.0000 262.800 5.0000 0.0000 0.0000 261.500 5.0000 0.0000 0.0000 21.340 58.430 12.856           21.480 21.180 60.420 56.680 25.391 14.836 10.555
DSCMET_421 2017-09-28 17:00:00 89630 263.200 5.0000 0.0000 0.0000 262.800 5.0000 0.0000 0.0000 261.500 5.0000 0.0000 0.0000 21.580 60.000 13.487           21.980 21.320 61.500 58.330 25.767 15.460 10.307
DSCMET_421 2017-09-28 16:55:00 89629 263.200 5.0000 0.0000 0.0000 262.900 5.0000 0.0000 0.0000 261.300 5.0000 0.0000 0.0000 21.970 59.040 13.605           22.240 21.680 61.550 57.540 26.388 15.579 10.808
DSCMET_421 2017-09-28 16:50:00 89628 263.200 5.0000 0.0000 0.0000 262.800 5.0000 0.0000 0.0000 261.200 5.0000 0.0000 0.0000 22.560 57.310 13.699           23.000 22.240 59.140 52.610 27.352 15.675 11.677
DSCMET_421 2017-09-28 16:45:00 89627 263.100 5.0000 0.0000 0.0000 262.800 5.0000 0.0000 0.0000 261.200 5.0000 0.0000 0.0000 23.070 50.680 12.292           23.270 22.890 53.130 47.290 28.210 14.297 13.913
DSCMET_421 2017-09-28 16:40:00 89626 262.800 5.0000 0.0000 0.0000 262.800 5.0000 0.0000 0.0000 261.100 5.0000 0.0000 0.0000 23.360 49.390 12.166           23.760 23.070 52.610 46.360 28.708 14.179 14.529
DSCMET_421 2017-09-28 16:35:00 89625 262.800 5.0000 0.0000 0.0000 262.800 5.0000 0.0000 0.0000 261.100 5.0000 0.0000 0.0000 23.720 48.410 12.191           23.860 23.580 51.700 45.640 29.338 14.202 15.135
DSCMET_421 2017-09-28 16:30:00 89624 262.800 5.0000 0.0000 0.0000 262.500 5.0000 0.0000 0.0000 261.100 5.0000 0.0000 0.0000 24.270 47.920 12.539           24.690 23.910 50.970 43.660 30.322 14.530 15.792
DSCMET_421 2017-09-28 16:25:00 89623 262.800 5.0000 0.0000 0.0000 262.500 5.0000 0.0000 0.0000 261.000 5.0000 0.0000 0.0000 24.460 44.860 11.710           24.770 24.140 47.860 42.270 30.669 13.758 16.911
DSCMET_421 2017-09-28 16:20:00 89622 262.800 5.0000 0.0000 0.0000 262.700 5.0000 0.0000 0.0000 261.000 5.0000 0.0000 0.0000 24.820 46.210 12.486           24.960 24.510 48.680 43.750 31.336 14.480 16.855
DSCMET_421 2017-09-28 16:15:00 89621 262.800 5.0000 0.0000 0.0000 262.800 5.0000 0.0000 0.0000 260.800 5.0000 0.0000 0.0000 24.830 45.000 12.092           25.050 24.520 48.300 40.930 31.354 14.109 17.245
DSCMET_421 2017-09-28 16:10:00 89620 262.800 5.0000 0.0000 0.0000 262.800 5.0000 0.0000 0.0000 260.900 5.0000 0.0000 0.0000 25.280 43.000 11.809           25.670 24.950 47.700 37.530 32.206 13.848 18.357
DSCMET_421 2017-09-28 16:05:00 89619 262.800 5.0000 0.0000 0.0000 262.800 5.0000 0.0000 0.0000 260.800 5.0000 0.0000 0.0000 25.320 43.420 11.992           25.720 25.040 47.770 39.090 32.282 14.017 18.265
DSCMET_421 2017-09-28 16:00:00 89618 262.800 5.0000 0.0000 0.0000 262.800 5.0000 0.0000 0.0000 260.800 5.0000 0.0000 0.0000 25.540 43.650 12.270           25.910 25.220 47.850 39.300 32.707 14.277 18.430
DSCMET_421 2017-09-28 15:55:00 89617 262.800 5.0000 0.0000 0.0000 262.700 5.0000 0.0000 0.0000 260.800 5.0000 0.0000 0.0000 25.840 42.780 12.235           25.960 25.660 47.940 36.470 33.293 14.243 19.050
DSCMET_421 2017-09-28 15:50:00 89616 262.800 5.0000 0.0000 0.0000 262.500 5.0000 0.0000 0.0000 260.800 5.0000 0.0000 0.0000 26.060 40.510 11.605           26.480 25.550 46.440 33.470 33.729 13.664 20.066
DSCMET_421 2017-09-28 15:45:00 89615 262.800 5.0000 0.0000 0.0000 262.500 5.0000 0.0000 0.0000 260.800 5.0000 0.0000 0.0000 26.230 37.440 10.570           26.580 25.910 44.690 34.070 34.070 12.756 21.314
DSCMET_421 2017-09-28 15:40:00 89614 262.800 5.0000 0.0000 0.0000 262.500 5.0000 0.0000 0.0000 260.800 5.0000 0.0000 0.0000 26.370 36.960 10.500           26.820 26.090 45.500 33.070 34.352 12.697 21.656
DSCMET_421 2017-09-28 15:35:00 89613 262.800 5.0000 0.0000 0.0000 262.500 5.0000 0.0000 0.0000 260.700 5.0000 0.0000 0.0000 26.350 38.910 11.255           26.690 26.060 44.420 34.020 34.312 13.351 20.961
DSCMET_421 2017-09-28 15:30:00 89612 262.800 5.0000 0.0000 0.0000 262.400 5.0000 0.0000 0.0000 260.800 5.0000 0.0000 0.0000 26.730 34.400 9.745           26.820 26.590 37.530 32.960 35.088 12.070 23.018
DSCMET_421 2017-09-28 15:25:00 89611 262.800 5.0000 0.0000 0.0000 262.400 5.0000 0.0000 0.0000 260.800 5.0000 0.0000 0.0000 26.530 36.770 10.564           26.870 26.270 40.680 33.300 34.677 12.751 21.927
DSCMET_421 2017-09-28 15:20:00 89610 262.800 5.0000 0.0000 0.0000 262.400 5.0000 0.0000 0.0000 260.800 5.0000 0.0000 0.0000 26.830 35.190 10.171           26.970 26.700 39.450 32.950 35.295 12.420 22.874
DSCMET_421 2017-09-28 15:15:00 89609 262.800 5.0000 0.0000 0.0000 262.400 5.0000 0.0000 0.0000 260.800 5.0000 0.0000 0.0000 26.770 36.020 10.467           26.990 26.570 38.640 33.040 35.170 12.668 22.502
DSCMET_421 2017-09-28 15:10:00 89608 262.800 5.0000 0.0000 0.0000 262.400 5.0000 0.0000 0.0000 260.800 5.0000 0.0000 0.0000 27.010 35.650 10.524           27.220 26.890 39.450 34.100 35.670 12.716 22.953
DSCMET_421 2017-09-28 15:05:00 89607 262.800 5.0000 0.0000 0.0000 262.500 5.0000 0.0000 0.0000 260.800 5.0000 0.0000 0.0000 27.090 35.980 10.732           27.250 26.920 41.020 32.970 35.837 12.894 22.943
DSCMET_421 2017-09-28 15:00:00 89606 262.800 5.0000 0.0000 0.0000 262.700 5.0000 0.0000 0.0000 261.100 5.0000 0.0000 0.0000 27.010 36.240 10.770           27.250 26.600 42.180 31.790 35.670 12.927 22.743
DSCMET_421 2017-09-28 14:55:00 89605 262.700 5.0000 0.0000 0.0000 262.700 5.0000 0.0000 0.0000 261.100 5.0000 0.0000 0.0000 27.120 38.140 11.637           27.300 26.750 42.170 34.930 35.900 13.692 22.208
DSCMET_421 2017-09-28 14:50:00 89604 262.700 5.0000 0.0000 0.0000 262.700 5.0000 0.0000 0.0000 261.100 5.0000 0.0000 0.0000 26.970 39.190 11.915           27.280 26.590 43.760 35.850 35.586 13.946 21.640
DSCMET_421 2017-09-28 14:45:00 89603 262.500 5.0000 0.0000 0.0000 262.400 5.0000 0.0000 0.0000 261.100 5.0000 0.0000 0.0000 27.000 40.650 12.497           27.150 26.800 43.520 37.710 35.649 14.491 21.157
DSCMET_421 2017-09-28 14:40:00 89602 262.400 5.0000 0.0000 0.0000 262.400 5.0000 0.0000 0.0000 261.100 5.0000 0.0000 0.0000 27.040 40.570 12.503           27.200 26.770 43.260 38.450 35.732 14.497 21.236
DSCMET_421 2017-09-28 14:35:00 89601 262.400 5.0000 0.0000 0.0000 262.400 5.0000 0.0000 0.0000 261.200 5.0000 0.0000 0.0000 26.910 42.010 12.919           27.200 26.750 44.270 37.830 35.461 14.897 20.564
DSCMET_421 2017-09-28 14:30:00 89600 262.400 5.0000 0.0000 0.0000 262.400 5.0000 0.0000 0.0000 261.100 5.0000 0.0000 0.0000 27.220 41.460 12.995           27.700 26.850 42.960 37.940 36.111 14.972 21.140
DSCMET_421 2017-09-28 14:25:00 89599 262.400 5.0000 0.0000 0.0000 262.400 5.0000 0.0000 0.0000 261.200 5.0000 0.0000 0.0000 27.780 38.940 12.538           27.910 27.500 44.350 34.030 37.313 14.530 22.783
DSCMET_421 2017-09-28 14:20:00 89598 262.400 5.0000 0.0000 0.0000 262.400 5.0000 0.0000 0.0000 261.300 5.0000 0.0000 0.0000 27.950 37.860 12.261           28.110 27.630 41.770 34.600 37.684 14.267 23.417
DSCMET_421 2017-09-28 14:15:00 89597 262.400 5.0000 0.0000 0.0000 262.100 5.0000 0.0000 0.0000 261.400 5.0000 0.0000 0.0000 27.430 41.910 13.349           27.830 27.170 45.120 40.460 36.558 15.321 21.236
DSCMET_421 2017-09-28 14:10:00 89596 262.500 5.0000 0.0000 0.0000 262.100 5.0000 0.0000 0.0000 261.500 5.0000 0.0000 0.0000 27.930 36.920 11.861           28.130 27.490 42.910 32.890 37.640 13.897 23.744
DSCMET_421 2017-09-28 14:05:00 89595 262.400 5.0000 0.0000 0.0000 261.700 5.0000 0.0000 0.0000 261.500 5.0000 0.0000 0.0000 27.510 40.450 12.878           27.750 27.250 42.420 37.930 36.729 14.857 21.872
DSCMET_421 2017-09-28 14:00:00 89594 262.100 5.0000 0.0000 0.0000 261.400 5.0000 0.0000 0.0000 261.300 5.0000 0.0000 0.0000 27.680 39.900 12.820           28.020 27.370 43.760 35.490 37.096 14.801 22.294
DSCMET_421 2017-09-28 13:55:00 89593 262.100 5.0000 0.0000 0.0000 261.200 5.0000 0.0000 0.0000 261.100 5.0000 0.0000 0.0000 27.790 38.690 12.449           28.040 27.500 41.660 33.320 37.334 14.445 22.890
DSCMET_421 2017-09-28 13:50:00 89592 262.000 5.0000 0.0000 0.0000 261.700 5.0000 0.0000 0.0000 261.100 5.0000 0.0000 0.0000 28.110 37.850 12.398           28.300 27.850 42.630 33.440 38.037 14.397 23.640
DSCMET_421 2017-09-28 13:45:00 89591 262.200 5.0000 0.0000 0.0000 261.900 5.0000 0.0000 0.0000 261.400 5.0000 0.0000 0.0000 27.640 38.690 12.315           28.090 27.290 43.500 35.050 37.009 14.319 22.690
DSCMET_421 2017-09-28 13:40:00 89590 261.900 5.0000 0.0000 0.0000 262.400 5.0000 0.0000 0.0000 261.400 5.0000 0.0000 0.0000 27.340 41.380 13.073           27.580 27.090 44.510 36.170 36.366 15.048 21.318
DSCMET_421 2017-09-28 13:35:00 89589 261.400 5.0000 0.0000 0.0000 262.500 5.0000 0.0000 0.0000 261.200 5.0000 0.0000 0.0000 27.030 40.090 12.313           27.630 26.810 44.460 34.820 35.711 14.317 21.395
DSCMET_421 2017-09-28 13:30:00 89588 261.700 5.0000 0.0000 0.0000 262.500 5.0000 0.0000 0.0000 261.300 5.0000 0.0000 0.0000 27.380 41.220 13.050           27.810 26.960 45.540 37.140 36.451 15.025 21.426
DSCMET_421 2017-09-28 13:25:00 89587 261.900 5.0000 0.0000 0.0000 262.700 5.0000 0.0000 0.0000 261.200 5.0000 0.0000 0.0000 27.070 40.780 12.609           27.240 26.860 45.240 35.180 35.795 14.597 21.198
DSCMET_421 2017-09-28 13:20:00 89586 262.500 5.0000 0.0000 0.0000 262.800 5.0000 0.0000 0.0000 261.100 5.0000 0.0000 0.0000 26.800 40.990 12.445           27.200 26.520 45.820 35.510 35.232 14.442 20.791
DSCMET_421 2017-09-28 13:15:00 89585 262.500 5.0000 0.0000 0.0000 262.700 5.0000 0.0000 0.0000 261.100 5.0000 0.0000 0.0000 27.160 39.270 12.115           27.360 26.580 42.140 35.530 35.985 14.131 21.853
DSCMET_421 2017-09-28 13:10:00 89584 262.300 5.0000 0.0000 0.0000 262.500 5.0000 0.0000 0.0000 261.100 5.0000 0.0000 0.0000 27.240 37.390 11.443           27.400 27.030 44.630 34.250 36.154 13.518 22.636
DSCMET_421 2017-09-28 13:05:00 89583 262.200 5.0000 0.0000 0.0000 262.300 5.0000 0.0000 0.0000 261.100 5.0000 0.0000 0.0000 27.240 37.670 11.556           27.350 27.110 42.510 34.070 36.154 13.619 22.535
DSCMET_421 2017-09-28 13:00:00 89582 262.200 5.0000 0.0000 0.0000 262.800 5.0000 0.0000 0.0000 261.100 5.0000 0.0000 0.0000 27.040 38.480 11.700           27.150 26.900 44.110 36.210 35.732 13.750 21.983
DSCMET_421 2017-09-28 12:55:00 89581 261.900 5.0000 0.0000 0.0000 262.800 5.0000 0.0000 0.0000 261.000 5.0000 0.0000 0.0000 26.680 39.220 11.669           26.780 26.540 42.360 36.890 34.985 13.721 21.264
DSCMET_421 2017-09-28 12:50:00 89580 261.900 5.0000 0.0000 0.0000 262.800 5.0000 0.0000 0.0000 260.900 5.0000 0.0000 0.0000 26.570 38.290 11.209           26.690 26.500 43.780 35.840 34.759 13.309 21.450
DSCMET_421 2017-09-28 12:45:00 89579 261.700 5.0000 0.0000 0.0000 262.800 5.0000 0.0000 0.0000 260.800 5.0000 0.0000 0.0000 26.480 38.940 11.383           26.570 26.370 41.560 36.210 34.575 13.464 21.112
DSCMET_421 2017-09-28 12:40:00 89578 262.100 5.0000 0.0000 0.0000 262.900 5.0000 0.0000 0.0000 260.800 5.0000 0.0000 0.0000 26.260 39.250 11.307           26.520 26.090 42.310 35.630 34.130 13.396 20.734
DSCMET_421 2017-09-28 12:35:00 89577 262.900 5.0000 0.0000 0.0000 263.000 5.0000 0.0000 0.0000 260.800 5.0000 0.0000 0.0000 26.100 40.770 11.738           26.210 25.960 44.630 37.620 33.809 13.784 20.025
DSCMET_421 2017-09-28 12:30:00 89576 262.800 5.0000 0.0000 0.0000 263.200 5.0000 0.0000 0.0000 260.700 5.0000 0.0000 0.0000 25.980 40.990 11.712           26.190 25.660 46.400 36.490 33.570 13.760 19.810
DSCMET_421 2017-09-28 12:25:00 89575 263.200 5.0000 0.0000 0.0000 263.200 5.0000 0.0000 0.0000 260.600 5.0000 0.0000 0.0000 25.960 38.890 10.901           26.060 25.790 44.840 33.490 33.531 13.040 20.491
DSCMET_421 2017-09-28 12:20:00 89574 263.200 5.0000 0.0000 0.0000 263.200 5.0000 0.0000 0.0000 260.800 5.0000 0.0000 0.0000 25.680 36.960 9.891           25.810 25.480 41.730 34.950 32.979 12.189 20.790
DSCMET_421 2017-09-28 12:15:00 89573 263.200 5.0000 0.0000 0.0000 263.200 5.0000 0.0000 0.0000 261.100 5.0000 0.0000 0.0000 25.870 38.890 10.821           26.000 25.760 42.010 35.960 33.353 12.971 20.382
DSCMET_421 2017-09-28 12:10:00 89572 263.200 5.0000 0.0000 0.0000 263.200 5.0000 0.0000 0.0000 261.300 5.0000 0.0000 0.0000 25.510 39.960 10.908           25.850 25.370 47.100 35.650 32.649 13.046 19.602
DSCMET_421 2017-09-28 12:05:00 89571 263.300 5.0000 0.0000 0.0000 263.300 5.0000 0.0000 0.0000 261.000 5.0000 0.0000 0.0000 25.140 43.520 11.865           25.450 24.770 46.970 39.830 31.939 13.900 18.039
DSCMET_421 2017-09-28 12:00:00 89570 263.500 5.0000 0.0000 0.0000 263.500 5.0000 0.0000 0.0000 260.700 5.0000 0.0000 0.0000 25.120 43.560 11.860           25.400 24.910 45.810 38.830 31.901 13.896 18.005
DSCMET_421 2017-09-28 11:55:00 89569 263.600 5.0000 0.0000 0.0000 263.500 5.0000 0.0000 0.0000 260.600 5.0000 0.0000 0.0000 24.790 45.010 12.059           24.990 24.460 48.170 39.430 31.280 14.079 17.201
DSCMET_421 2017-09-28 11:50:00 89568 263.700 5.0000 0.0000 0.0000 263.500 5.0000 0.0000 0.0000 260.500 5.0000 0.0000 0.0000 24.480 45.520 11.949           24.690 24.340 47.470 42.860 30.706 13.977 16.729
DSCMET_421 2017-09-28 11:45:00 89567 263.600 5.0000 0.0000 0.0000 263.600 5.0000 0.0000 0.0000 260.300 5.0000 0.0000 0.0000 24.600 42.090 10.875           24.780 24.450 45.070 39.770 30.927 13.017 17.910
DSCMET_421 2017-09-28 11:40:00 89566 263.900 5.0000 0.0000 0.0000 263.900 5.0000 0.0000 0.0000 260.600 5.0000 0.0000 0.0000 24.400 44.460 11.520           24.560 24.230 48.640 42.120 30.559 13.587 16.973
DSCMET_421 2017-09-28 11:35:00 89565 263.900 5.0000 0.0000 0.0000 263.900 5.0000 0.0000 0.0000 260.900 5.0000 0.0000 0.0000 23.760 49.490 12.564           24.250 23.420 51.590 47.130 29.408 14.554 14.854
DSCMET_421 2017-09-28 11:30:00 89564 263.900 5.0000 0.0000 0.0000 263.900 5.0000 0.0000 0.0000 260.400 5.0000 0.0000 0.0000 23.990 44.730 11.240           24.240 23.690 50.660 41.790 29.818 13.337 16.480
DSCMET_421 2017-09-28 11:25:00 89563 263.900 5.0000 0.0000 0.0000 263.900 5.0000 0.0000 0.0000 260.600 5.0000 0.0000 0.0000 23.500 46.220 11.290           23.670 23.330 50.030 44.400 28.952 13.381 15.570
DSCMET_421 2017-09-28 11:20:00 89562 263.900 5.0000 0.0000 0.0000 263.900 5.0000 0.0000 0.0000 260.900 5.0000 0.0000 0.0000 23.130 51.080 12.467           23.390 22.900 52.980 47.840 28.313 14.462 13.851
DSCMET_421 2017-09-28 11:15:00 89561 263.900 5.0000 0.0000 0.0000 263.900 5.0000 0.0000 0.0000 260.600 5.0000 0.0000 0.0000 22.850 49.870 11.846           22.970 22.700 52.920 47.420 27.837 13.882 13.955
DSCMET_421 2017-09-28 11:10:00 89560 264.000 5.0000 0.0000 0.0000 263.900 5.0000 0.0000 0.0000 260.600 5.0000 0.0000 0.0000 22.700 49.120 11.479           22.850 22.590 51.810 45.200 27.585 13.550 14.035
DSCMET_421 2017-09-28 11:05:00 89559 264.000 5.0000 0.0000 0.0000 263.700 5.0000 0.0000 0.0000 260.600 5.0000 0.0000 0.0000 22.300 49.820 11.326           22.610 22.030 52.280 44.750 26.923 13.413 13.510
DSCMET_421 2017-09-28 11:00:00 89558 264.000 5.0000 0.0000 0.0000 263.600 5.0000 0.0000 0.0000 260.600 5.0000 0.0000 0.0000 22.020 50.130 11.163           22.260 21.730 51.880 48.730 26.468 13.269 13.200
DSCMET_421 2017-09-28 10:55:00 89557 264.100 5.0000 0.0000 0.0000 264.000 5.0000 0.0000 0.0000 260.600 5.0000 0.0000 0.0000 21.380 49.770 10.467           21.780 20.830 51.480 48.430 25.454 12.668 12.785
DSCMET_421 2017-09-28 10:50:00 89556 264.300 5.0000 0.0000 0.0000 264.100 5.0000 0.0000 0.0000 260.900 5.0000 0.0000 0.0000 20.920 49.660 10.012           20.980 20.820 50.590 48.470 24.745 12.289 12.457
DSCMET_421 2017-09-28 10:45:00 89555 264.300 5.0000 0.0000 0.0000 264.300 5.0000 0.0000 0.0000 260.700 5.0000 0.0000 0.0000 20.760 51.960 10.542           20.940 20.510 53.720 50.260 24.503 12.732 11.771
DSCMET_421 2017-09-28 10:40:00 89554 264.300 5.0000 0.0000 0.0000 264.300 5.0000 0.0000 0.0000 260.800 5.0000 0.0000 0.0000 20.670 50.050 9.899           20.790 20.490 51.980 49.100 24.368 12.196 12.172
DSCMET_421 2017-09-28 10:35:00 89553 264.300 5.0000 0.0000 0.0000 264.300 5.0000 0.0000 0.0000 261.000 5.0000 0.0000 0.0000 20.290 52.900 10.376           20.710 19.800 54.440 50.210 23.803 12.592 11.211
DSCMET_421 2017-09-28 10:30:00 89552 264.300 5.0000 0.0000 0.0000 264.500 5.0000 0.0000 0.0000 261.100 5.0000 0.0000 0.0000 20.020 53.600 10.323           20.460 19.780 55.880 51.690 23.409 12.547 10.862
DSCMET_421 2017-09-28 10:25:00 89551 264.400 5.0000 0.0000 0.0000 264.700 5.0000 0.0000 0.0000 261.100 5.0000 0.0000 0.0000 19.920 51.780 9.715           20.430 19.520 55.040 49.650 23.265 12.046 11.218
DSCMET_421 2017-09-28 10:20:00 89550 264.600 5.0000 0.0000 0.0000 265.000 5.0000 0.0000 0.0000 261.500 5.0000 0.0000 0.0000 19.800 54.290 10.311           19.970 19.600 57.180 52.780 23.092 12.537 10.556
DSCMET_421 2017-09-28 10:15:00 89549 264.700 5.0000 0.0000 0.0000 265.100 5.0000 0.0000 0.0000 261.700 5.0000 0.0000 0.0000 19.530 58.540 11.191           19.900 19.120 61.210 55.180 22.709 13.294 9.415
DSCMET_421 2017-09-28 10:10:00 89548 264.700 5.0000 0.0000 0.0000 265.300 5.0000 0.0000 0.0000 261.700 5.0000 0.0000 0.0000 19.040 59.300 10.926           19.260 18.910 60.970 57.390 22.026 13.062 8.965
DSCMET_421 2017-09-28 10:05:00 89547 264.700 5.0000 0.0000 0.0000 265.400 5.0000 0.0000 0.0000 261.700 5.0000 0.0000 0.0000 19.050 56.640 10.247           19.400 18.550 61.850 53.490 22.040 12.484 9.557
DSCMET_421 2017-09-28 10:00:00 89546 264.700 5.0000 0.0000 0.0000 265.400 5.0000 0.0000 0.0000 261.900 5.0000 0.0000 0.0000 18.370 59.690 10.396           18.570 18.140 62.070 57.160 21.123 12.608 8.515
DSCMET_421 2017-09-28 09:55:00 89545 265.000 5.0000 0.0000 0.0000 265.400 5.0000 0.0000 0.0000 262.100 5.0000 0.0000 0.0000 18.160 63.460 11.118           18.320 17.830 65.970 60.760 20.846 13.229 7.617
DSCMET_421 2017-09-28 09:50:00 89544 265.100 5.0000 0.0000 0.0000 265.500 5.0000 0.0000 0.0000 262.200 5.0000 0.0000 0.0000 17.720 64.400 10.922           17.830 17.600 66.840 61.570 20.277 13.059 7.219
DSCMET_421 2017-09-28 09:45:00 89543 265.100 5.0000 0.0000 0.0000 265.500 5.0000 0.0000 0.0000 262.600 5.0000 0.0000 0.0000 17.450 65.040 10.815           17.640 17.260 67.360 62.830 19.935 12.966 6.969
DSCMET_421 2017-09-28 09:40:00 89542 265.100 5.0000 0.0000 0.0000 265.800 5.0000 0.0000 0.0000 262.900 5.0000 0.0000 0.0000 17.120 64.690 10.421           17.290 16.980 67.050 61.890 19.523 12.630 6.894
DSCMET_421 2017-09-28 09:35:00 89541 265.200 5.0000 0.0000 0.0000 265.800 5.0000 0.0000 0.0000 263.300 5.0000 0.0000 0.0000 16.850 64.450 10.110           17.010 16.690 66.660 61.690 19.192 12.369 6.823
DSCMET_421 2017-09-28 09:30:00 89540 265.200 5.0000 0.0000 0.0000 265.900 5.0000 0.0000 0.0000 264.100 5.0000 0.0000 0.0000 16.300 67.880 10.362           16.770 16.010 70.710 63.180 18.532 12.580 5.953
DSCMET_421 2017-09-28 09:25:00 89539 265.200 5.0000 0.0000 0.0000 265.900 5.0000 0.0000 0.0000 264.700 5.0000 0.0000 0.0000 16.230 66.160 9.912           16.390 15.980 68.330 64.150 18.450 12.206 6.243
DSCMET_421 2017-09-28 09:20:00 89538 265.200 5.0000 0.0000 0.0000 265.900 5.0000 0.0000 0.0000 280.600 2.2500 0.7500 2.0000 15.790 70.170 10.371           15.940 15.370 74.030 65.030 17.939 12.588 5.351
DSCMET_421 2017-09-28 09:15:00 89537 265.300 5.0000 0.0000 0.0000 266.100 5.0000 0.0000 0.0000 339.000 0.0000 0.0000 5.0000 15.140 74.060 10.555           15.360 14.950 76.470 72.500 17.206 12.743 4.463
DSCMET_421 2017-09-28 09:10:00 89536 265.500 5.0000 0.0000 0.0000 266.300 5.0000 0.0000 0.0000 383.500 0.0000 0.0000 5.0000 14.820 73.490 10.131           14.980 14.600 74.290 72.380 16.855 12.387 4.468
DSCMET_421 2017-09-28 09:05:00 89535 265.600 5.0000 0.0000 0.0000 266.300 5.0000 0.0000 0.0000 409.700 0.0000 0.0000 5.0000 14.510 77.840 10.692           14.620 14.330 79.450 75.400 16.521 12.860 3.661
DSCMET_421 2017-09-28 09:00:00 89534 265.600 5.0000 0.0000 0.0000 266.300 5.0000 0.0000 0.0000 424.900 0.0000 0.0000 5.0000 13.730 81.800 10.678           14.280 13.440 83.200 78.800 15.707 12.848 2.859
DSCMET_421 2017-09-28 08:55:00 89533 265.600 5.0000 0.0000 0.0000 266.400 5.0000 0.0000 0.0000 436.300 0.0000 0.0000 5.0000 13.300 82.200 10.332           13.560 12.990 84.400 79.850 15.273 12.554 2.719
DSCMET_421 2017-09-28 08:50:00 89532 265.600 5.0000 0.0000 0.0000 266.600 5.0000 0.0000 0.0000 445.100 0.0000 0.0000 5.0000 12.920 84.100 10.302           13.040 12.810 85.800 82.700 14.898 12.529 2.369
DSCMET_421 2017-09-28 08:45:00 89531 265.600 5.0000 0.0000 0.0000 266.800 5.0000 0.0000 0.0000 453.800 0.0000 0.0000 5.0000 12.710 82.900 9.882           12.780 12.600 84.200 81.900 14.695 12.182 2.513
DSCMET_421 2017-09-28 08:40:00 89530 265.700 5.0000 0.0000 0.0000 269.300 5.0000 0.0000 0.0000 461.900 0.0000 0.0000 5.0000 12.320 85.200 9.908           12.630 12.100 87.400 82.500 14.323 12.203 2.120
DSCMET_421 2017-09-28 08:35:00 89529 265.700 5.0000 0.0000 0.0000 274.200 2.5000 2.5000 0.0000 466.500 0.0000 0.0000 5.0000 12.050 85.900 9.765           12.230 11.890 86.700 84.800 14.071 12.087 1.984
DSCMET_421 2017-09-28 08:30:00 89528 265.700 5.0000 0.0000 0.0000 280.400 0.0000 5.0000 0.0000 470.600 0.0000 0.0000 5.0000 11.750 86.300 9.540           11.890 11.510 87.900 84.900 13.795 11.905 1.890
DSCMET_421 2017-09-28 08:25:00 89527 265.700 5.0000 0.0000 0.0000 286.000 0.0000 1.0000 4.0000 474.500 0.0000 0.0000 5.0000 11.290 88.900 9.528           11.470 11.140 90.000 88.200 13.381 11.896 1.485
DSCMET_421 2017-09-28 08:20:00 89526 265.700 5.0000 0.0000 0.0000 290.800 0.0000 0.0000 5.0000 477.300 0.0000 0.0000 5.0000 11.100 89.300 9.408           11.190 10.980 89.900 88.700 13.214 11.800 1.414
DSCMET_421 2017-09-28 08:15:00 89525 265.700 5.0000 0.0000 0.0000 294.600 0.0000 0.0000 5.0000 480.100 0.0000 0.0000 5.0000 10.620 91.300 9.262           10.890 10.460 91.900 89.400 12.798 11.685 1.113
DSCMET_421 2017-09-28 08:10:00 89524 265.700 5.0000 0.0000 0.0000 297.700 0.0000 0.0000 5.0000 481.500 0.0000 0.0000 5.0000 10.410 91.600 9.103           10.490 10.230 91.800 91.300 12.620 11.560 1.060
DSCMET_421 2017-09-28 08:05:00 89523 265.700 5.0000 0.0000 0.0000 300.100 0.0000 0.0000 5.0000 483.000 0.0000 0.0000 5.0000 10.020 92.900 8.926           10.280 9.830 93.600 91.700 12.295 11.422 0.873
DSCMET_421 2017-09-28 08:00:00 89522 265.700 5.0000 0.0000 0.0000 302.000 0.0000 0.0000 5.0000 484.100 0.0000 0.0000 5.0000 9.640 94.200 8.754           9.860 9.450 95.100 92.900 11.986 11.290 0.695
DSCMET_421 2017-09-28 07:55:00 89521 265.700 5.0000 0.0000 0.0000 303.300 0.0000 0.0000 5.0000 484.900 0.0000 0.0000 5.0000 9.430 94.800 8.639           9.520 9.300 95.300 94.200 11.818 11.203 0.615
DSCMET_421 2017-09-28 07:50:00 89520 265.700 5.0000 0.0000 0.0000 303.900 0.0000 0.0000 5.0000 487.100 0.0000 0.0000 5.0000 9.030 96.100 8.442           9.300 8.720 97.200 95.000 11.503 11.054 0.449
DSCMET_421 2017-09-28 07:45:00 89519 265.600 5.0000 0.0000 0.0000 303.700 0.0000 0.0000 5.0000 488.600 0.0000 0.0000 5.0000 8.510 97.600 8.152           8.720 8.390 97.800 97.300 11.105 10.839 0.267
DSCMET_421 2017-09-28 07:40:00 89518 265.400 5.0000 0.0000 0.0000 303.300 0.0000 0.0000 5.0000 486.800 0.0000 0.0000 5.0000 8.300 98.000 8.003           8.420 8.100 98.100 97.900 10.948 10.729 0.219
DSCMET_421 2017-09-28 07:35:00 89517 265.500 5.0000 0.0000 0.0000 303.000 0.0000 0.0000 5.0000 484.800 0.0000 0.0000 5.0000 8.180 98.200 7.913           8.240 8.090 98.400 98.100 10.859 10.664 0.195
DSCMET_421 2017-09-28 07:30:00 89516 265.400 5.0000 0.0000 0.0000 302.700 0.0000 0.0000 5.0000 482.900 0.0000 0.0000 5.0000 8.040 98.200 7.773           8.120 7.938 98.300 98.100 10.756 10.563 0.194
DSCMET_421 2017-09-28 07:25:00 89515 265.300 5.0000 0.0000 0.0000 302.100 0.0000 0.0000 5.0000 480.800 0.0000 0.0000 5.0000 7.890 97.900 7.579           7.972 7.789 98.100 97.800 10.647 10.423 0.224
DSCMET_421 2017-09-28 07:20:00 89514 265.300 5.0000 0.0000 0.0000 301.700 0.0000 0.0000 5.0000 478.600 0.0000 0.0000 5.0000 7.913 97.400 7.527           8.000 7.839 97.800 97.100 10.664 10.386 0.277
DSCMET_421 2017-09-28 07:15:00 89513 265.300 5.0000 0.0000 0.0000 301.300 0.0000 0.0000 5.0000 476.500 0.0000 0.0000 5.0000 8.120 96.900 7.658           8.190 8.040 97.100 96.500 10.815 10.480 0.335
DSCMET_421 2017-09-28 07:10:00 89512 265.300 5.0000 0.0000 0.0000 300.800 0.0000 0.0000 5.0000 474.300 0.0000 0.0000 5.0000 8.280 96.700 7.787           8.350 8.220 97.100 96.400 10.933 10.572 0.361
DSCMET_421 2017-09-28 07:05:00 89511 265.300 5.0000 0.0000 0.0000 300.400 0.0000 0.0000 5.0000 472.100 0.0000 0.0000 5.0000 8.150 97.500 7.778           8.240 8.020 97.700 97.100 10.837 10.566 0.271
DSCMET_421 2017-09-28 07:00:00 89510 265.300 5.0000 0.0000 0.0000 300.000 0.0000 0.0000 5.0000 469.400 0.0000 0.0000 5.0000 7.980 97.600 7.624           8.090 7.904 97.700 97.500 10.712 10.455 0.257
DSCMET_421 2017-09-28 06:55:00 89509 265.300 5.0000 0.0000 0.0000 299.300 0.0000 0.0000 5.0000 466.100 0.0000 0.0000 5.0000 7.976 97.400 7.590           8.020 7.921 97.600 97.200 10.709 10.431 0.278
DSCMET_421 2017-09-28 06:50:00 89508 265.300 5.0000 0.0000 0.0000 298.800 0.0000 0.0000 5.0000 462.800 0.0000 0.0000 5.0000 8.080 97.000 7.633           8.200 7.937 97.400 96.800 10.786 10.462 0.324
DSCMET_421 2017-09-28 06:45:00 89507 265.300 5.0000 0.0000 0.0000 298.400 0.0000 0.0000 5.0000 459.700 0.0000 0.0000 5.0000 8.100 97.600 7.744           8.200 8.040 97.900 97.400 10.800 10.541 0.259
DSCMET_421 2017-09-28 06:40:00 89506 265.400 5.0000 0.0000 0.0000 297.900 0.0000 0.0000 5.0000 456.100 0.0000 0.0000 5.0000 8.030 98.100 7.749           8.140 7.888 98.200 98.000 10.749 10.545 0.204
DSCMET_421 2017-09-28 06:35:00 89505 265.300 5.0000 0.0000 0.0000 297.000 0.0000 0.0000 5.0000 452.200 0.0000 0.0000 5.0000 7.852 97.900 7.541           7.938 7.788 98.100 97.800 10.619 10.396 0.223
DSCMET_421 2017-09-28 06:30:00 89504 265.300 5.0000 0.0000 0.0000 296.100 0.0000 0.0000 5.0000 448.400 0.0000 0.0000 5.0000 7.953 97.700 7.612           8.000 7.871 97.900 97.500 10.693 10.447 0.246
DSCMET_421 2017-09-28 06:25:00 89503 265.300 5.0000 0.0000 0.0000 295.300 0.0000 0.0000 5.0000 445.100 0.0000 0.0000 5.0000 8.030 97.200 7.614           8.090 7.970 97.400 96.800 10.749 10.448 0.301
DSCMET_421 2017-09-28 06:20:00 89502 265.300 5.0000 0.0000 0.0000 294.600 0.0000 0.0000 5.0000 441.300 0.0000 0.0000 5.0000 8.200 96.700 7.707           8.300 8.050 96.900 96.300 10.874 10.515 0.359
DSCMET_421 2017-09-28 06:15:00 89501 265.300 5.0000 0.0000 0.0000 293.800 0.0000 0.0000 5.0000 437.900 0.0000 0.0000 5.0000 8.350 96.600 7.842           8.420 8.250 97.000 96.300 10.985 10.612 0.374
DSCMET_421 2017-09-28 06:10:00 89500 265.300 5.0000 0.0000 0.0000 293.100 0.0000 0.0000 5.0000 434.800 0.0000 0.0000 5.0000 8.260 97.400 7.873           8.320 8.200 97.800 97.000 10.918 10.635 0.284
DSCMET_421 2017-09-28 06:05:00 89499 265.400 5.0000 0.0000 0.0000 292.400 0.0000 0.0000 5.0000 431.000 0.0000 0.0000 5.0000 8.110 97.400 7.723           8.240 8.020 97.800 96.900 10.808 10.527 0.281
DSCMET_421 2017-09-28 06:00:00 89498 265.400 5.0000 0.0000 0.0000 291.700 0.0000 0.0000 5.0000 427.000 0.0000 0.0000 5.0000 8.260 97.100 7.828           8.420 8.040 97.700 96.700 10.918 10.602 0.317
DSCMET_421 2017-09-28 05:55:00 89497 265.600 5.0000 0.0000 0.0000 290.900 0.0000 0.0000 5.0000 423.200 0.0000 0.0000 5.0000 8.200 97.300 7.798           8.320 8.140 97.700 97.100 10.874 10.580 0.294
DSCMET_421 2017-09-28 05:50:00 89496 265.700 5.0000 0.0000 0.0000 290.000 0.0000 0.0000 5.0000 419.500 0.0000 0.0000 5.0000 8.270 97.800 7.943           8.350 8.140 98.000 97.500 10.926 10.685 0.240
DSCMET_421 2017-09-28 05:45:00 89495 265.600 5.0000 0.0000 0.0000 288.900 0.0000 0.0000 5.0000 416.100 0.0000 0.0000 5.0000 8.190 97.500 7.818           8.250 8.120 97.800 97.300 10.867 10.595 0.272
DSCMET_421 2017-09-28 05:40:00 89494 265.700 5.0000 0.0000 0.0000 288.000 0.0000 0.0000 5.0000 412.800 0.0000 0.0000 5.0000 8.300 97.400 7.913           8.340 8.240 97.500 97.300 10.948 10.663 0.285
DSCMET_421 2017-09-28 05:35:00 89493 265.700 5.0000 0.0000 0.0000 286.700 0.0000 0.0000 5.0000 409.000 0.0000 0.0000 5.0000 8.360 97.100 7.927           8.450 8.290 97.300 97.000 10.993 10.674 0.319
DSCMET_421 2017-09-28 05:30:00 89492 265.500 5.0000 0.0000 0.0000 285.700 0.0000 0.0000 5.0000 405.800 0.0000 0.0000 5.0000 8.450 97.100 8.017           8.520 8.390 97.200 97.100 11.060 10.739 0.321
DSCMET_421 2017-09-28 05:25:00 89491 265.700 5.0000 0.0000 0.0000 284.900 0.0000 0.0000 5.0000 403.000 0.0000 0.0000 5.0000 8.420 97.200 8.002           8.600 8.300 97.800 96.900 11.038 10.729 0.309
DSCMET_421 2017-09-28 05:20:00 89490 265.400 5.0000 0.0000 0.0000 283.700 0.0000 4.2500 0.7500 400.200 0.0000 0.0000 5.0000 8.390 98.000 8.093           8.570 8.240 98.100 97.800 11.015 10.795 0.220
DSCMET_421 2017-09-28 05:15:00 89489 265.300 5.0000 0.0000 0.0000 282.800 0.0000 5.0000 0.0000 396.700 0.0000 0.0000 5.0000 8.270 97.700 7.928           8.420 8.190 97.800 97.600 10.926 10.675 0.251
DSCMET_421 2017-09-28 05:10:00 89488 265.300 5.0000 0.0000 0.0000 281.700 0.0000 5.0000 0.0000 393.300 0.0000 0.0000 5.0000 8.390 97.600 8.033           8.480 8.300 97.800 97.500 11.015 10.751 0.264
DSCMET_421 2017-09-28 05:05:00 89487 265.300 5.0000 0.0000 0.0000 280.900 0.0000 5.0000 0.0000 389.900 0.0000 0.0000 5.0000 8.440 97.900 8.128           8.500 8.370 98.000 97.800 11.053 10.821 0.232
DSCMET_421 2017-09-28 05:00:00 89486 265.300 5.0000 0.0000 0.0000 280.000 0.0000 5.0000 0.0000 386.300 0.0000 0.0000 5.0000 8.300 97.500 7.928           8.380 8.220 97.900 97.200 10.948 10.674 0.274
DSCMET_421 2017-09-28 04:55:00 89485 265.300 5.0000 0.0000 0.0000 279.200 0.0000 5.0000 0.0000 382.800 0.0000 0.0000 5.0000 8.490 97.300 8.087           8.630 8.400 97.700 97.100 11.090 10.791 0.299
DSCMET_421 2017-09-28 04:50:00 89484 265.500 5.0000 0.0000 0.0000 278.600 0.0000 5.0000 0.0000 379.100 0.0000 0.0000 5.0000 8.480 97.500 8.107           8.650 8.350 97.800 97.200 11.083 10.806 0.277
DSCMET_421 2017-09-28 04:45:00 89483 265.400 5.0000 0.0000 0.0000 277.700 0.0000 5.0000 0.0000 375.900 0.0000 0.0000 5.0000 8.560 97.000 8.112           8.660 8.470 97.200 96.900 11.143 10.809 0.334
DSCMET_421 2017-09-28 04:40:00 89482 265.300 5.0000 0.0000 0.0000 276.700 0.0000 5.0000 0.0000 372.900 0.0000 0.0000 5.0000 8.630 97.400 8.242           8.750 8.500 97.600 97.200 11.196 10.905 0.291
DSCMET_421 2017-09-28 04:35:00 89481 265.300 5.0000 0.0000 0.0000 275.900 0.0000 5.0000 0.0000 369.900 0.0000 0.0000 5.0000 8.600 97.300 8.197           8.700 8.480 97.400 97.100 11.173 10.872 0.302
DSCMET_421 2017-09-28 04:30:00 89480 265.300 5.0000 0.0000 0.0000 275.100 0.0000 5.0000 0.0000 366.900 0.0000 0.0000 5.0000 8.700 97.700 8.357           8.800 8.600 97.900 97.300 11.249 10.990 0.259
DSCMET_421 2017-09-28 04:25:00 89479 265.300 5.0000 0.0000 0.0000 274.400 0.2500 4.7500 0.0000 363.300 0.0000 0.0000 5.0000 8.560 97.700 8.217           8.620 8.500 97.800 97.500 11.143 10.887 0.256
DSCMET_421 2017-09-28 04:20:00 89478 265.300 5.0000 0.0000 0.0000 273.700 5.0000 0.0000 0.0000 359.600 0.0000 0.0000 5.0000 8.580 97.300 8.177           8.630 8.520 97.600 96.900 11.158 10.857 0.301
DSCMET_421 2017-09-28 04:15:00 89477 265.300 5.0000 0.0000 0.0000 273.000 5.0000 0.0000 0.0000 356.100 0.0000 0.0000 5.0000 8.770 96.900 8.306           8.860 8.650 97.000 96.700 11.303 10.952 0.350
DSCMET_421 2017-09-28 04:10:00 89476 265.300 5.0000 0.0000 0.0000 272.500 5.0000 0.0000 0.0000 353.100 0.0000 0.0000 5.0000 8.830 96.900 8.365           8.900 8.800 97.000 96.700 11.349 10.997 0.352
DSCMET_421 2017-09-28 04:05:00 89475 265.300 5.0000 0.0000 0.0000 271.800 5.0000 0.0000 0.0000 349.600 0.0000 0.0000 5.0000 8.910 96.600 8.399           8.990 8.830 96.800 96.300 11.410 11.022 0.388
DSCMET_421 2017-09-28 04:00:00 89474 265.300 5.0000 0.0000 0.0000 271.200 5.0000 0.0000 0.0000 346.500 0.0000 0.0000 5.0000 8.910 96.900 8.445           8.990 8.840 97.100 96.700 11.410 11.056 0.354
DSCMET_421 2017-09-28 03:55:00 89473 265.300 5.0000 0.0000 0.0000 270.700 5.0000 0.0000 0.0000 343.500 0.0000 0.0000 5.0000 8.910 96.600 8.399           9.090 8.780 97.100 96.100 11.410 11.022 0.388
DSCMET_421 2017-09-28 03:50:00 89472 265.300 5.0000 0.0000 0.0000 270.200 5.0000 0.0000 0.0000 340.500 0.0000 0.0000 5.0000 9.070 96.400 8.528           9.160 8.960 96.700 96.200 11.534 11.119 0.415
DSCMET_421 2017-09-28 03:45:00 89471 265.300 5.0000 0.0000 0.0000 269.600 5.0000 0.0000 0.0000 337.500 0.0000 0.0000 5.0000 9.080 96.300 8.523           9.160 9.010 96.600 95.800 11.542 11.115 0.427
DSCMET_421 2017-09-28 03:40:00 89470 265.300 5.0000 0.0000 0.0000 269.200 5.0000 0.0000 0.0000 334.800 0.0000 0.0000 5.0000 9.080 96.600 8.569           9.170 8.980 97.100 95.700 11.542 11.150 0.392
DSCMET_421 2017-09-28 03:35:00 89469 265.300 5.0000 0.0000 0.0000 268.700 5.0000 0.0000 0.0000 331.600 0.0000 0.0000 5.0000 9.010 96.900 8.545           9.060 8.960 97.100 96.900 11.488 11.131 0.356
DSCMET_421 2017-09-28 03:30:00 89468 265.300 5.0000 0.0000 0.0000 268.400 5.0000 0.0000 0.0000 328.200 0.0000 0.0000 5.0000 9.050 96.200 8.478           9.260 8.910 96.800 95.600 11.519 11.081 0.438
DSCMET_421 2017-09-28 03:25:00 89467 265.300 5.0000 0.0000 0.0000 268.100 5.0000 0.0000 0.0000 325.500 0.0000 0.0000 5.0000 9.350 95.300 8.637           9.420 9.240 95.800 95.000 11.754 11.202 0.552
DSCMET_421 2017-09-28 03:20:00 89466 265.300 5.0000 0.0000 0.0000 268.000 5.0000 0.0000 0.0000 323.500 0.0000 0.0000 5.0000 9.480 94.800 8.689           9.570 9.370 95.500 94.200 11.857 11.241 0.617
DSCMET_421 2017-09-28 03:15:00 89465 265.300 5.0000 0.0000 0.0000 267.900 5.0000 0.0000 0.0000 321.400 0.0000 0.0000 5.0000 9.410 95.400 8.713           9.490 9.320 95.800 95.200 11.802 11.259 0.543
DSCMET_421 2017-09-28 03:10:00 89464 265.300 5.0000 0.0000 0.0000 267.400 5.0000 0.0000 0.0000 318.600 0.0000 0.0000 5.0000 9.510 94.900 8.734           9.720 9.390 95.500 94.100 11.881 11.275 0.606
DSCMET_421 2017-09-28 03:05:00 89463 265.300 5.0000 0.0000 0.0000 267.100 5.0000 0.0000 0.0000 316.100 0.0000 0.0000 5.0000 9.580 95.100 8.835           9.700 9.420 95.900 94.100 11.937 11.352 0.585
DSCMET_421 2017-09-28 03:00:00 89462 265.300 5.0000 0.0000 0.0000 266.900 5.0000 0.0000 0.0000 313.500 0.0000 0.0000 5.0000 9.590 94.500 8.751           9.800 9.420 95.400 93.800 11.945 11.288 0.657
DSCMET_421 2017-09-28 02:55:00 89461 265.300 5.0000 0.0000 0.0000 266.900 5.0000 0.0000 0.0000 311.800 0.0000 0.0000 5.0000 9.590 95.200 8.860           9.750 9.470 95.500 94.700 11.945 11.372 0.573
DSCMET_421 2017-09-28 02:50:00 89460 265.300 5.0000 0.0000 0.0000 266.600 5.0000 0.0000 0.0000 309.200 0.0000 0.0000 5.0000 9.530 95.700 8.878           9.620 9.450 96.100 95.100 11.897 11.386 0.512
DSCMET_421 2017-09-28 02:45:00 89459 265.300 5.0000 0.0000 0.0000 266.300 5.0000 0.0000 0.0000 306.800 0.0000 0.0000 5.0000 9.600 94.900 8.824           9.770 9.420 95.900 94.400 11.953 11.344 0.610
DSCMET_421 2017-09-28 02:40:00 89458 265.300 5.0000 0.0000 0.0000 266.900 5.0000 0.0000 0.0000 305.500 0.0000 0.0000 5.0000 9.670 94.900 8.893           9.800 9.550 95.700 94.000 12.010 11.397 0.613
DSCMET_421 2017-09-28 02:35:00 89457 265.300 5.0000 0.0000 0.0000 266.900 5.0000 0.0000 0.0000 304.200 0.0000 0.0000 5.0000 9.720 95.000 8.959           9.850 9.600 95.600 94.400 12.050 11.448 0.603
DSCMET_421 2017-09-28 02:30:00 89456 265.300 5.0000 0.0000 0.0000 266.800 5.0000 0.0000 0.0000 302.700 0.0000 0.0000 5.0000 9.800 94.900 9.023           9.970 9.470 96.200 93.800 12.115 11.497 0.618
DSCMET_421 2017-09-28 02:25:00 89455 265.300 5.0000 0.0000 0.0000 266.600 5.0000 0.0000 0.0000 300.300 0.0000 0.0000 5.0000 9.720 95.000 8.959           9.920 9.550 95.800 94.300 12.050 11.448 0.603
DSCMET_421 2017-09-28 02:20:00 89454 265.300 5.0000 0.0000 0.0000 266.300 5.0000 0.0000 0.0000 298.600 0.0000 0.0000 5.0000 9.830 95.300 9.115           9.930 9.700 96.000 94.400 12.140 11.569 0.571
DSCMET_421 2017-09-28 02:15:00 89453 265.300 5.0000 0.0000 0.0000 266.200 5.0000 0.0000 0.0000 296.500 0.0000 0.0000 5.0000 9.720 95.500 9.036           9.800 9.620 95.900 94.900 12.050 11.508 0.542
DSCMET_421 2017-09-28 02:10:00 89452 265.300 5.0000 0.0000 0.0000 266.100 5.0000 0.0000 0.0000 294.900 0.0000 0.0000 5.0000 10.040 93.800 9.088           10.400 9.800 94.800 92.300 12.312 11.548 0.763
DSCMET_421 2017-09-28 02:05:00 89451 265.300 5.0000 0.0000 0.0000 266.300 5.0000 0.0000 0.0000 294.300 0.0000 0.0000 5.0000 10.040 94.500 9.198           10.130 9.950 94.700 94.200 12.312 11.635 0.677
DSCMET_421 2017-09-28 02:00:00 89450 265.300 5.0000 0.0000 0.0000 266.300 5.0000 0.0000 0.0000 292.700 0.0000 0.0000 5.0000 10.170 93.600 9.186           10.320 10.050 94.300 93.100 12.419 11.624 0.795
DSCMET_421 2017-09-28 01:55:00 89449 265.300 5.0000 0.0000 0.0000 266.300 5.0000 0.0000 0.0000 291.600 0.0000 0.0000 5.0000 10.170 93.800 9.217           10.370 10.020 94.600 92.300 12.419 11.649 0.770
DSCMET_421 2017-09-28 01:50:00 89448 265.300 5.0000 0.0000 0.0000 266.600 5.0000 0.0000 0.0000 290.700 0.0000 0.0000 5.0000 10.100 94.600 9.274           10.430 9.930 95.300 92.800 12.361 11.694 0.668
DSCMET_421 2017-09-28 01:45:00 89447 265.300 5.0000 0.0000 0.0000 266.400 5.0000 0.0000 0.0000 288.700 0.0000 0.0000 5.0000 10.140 94.800 9.345           10.230 10.020 95.700 94.200 12.394 11.750 0.645
DSCMET_421 2017-09-28 01:40:00 89446 265.300 5.0000 0.0000 0.0000 266.300 5.0000 0.0000 0.0000 286.500 0.0000 0.0000 5.0000 10.040 95.000 9.277           10.180 9.930 95.600 94.400 12.312 11.696 0.616
DSCMET_421 2017-09-28 01:35:00 89445 265.300 5.0000 0.0000 0.0000 266.400 5.0000 0.0000 0.0000 284.900 0.0000 0.0000 5.0000 10.050 95.300 9.333           10.100 9.950 95.700 95.200 12.320 11.741 0.579
DSCMET_421 2017-09-28 01:30:00 89444 265.300 5.0000 0.0000 0.0000 266.300 5.0000 0.0000 0.0000 282.900 0.0000 5.0000 0.0000 10.090 95.200 9.358           10.150 10.030 95.500 94.900 12.353 11.760 0.593
DSCMET_421 2017-09-28 01:25:00 89443 265.300 5.0000 0.0000 0.0000 266.200 5.0000 0.0000 0.0000 281.000 0.0000 5.0000 0.0000 10.110 95.000 9.346           10.220 10.050 95.500 94.600 12.370 11.751 0.618
DSCMET_421 2017-09-28 01:20:00 89442 265.300 5.0000 0.0000 0.0000 265.900 5.0000 0.0000 0.0000 279.800 0.0000 5.0000 0.0000 10.260 94.400 9.401           10.430 10.150 95.100 93.300 12.494 11.795 0.700
DSCMET_421 2017-09-28 01:15:00 89441 265.300 5.0000 0.0000 0.0000 265.900 5.0000 0.0000 0.0000 279.100 0.0000 5.0000 0.0000 10.430 94.000 9.507           10.530 10.310 94.500 93.100 12.637 11.879 0.758
DSCMET_421 2017-09-28 01:10:00 89440 265.300 5.0000 0.0000 0.0000 266.000 5.0000 0.0000 0.0000 278.900 0.0000 5.0000 0.0000 10.530 93.700 9.559           10.650 10.450 94.300 93.100 12.722 11.920 0.801
DSCMET_421 2017-09-28 01:05:00 89439 265.300 5.0000 0.0000 0.0000 265.900 5.0000 0.0000 0.0000 278.300 0.0000 5.0000 0.0000 10.380 94.500 9.536           10.480 10.300 94.900 93.700 12.595 11.902 0.693
DSCMET_421 2017-09-28 01:00:00 89438 265.300 5.0000 0.0000 0.0000 265.900 5.0000 0.0000 0.0000 277.500 0.0000 5.0000 0.0000 10.610 93.300 9.574           10.710 10.510 93.600 92.800 12.790 11.933 0.857
DSCMET_421 2017-09-28 00:55:00 89437 265.300 5.0000 0.0000 0.0000 265.900 5.0000 0.0000 0.0000 277.300 0.0000 5.0000 0.0000 10.890 92.100 9.659           11.010 10.760 93.000 91.500 13.030 12.001 1.029
DSCMET_421 2017-09-28 00:50:00 89436 265.300 5.0000 0.0000 0.0000 265.900 5.0000 0.0000 0.0000 277.400 0.0000 5.0000 0.0000 10.660 93.700 9.688           10.840 10.550 94.200 92.800 12.832 12.024 0.808
DSCMET_421 2017-09-28 00:45:00 89435 265.300 5.0000 0.0000 0.0000 265.900 5.0000 0.0000 0.0000 277.100 0.0000 5.0000 0.0000 10.710 93.400 9.689           10.930 10.500 94.500 92.300 12.875 12.025 0.850
DSCMET_421 2017-09-28 00:40:00 89434 265.300 5.0000 0.0000 0.0000 265.900 5.0000 0.0000 0.0000 276.300 0.0000 5.0000 0.0000 10.700 94.000 9.775           10.810 10.580 94.500 93.400 12.867 12.095 0.772
DSCMET_421 2017-09-28 00:35:00 89433 265.200 5.0000 0.0000 0.0000 265.900 5.0000 0.0000 0.0000 275.100 0.0000 5.0000 0.0000 10.760 93.200 9.707           11.030 10.530 94.400 91.900 12.918 12.040 0.878
DSCMET_421 2017-09-28 00:30:00 89432 265.200 5.0000 0.0000 0.0000 265.900 5.0000 0.0000 0.0000 275.000 0.0000 5.0000 0.0000 10.820 93.600 9.830           11.130 10.660 94.400 91.900 12.970 12.140 0.830
DSCMET_421 2017-09-28 00:25:00 89431 265.300 5.0000 0.0000 0.0000 265.900 5.0000 0.0000 0.0000 274.500 0.0000 5.0000 0.0000 10.960 92.700 9.825           11.110 10.740 93.400 92.300 13.091 12.136 0.956
DSCMET_421 2017-09-28 00:20:00 89430 265.200 5.0000 0.0000 0.0000 265.900 5.0000 0.0000 0.0000 274.400 0.0000 5.0000 0.0000 10.990 92.900 9.887           11.060 10.910 93.600 92.500 13.117 12.186 0.931
DSCMET_421 2017-09-28 00:15:00 89429 265.200 5.0000 0.0000 0.0000 265.900 5.0000 0.0000 0.0000 273.500 4.5000 0.5000 0.0000 10.890 93.600 9.900           11.010 10.790 94.000 92.900 13.030 12.197 0.834
DSCMET_421 2017-09-28 00:10:00 89428 265.300 5.0000 0.0000 0.0000 265.900 5.0000 0.0000 0.0000 272.600 5.0000 0.0000 0.0000 10.910 93.700 9.936           10.960 10.840 93.900 93.500 13.048 12.226 0.822
DSCMET_421 2017-09-28 00:05:00 89427 265.200 5.0000 0.0000 0.0000 265.900 5.0000 0.0000 0.0000 272.100 5.0000 0.0000 0.0000 10.920 93.900 9.977           11.040 10.760 94.400 93.200 13.056 12.260 0.796
DSCMET_421 2017-09-28 00:00:00 89426 265.100 5.0000 0.0000 0.0000 265.900 5.0000 0.0000 0.0000 271.200 5.0000 0.0000 0.0000 10.950 93.700 9.975           11.060 10.810 94.300 93.400 13.083 12.258 0.824
DSCMET_421 2017-09-27 23:55:00 89425 265.200 5.0000 0.0000 0.0000 265.900 5.0000 0.0000 0.0000 270.400 5.0000 0.0000 0.0000 11.140 92.700 10.004           11.270 10.920 93.600 92.200 13.249 12.282 0.967
DSCMET_421 2017-09-27 23:50:00 89424 265.200 5.0000 0.0000 0.0000 265.900 5.0000 0.0000 0.0000 270.400 5.0000 0.0000 0.0000 11.020 94.000 10.092           11.210 10.890 94.600 93.000 13.144 12.355 0.789
DSCMET_421 2017-09-27 23:45:00 89423 265.200 5.0000 0.0000 0.0000 265.900 5.0000 0.0000 0.0000 269.500 5.0000 0.0000 0.0000 10.890 94.600 10.058           10.960 10.810 94.900 94.300 13.030 12.327 0.704
DSCMET_421 2017-09-27 23:40:00 89422 265.000 5.0000 0.0000 0.0000 265.900 5.0000 0.0000 0.0000 268.300 5.0000 0.0000 0.0000 11.000 94.000 10.073           11.070 10.890 94.500 93.700 13.126 12.339 0.788
DSCMET_421 2017-09-27 23:35:00 89421 265.000 5.0000 0.0000 0.0000 265.900 5.0000 0.0000 0.0000 267.600 5.0000 0.0000 0.0000 11.090 93.800 10.130           11.140 11.050 94.200 93.500 13.205 12.386 0.819
DSCMET_421 2017-09-27 23:30:00 89420 264.900 5.0000 0.0000 0.0000 265.700 5.0000 0.0000 0.0000 266.900 5.0000 0.0000 0.0000 11.120 93.600 10.128           11.320 11.000 94.300 92.700 13.231 12.384 0.847
DSCMET_421 2017-09-27 23:25:00 89419 264.900 5.0000 0.0000 0.0000 265.600 5.0000 0.0000 0.0000 266.600 5.0000 0.0000 0.0000 11.390 92.500 10.219           11.450 11.300 92.700 92.200 13.470 12.460 1.010
DSCMET_421 2017-09-27 23:20:00 89418 264.900 5.0000 0.0000 0.0000 265.600 5.0000 0.0000 0.0000 266.700 5.0000 0.0000 0.0000 11.390 92.500 10.219           11.570 11.290 93.200 91.500 13.470 12.460 1.010
DSCMET_421 2017-09-27 23:15:00 89417 265.100 5.0000 0.0000 0.0000 265.900 5.0000 0.0000 0.0000 266.900 5.0000 0.0000 0.0000 11.610 91.700 10.307           11.720 11.500 92.500 91.000 13.668 12.533 1.134
DSCMET_421 2017-09-27 23:10:00 89416 265.000 5.0000 0.0000 0.0000 265.900 5.0000 0.0000 0.0000 267.100 5.0000 0.0000 0.0000 11.470 92.400 10.282           11.580 11.350 93.100 91.800 13.542 12.513 1.029
DSCMET_421 2017-09-27 23:05:00 89415 264.900 5.0000 0.0000 0.0000 265.800 5.0000 0.0000 0.0000 267.000 5.0000 0.0000 0.0000 11.550 92.200 10.329           11.650 11.390 93.000 91.500 13.614 12.552 1.062
DSCMET_421 2017-09-27 23:00:00 89414 264.900 5.0000 0.0000 0.0000 265.800 5.0000 0.0000 0.0000 266.900 5.0000 0.0000 0.0000 11.430 92.900 10.323           11.500 11.370 93.400 92.700 13.506 12.547 0.959
DSCMET_421 2017-09-27 22:55:00 89413 264.900 5.0000 0.0000 0.0000 265.800 5.0000 0.0000 0.0000 266.900 5.0000 0.0000 0.0000 11.500 93.000 10.409           11.600 11.380 93.500 92.500 13.569 12.619 0.950
DSCMET_421 2017-09-27 22:50:00 89412 264.900 5.0000 0.0000 0.0000 265.600 5.0000 0.0000 0.0000 266.700 5.0000 0.0000 0.0000 11.490 93.100 10.415           11.570 11.400 93.500 93.000 13.560 12.624 0.936
DSCMET_421 2017-09-27 22:45:00 89411 264.900 5.0000 0.0000 0.0000 265.500 5.0000 0.0000 0.0000 266.100 5.0000 0.0000 0.0000 11.470 93.200 10.411           11.530 11.380 93.400 92.900 13.542 12.621 0.921
DSCMET_421 2017-09-27 22:40:00 89410 264.900 5.0000 0.0000 0.0000 265.500 5.0000 0.0000 0.0000 265.600 5.0000 0.0000 0.0000 11.710 92.100 10.471           11.830 11.520 93.000 91.600 13.759 12.672 1.087
DSCMET_421 2017-09-27 22:35:00 89409 264.900 5.0000 0.0000 0.0000 265.600 5.0000 0.0000 0.0000 266.000 5.0000 0.0000 0.0000 11.620 93.200 10.560           11.780 11.530 93.600 92.000 13.677 12.747 0.930
DSCMET_421 2017-09-27 22:30:00 89408 264.900 5.0000 0.0000 0.0000 265.500 5.0000 0.0000 0.0000 265.600 5.0000 0.0000 0.0000 11.690 92.800 10.565           11.860 11.560 93.500 92.100 13.740 12.751 0.989
DSCMET_421 2017-09-27 22:25:00 89407 264.900 5.0000 0.0000 0.0000 265.500 5.0000 0.0000 0.0000 265.500 5.0000 0.0000 0.0000 11.850 91.800 10.561           11.960 11.760 92.200 91.500 13.886 12.748 1.139
DSCMET_421 2017-09-27 22:20:00 89406 264.900 5.0000 0.0000 0.0000 265.500 5.0000 0.0000 0.0000 265.500 5.0000 0.0000 0.0000 11.970 91.600 10.647           12.030 11.880 91.900 91.400 13.997 12.821 1.176
DSCMET_421 2017-09-27 22:15:00 89405 264.900 5.0000 0.0000 0.0000 265.500 5.0000 0.0000 0.0000 265.400 5.0000 0.0000 0.0000 12.060 91.100 10.654           12.180 11.910 91.600 90.700 14.080 12.827 1.253
DSCMET_421 2017-09-27 22:10:00 89404 264.900 5.0000 0.0000 0.0000 265.500 5.0000 0.0000 0.0000 265.500 5.0000 0.0000 0.0000 11.950 91.900 10.676           12.110 11.860 92.300 91.000 13.978 12.846 1.132
DSCMET_421 2017-09-27 22:05:00 89403 264.900 5.0000 0.0000 0.0000 265.500 5.0000 0.0000 0.0000 265.200 5.0000 0.0000 0.0000 12.000 91.000 10.578           12.130 11.890 92.100 90.500 14.025 12.762 1.262
DSCMET_421 2017-09-27 22:00:00 89402 264.900 5.0000 0.0000 0.0000 265.500 5.0000 0.0000 0.0000 265.200 5.0000 0.0000 0.0000 12.220 90.400 10.696           12.360 12.110 90.600 90.000 14.229 12.863 1.366
DSCMET_421 2017-09-27 21:55:00 89401 264.900 5.0000 0.0000 0.0000 265.500 5.0000 0.0000 0.0000 265.200 5.0000 0.0000 0.0000 12.310 90.200 10.752           12.390 12.240 90.600 89.900 14.314 12.911 1.403
DSCMET_421 2017-09-27 21:50:00 89400 264.900 5.0000 0.0000 0.0000 265.500 5.0000 0.0000 0.0000 265.200 5.0000 0.0000 0.0000 12.250 90.700 10.775           12.320 12.170 91.200 89.900 14.257 12.931 1.326
DSCMET_421 2017-09-27 21:45:00 89399 264.900 5.0000 0.0000 0.0000 265.500 5.0000 0.0000 0.0000 265.200 5.0000 0.0000 0.0000 12.300 90.900 10.858           12.520 12.170 91.200 90.300 14.304 13.003 1.302
DSCMET_421 2017-09-27 21:40:00 89398 264.900 5.0000 0.0000 0.0000 265.500 5.0000 0.0000 0.0000 265.200 5.0000 0.0000 0.0000 12.560 90.300 11.015           12.620 12.470 90.800 90.100 14.551 13.139 1.411
DSCMET_421 2017-09-27 21:35:00 89397 264.800 5.0000 0.0000 0.0000 265.500 5.0000 0.0000 0.0000 265.300 5.0000 0.0000 0.0000 12.280 91.700 10.970           12.490 12.140 92.600 90.800 14.286 13.100 1.186
DSCMET_421 2017-09-27 21:30:00 89396 264.800 5.0000 0.0000 0.0000 265.500 5.0000 0.0000 0.0000 265.200 5.0000 0.0000 0.0000 12.300 91.600 10.973           12.390 12.210 92.600 90.700 14.304 13.103 1.202
DSCMET_421 2017-09-27 21:25:00 89395 264.800 5.0000 0.0000 0.0000 265.500 5.0000 0.0000 0.0000 265.200 5.0000 0.0000 0.0000 12.490 90.900 11.046           12.550 12.370 91.400 90.700 14.484 13.166 1.318
DSCMET_421 2017-09-27 21:20:00 89394 264.800 5.0000 0.0000 0.0000 265.500 5.0000 0.0000 0.0000 265.200 5.0000 0.0000 0.0000 12.560 90.800 11.098           12.650 12.440 91.400 90.400 14.551 13.212 1.339
DSCMET_421 2017-09-27 21:15:00 89393 264.800 5.0000 0.0000 0.0000 265.500 5.0000 0.0000 0.0000 265.100 5.0000 0.0000 0.0000 12.680 90.700 11.200           12.750 12.570 91.200 90.300 14.666 13.302 1.364
DSCMET_421 2017-09-27 21:10:00 89392 264.800 5.0000 0.0000 0.0000 265.400 5.0000 0.0000 0.0000 265.000 5.0000 0.0000 0.0000 12.790 90.200 11.226           12.850 12.730 90.500 89.900 14.772 13.324 1.448
DSCMET_421 2017-09-27 21:05:00 89391 264.800 5.0000 0.0000 0.0000 265.300 5.0000 0.0000 0.0000 264.900 5.0000 0.0000 0.0000 12.810 90.400 11.279           12.880 12.720 90.600 89.900 14.791 13.371 1.420
DSCMET_421 2017-09-27 21:00:00 89390 264.800 5.0000 0.0000 0.0000 265.200 5.0000 0.0000 0.0000 264.800 5.0000 0.0000 0.0000 12.980 90.000 11.380           13.060 12.830 90.700 89.500 14.957 13.461 1.496
DSCMET_421 2017-09-27 20:55:00 89389 264.800 5.0000 0.0000 0.0000 265.100 5.0000 0.0000 0.0000 264.800 5.0000 0.0000 0.0000 13.160 89.100 11.406           13.230 13.110 89.700 88.700 15.134 13.484 1.650
DSCMET_421 2017-09-27 20:50:00 89388 264.800 5.0000 0.0000 0.0000 265.100 5.0000 0.0000 0.0000 264.800 5.0000 0.0000 0.0000 13.190 89.300 11.469           13.310 13.100 89.500 89.000 15.164 13.541 1.623
DSCMET_421 2017-09-27 20:45:00 89387 264.800 5.0000 0.0000 0.0000 265.100 5.0000 0.0000 0.0000 264.800 5.0000 0.0000 0.0000 13.370 88.600 11.528           13.480 13.260 89.200 87.900 15.343 13.594 1.749
DSCMET_421 2017-09-27 20:40:00 89386 264.800 5.0000 0.0000 0.0000 265.100 5.0000 0.0000 0.0000 264.800 5.0000 0.0000 0.0000 13.410 88.000 11.464           13.510 13.340 88.200 87.500 15.383 13.537 1.846
DSCMET_421 2017-09-27 20:35:00 89385 264.800 5.0000 0.0000 0.0000 265.100 5.0000 0.0000 0.0000 264.700 5.0000 0.0000 0.0000 13.530 87.400 11.479           13.610 13.440 87.700 87.000 15.504 13.550 1.953
DSCMET_421 2017-09-27 20:30:00 89384 264.800 5.0000 0.0000 0.0000 265.100 5.0000 0.0000 0.0000 264.500 5.0000 0.0000 0.0000 13.700 86.700 11.525           13.820 13.610 87.300 86.100 15.676 13.591 2.085
DSCMET_421 2017-09-27 20:25:00 89383 264.800 5.0000 0.0000 0.0000 265.100 5.0000 0.0000 0.0000 264.600 5.0000 0.0000 0.0000 13.730 87.600 11.711           13.850 13.610 88.800 86.300 15.707 13.759 1.948
DSCMET_421 2017-09-27 20:20:00 89382 264.800 5.0000 0.0000 0.0000 265.100 5.0000 0.0000 0.0000 264.500 5.0000 0.0000 0.0000 13.810 87.100 11.703           13.900 13.720 88.000 86.600 15.789 13.752 2.037
DSCMET_421 2017-09-27 20:15:00 89381 264.800 5.0000 0.0000 0.0000 265.100 5.0000 0.0000 0.0000 264.500 5.0000 0.0000 0.0000 13.870 87.100 11.762           13.970 13.770 87.700 86.800 15.850 13.806 2.045
DSCMET_421 2017-09-27 20:10:00 89380 264.800 5.0000 0.0000 0.0000 265.100 5.0000 0.0000 0.0000 264.400 5.0000 0.0000 0.0000 13.880 87.500 11.841           14.000 13.750 88.100 86.800 15.861 13.878 1.983
DSCMET_421 2017-09-27 20:05:00 89379 264.800 5.0000 0.0000 0.0000 265.100 5.0000 0.0000 0.0000 264.400 5.0000 0.0000 0.0000 14.030 87.500 11.988           14.170 13.950 88.100 87.100 16.016 14.014 2.002
DSCMET_421 2017-09-27 20:00:00 89378 264.800 5.0000 0.0000 0.0000 265.100 5.0000 0.0000 0.0000 264.400 5.0000 0.0000 0.0000 14.360 85.400 11.944           14.560 14.130 87.300 83.700 16.362 13.973 2.389
DSCMET_421 2017-09-27 19:55:00 89377 264.600 5.0000 0.0000 0.0000 265.100 5.0000 0.0000 0.0000 264.400 5.0000 0.0000 0.0000 14.330 86.400 12.091           14.450 14.180 87.000 85.600 16.330 14.109 2.221
DSCMET_421 2017-09-27 19:50:00 89376 264.700 5.0000 0.0000 0.0000 265.100 5.0000 0.0000 0.0000 264.400 5.0000 0.0000 0.0000 14.460 86.300 12.202           14.530 14.390 87.000 85.700 16.468 14.212 2.256
DSCMET_421 2017-09-27 19:45:00 89375 264.500 5.0000 0.0000 0.0000 265.100 5.0000 0.0000 0.0000 264.100 5.0000 0.0000 0.0000 14.540 86.000 12.227           14.740 14.410 86.800 84.600 16.553 14.236 2.317
DSCMET_421 2017-09-27 19:40:00 89374 264.400 5.0000 0.0000 0.0000 265.000 5.0000 0.0000 0.0000 264.100 5.0000 0.0000 0.0000 14.910 83.600 12.160           15.070 14.730 84.600 82.800 16.953 14.173 2.780
DSCMET_421 2017-09-27 19:35:00 89373 264.400 5.0000 0.0000 0.0000 265.000 5.0000 0.0000 0.0000 264.100 5.0000 0.0000 0.0000 15.080 83.100 12.235           15.150 15.020 83.500 82.600 17.140 14.243 2.897
DSCMET_421 2017-09-27 19:30:00 89372 264.400 5.0000 0.0000 0.0000 265.000 5.0000 0.0000 0.0000 264.100 5.0000 0.0000 0.0000 15.190 83.100 12.342           15.300 15.120 83.700 82.400 17.262 14.344 2.917
DSCMET_421 2017-09-27 19:25:00 89371 264.400 5.0000 0.0000 0.0000 264.900 5.0000 0.0000 0.0000 264.100 5.0000 0.0000 0.0000 15.500 81.400 12.331           15.870 15.270 83.200 80.200 17.609 14.333 3.275
DSCMET_421 2017-09-27 19:20:00 89370 264.400 5.0000 0.0000 0.0000 264.900 5.0000 0.0000 0.0000 264.100 5.0000 0.0000 0.0000 15.850 78.830 12.184           15.980 15.750 80.300 77.180 18.008 14.195 3.812
DSCMET_421 2017-09-27 19:15:00 89369 264.400 5.0000 0.0000 0.0000 264.700 5.0000 0.0000 0.0000 264.100 5.0000 0.0000 0.0000 15.710 80.600 12.385           15.880 15.480 82.800 79.000 17.847 14.385 3.462
DSCMET_421 2017-09-27 19:10:00 89368 264.400 5.0000 0.0000 0.0000 264.800 5.0000 0.0000 0.0000 264.100 5.0000 0.0000 0.0000 15.710 81.200 12.498           15.900 15.560 82.500 80.000 17.847 14.492 3.355
DSCMET_421 2017-09-27 19:05:00 89367 264.400 5.0000 0.0000 0.0000 264.800 5.0000 0.0000 0.0000 264.000 5.0000 0.0000 0.0000 15.460 84.500 12.861           15.680 15.350 85.600 82.700 17.563 14.841 2.722
DSCMET_421 2017-09-27 19:00:00 89366 264.400 5.0000 0.0000 0.0000 264.700 5.0000 0.0000 0.0000 263.900 5.0000 0.0000 0.0000 15.730 83.100 12.870           15.840 15.640 83.900 81.600 17.870 14.850 3.020
DSCMET_421 2017-09-27 18:55:00 89365 264.400 5.0000 0.0000 0.0000 264.700 5.0000 0.0000 0.0000 263.700 5.0000 0.0000 0.0000 16.140 80.800 12.842           16.390 15.810 83.400 78.580 18.344 14.822 3.522
DSCMET_421 2017-09-27 18:50:00 89364 264.400 5.0000 0.0000 0.0000 264.700 5.0000 0.0000 0.0000 263.700 5.0000 0.0000 0.0000 16.390 78.720 12.687           16.440 16.310 79.330 78.130 18.639 14.673 3.966
DSCMET_421 2017-09-27 18:45:00 89363 264.400 5.0000 0.0000 0.0000 264.700 5.0000 0.0000 0.0000 263.700 5.0000 0.0000 0.0000 16.280 80.700 12.959           16.320 16.220 81.300 79.860 18.509 14.937 3.572
DSCMET_421 2017-09-27 18:40:00 89362 264.400 5.0000 0.0000 0.0000 264.700 5.0000 0.0000 0.0000 263.700 5.0000 0.0000 0.0000 16.540 79.980 13.075           16.900 16.300 80.900 77.170 18.818 15.050 3.767
DSCMET_421 2017-09-27 18:35:00 89361 264.300 5.0000 0.0000 0.0000 264.700 5.0000 0.0000 0.0000 263.700 5.0000 0.0000 0.0000 17.120 75.090 12.674           17.200 17.080 77.260 74.330 19.523 14.660 4.863
DSCMET_421 2017-09-27 18:30:00 89360 264.300 5.0000 0.0000 0.0000 264.700 5.0000 0.0000 0.0000 263.700 5.0000 0.0000 0.0000 17.140 75.460 12.768           17.240 16.980 77.560 74.370 19.548 14.751 4.797
DSCMET_421 2017-09-27 18:25:00 89359 264.300 5.0000 0.0000 0.0000 264.700 5.0000 0.0000 0.0000 263.700 5.0000 0.0000 0.0000 16.990 78.650 13.256           17.090 16.860 79.300 77.590 19.363 15.229 4.134
DSCMET_421 2017-09-27 18:20:00 89358 264.300 5.0000 0.0000 0.0000 264.700 5.0000 0.0000 0.0000 263.500 5.0000 0.0000 0.0000 17.100 78.410 13.316           17.340 16.830 80.900 76.000 19.498 15.289 4.210
DSCMET_421 2017-09-27 18:15:00 89357 264.300 5.0000 0.0000 0.0000 264.600 5.0000 0.0000 0.0000 263.300 5.0000 0.0000 0.0000 16.880 81.300 13.657           17.090 16.790 82.000 80.000 19.229 15.633 3.596
DSCMET_421 2017-09-27 18:10:00 89356 264.300 5.0000 0.0000 0.0000 264.600 5.0000 0.0000 0.0000 263.200 5.0000 0.0000 0.0000 17.370 78.530 13.601           17.920 17.120 79.770 75.660 19.834 15.576 4.258
DSCMET_421 2017-09-27 18:05:00 89355 264.300 5.0000 0.0000 0.0000 264.600 5.0000 0.0000 0.0000 263.000 5.0000 0.0000 0.0000 17.780 75.060 13.305           17.970 17.550 78.190 71.780 20.354 15.278 5.076
DSCMET_421 2017-09-27 18:00:00 89354 264.300 5.0000 0.0000 0.0000 264.500 5.0000 0.0000 0.0000 263.000 5.0000 0.0000 0.0000 18.180 72.950 13.253           18.510 17.810 77.150 69.270 20.872 15.226 5.646
DSCMET_421 2017-09-27 17:55:00 89353 264.000 5.0000 0.0000 0.0000 264.300 5.0000 0.0000 0.0000 263.000 5.0000 0.0000 0.0000 18.350 71.750 13.163           18.490 18.080 74.560 70.280 21.096 15.137 5.960
DSCMET_421 2017-09-27 17:50:00 89352 263.900 5.0000 0.0000 0.0000 264.300 5.0000 0.0000 0.0000 262.900 5.0000 0.0000 0.0000 18.470 72.810 13.503           19.040 18.180 75.950 68.770 21.256 15.476 5.779
DSCMET_421 2017-09-27 17:45:00 89351 263.900 5.0000 0.0000 0.0000 264.300 5.0000 0.0000 0.0000 262.800 5.0000 0.0000 0.0000 18.950 69.580 13.267           19.170 18.740 71.470 66.600 21.903 15.240 6.663
DSCMET_421 2017-09-27 17:40:00 89350 263.900 5.0000 0.0000 0.0000 264.200 5.0000 0.0000 0.0000 262.700 5.0000 0.0000 0.0000 19.450 67.010 13.168           19.710 19.080 69.810 64.240 22.596 15.142 7.454
DSCMET_421 2017-09-27 17:35:00 89349 263.900 5.0000 0.0000 0.0000 264.200 5.0000 0.0000 0.0000 262.800 5.0000 0.0000 0.0000 19.510 67.320 13.296           19.760 19.230 69.370 64.620 22.680 15.268 7.412
DSCMET_421 2017-09-27 17:30:00 89348 263.900 5.0000 0.0000 0.0000 264.000 5.0000 0.0000 0.0000 262.600 5.0000 0.0000 0.0000 19.580 68.290 13.582           20.090 19.080 72.260 63.930 22.779 15.556 7.223
DSCMET_421 2017-09-27 17:25:00 89347 263.900 5.0000 0.0000 0.0000 263.900 5.0000 0.0000 0.0000 262.600 5.0000 0.0000 0.0000 19.870 66.670 13.489           20.200 19.660 69.600 63.800 23.193 15.463 7.730
DSCMET_421 2017-09-27 17:20:00 89346 263.700 5.0000 0.0000 0.0000 263.900 5.0000 0.0000 0.0000 262.600 5.0000 0.0000 0.0000 20.010 67.260 13.758           20.450 19.740 69.650 64.680 23.395 15.735 7.659
DSCMET_421 2017-09-27 17:15:00 89345 263.500 5.0000 0.0000 0.0000 263.900 5.0000 0.0000 0.0000 262.500 5.0000 0.0000 0.0000 20.520 64.730 13.653           20.810 20.080 68.450 61.360 24.143 15.628 8.515
DSCMET_421 2017-09-27 17:10:00 89344 263.500 5.0000 0.0000 0.0000 263.900 5.0000 0.0000 0.0000 262.500 5.0000 0.0000 0.0000 20.590 64.890 13.757           20.880 20.380 67.520 62.600 24.248 15.734 8.513
DSCMET_421 2017-09-27 17:05:00 89343 263.500 5.0000 0.0000 0.0000 263.600 5.0000 0.0000 0.0000 262.500 5.0000 0.0000 0.0000 21.060 62.830 13.706           21.460 20.880 65.960 56.950 24.959 15.682 9.277
DSCMET_421 2017-09-27 17:00:00 89342 263.500 5.0000 0.0000 0.0000 263.500 5.0000 0.0000 0.0000 262.500 5.0000 0.0000 0.0000 21.060 64.290 14.059           21.550 20.630 69.000 59.120 24.959 16.046 8.913
DSCMET_421 2017-09-27 16:55:00 89341 263.500 5.0000 0.0000 0.0000 263.500 5.0000 0.0000 0.0000 262.300 5.0000 0.0000 0.0000 21.180 67.180 14.853           21.600 20.790 69.230 62.810 25.143 16.891 8.252
DSCMET_421 2017-09-27 16:50:00 89340 263.500 5.0000 0.0000 0.0000 263.500 5.0000 0.0000 0.0000 262.200 5.0000 0.0000 0.0000 21.610 64.350 14.594           21.700 21.400 66.540 61.240 25.814 16.612 9.203
DSCMET_421 2017-09-27 16:45:00 89339 263.500 5.0000 0.0000 0.0000 263.300 5.0000 0.0000 0.0000 262.200 5.0000 0.0000 0.0000 21.890 61.760 14.223           22.310 21.650 63.340 59.200 26.259 16.218 10.042
DSCMET_421 2017-09-27 16:40:00 89338 263.400 5.0000 0.0000 0.0000 263.200 5.0000 0.0000 0.0000 262.200 5.0000 0.0000 0.0000 22.150 59.160 13.805           22.330 21.900 62.890 54.220 26.679 15.783 10.896
DSCMET_421 2017-09-27 16:35:00 89337 263.200 5.0000 0.0000 0.0000 263.200 5.0000 0.0000 0.0000 262.100 5.0000 0.0000 0.0000 22.420 60.910 14.508           22.770 22.080 63.640 56.590 27.121 16.519 10.601
DSCMET_421 2017-09-27 16:30:00 89336 263.200 5.0000 0.0000 0.0000 263.200 5.0000 0.0000 0.0000 261.800 5.0000 0.0000 0.0000 22.820 58.410 14.235           23.300 22.460 60.240 55.500 27.787 16.230 11.556
DSCMET_421 2017-09-27 16:25:00 89335 263.200 5.0000 0.0000 0.0000 263.200 5.0000 0.0000 0.0000 261.800 5.0000 0.0000 0.0000 23.140 55.120 13.640           23.650 22.790 57.690 52.400 28.330 15.615 12.714
DSCMET_421 2017-09-27 16:20:00 89334 263.200 5.0000 0.0000 0.0000 263.100 5.0000 0.0000 0.0000 261.700 5.0000 0.0000 0.0000 23.310 55.180 13.815           23.570 22.870 57.090 50.770 28.622 15.794 12.828
DSCMET_421 2017-09-27 16:15:00 89333 263.200 5.0000 0.0000 0.0000 263.000 5.0000 0.0000 0.0000 261.700 5.0000 0.0000 0.0000 23.680 53.850 13.782           24.150 23.390 57.040 51.670 29.267 15.760 13.507
DSCMET_421 2017-09-27 16:10:00 89332 263.200 5.0000 0.0000 0.0000 262.800 5.0000 0.0000 0.0000 261.500 5.0000 0.0000 0.0000 23.890 50.630 13.030           24.260 23.500 54.640 43.370 29.639 15.006 14.633
DSCMET_421 2017-09-27 16:05:00 89331 263.100 5.0000 0.0000 0.0000 262.800 5.0000 0.0000 0.0000 261.500 5.0000 0.0000 0.0000 23.790 49.250 12.517           24.060 23.520 55.020 41.180 29.461 14.510 14.952